<?xml version="1.0" encoding="UTF-8" standalone="no" ?>
<gpx xmlns="http://www.topografix.com/GPX/1/1" xmlns:xsi="http://www.w3.org/2001/XMLSchema-instance" xsi:schemaLocation="http://www.topografix.com/GPX/1/1 http://www.topografix.com/GPX/1/1/gpx.xsd" version="1.1" creator="VisuGPX - https://www.visugpx.com">
  <metadata>
    <name>2021 Raid en Provence</name>
  </metadata>
  <trk>
    <name><![CDATA[J4 Black Aubignosc]]></name>
    <extensions>
      <line xmlns="http://www.topografix.com/GPX/gpx_style/0/2">
        <color>ff00ff</color>
        <width>4</width>
      </line>
    </extensions>
    <trkseg>
      <trkpt lat="44.04543" lon="5.78018">
        <ele>688.5</ele>
        <time>2021-05-30T06:30:33.000Z</time>
      </trkpt>
      <trkpt lat="44.04543" lon="5.78392">
        <ele>689.8</ele>
        <time>2021-05-30T06:32:12.296Z</time>
      </trkpt>
      <trkpt lat="44.04581" lon="5.78848">
        <ele>700.1</ele>
        <time>2021-05-30T06:34:55.414Z</time>
      </trkpt>
      <trkpt lat="44.04527" lon="5.79094">
        <ele>698.7</ele>
        <time>2021-05-30T06:35:34.664Z</time>
      </trkpt>
      <trkpt lat="44.04608" lon="5.79416">
        <ele>699.1</ele>
        <time>2021-05-30T06:37:02.539Z</time>
      </trkpt>
      <trkpt lat="44.04597" lon="5.79565">
        <ele>698.4</ele>
        <time>2021-05-30T06:37:37.101Z</time>
      </trkpt>
      <trkpt lat="44.0464" lon="5.79841">
        <ele>690.3</ele>
        <time>2021-05-30T06:38:06.947Z</time>
      </trkpt>
      <trkpt lat="44.0471" lon="5.8023">
        <ele>692.6</ele>
        <time>2021-05-30T06:39:56.718Z</time>
      </trkpt>
      <trkpt lat="44.0478" lon="5.8035">
        <ele>693.6</ele>
        <time>2021-05-30T06:40:39.454Z</time>
      </trkpt>
      <trkpt lat="44.04806" lon="5.80544">
        <ele>687.7</ele>
        <time>2021-05-30T06:40:59.980Z</time>
      </trkpt>
      <trkpt lat="44.04951" lon="5.80648">
        <ele>693</ele>
        <time>2021-05-30T06:42:21.964Z</time>
      </trkpt>
      <trkpt lat="44.05257" lon="5.80843">
        <ele>700.9</ele>
        <time>2021-05-30T06:44:53.315Z</time>
      </trkpt>
      <trkpt lat="44.05392" lon="5.81044">
        <ele>701.5</ele>
        <time>2021-05-30T06:46:05.106Z</time>
      </trkpt>
      <trkpt lat="44.05499" lon="5.81201">
        <ele>699.3</ele>
        <time>2021-05-30T06:46:35.385Z</time>
      </trkpt>
      <trkpt lat="44.0559" lon="5.81381">
        <ele>694.9</ele>
        <time>2021-05-30T06:47:01.659Z</time>
      </trkpt>
      <trkpt lat="44.05746" lon="5.81515">
        <ele>696.1</ele>
        <time>2021-05-30T06:48:10.502Z</time>
      </trkpt>
      <trkpt lat="44.05827" lon="5.81799">
        <ele>699.3</ele>
        <time>2021-05-30T06:49:39.956Z</time>
      </trkpt>
      <trkpt lat="44.05961" lon="5.82158">
        <ele>706.6</ele>
        <time>2021-05-30T06:51:53.233Z</time>
      </trkpt>
      <trkpt lat="44.06009" lon="5.82262">
        <ele>707.4</ele>
        <time>2021-05-30T06:52:27.407Z</time>
      </trkpt>
      <trkpt lat="44.06036" lon="5.82412">
        <ele>699.6</ele>
        <time>2021-05-30T06:52:41.624Z</time>
      </trkpt>
      <trkpt lat="44.0609" lon="5.82726">
        <ele>703.4</ele>
        <time>2021-05-30T06:54:17.982Z</time>
      </trkpt>
      <trkpt lat="44.06186" lon="5.83114">
        <ele>704.2</ele>
        <time>2021-05-30T06:56:04.728Z</time>
      </trkpt>
      <trkpt lat="44.0624" lon="5.8345">
        <ele>702.7</ele>
        <time>2021-05-30T06:57:24.642Z</time>
      </trkpt>
      <trkpt lat="44.06305" lon="5.83697">
        <ele>706.5</ele>
        <time>2021-05-30T06:58:46.426Z</time>
      </trkpt>
      <trkpt lat="44.06325" lon="5.83965">
        <ele>705.6</ele>
        <time>2021-05-30T06:59:50.229Z</time>
      </trkpt>
      <trkpt lat="44.06351" lon="5.84234">
        <ele>711.2</ele>
        <time>2021-05-30T07:01:23.646Z</time>
      </trkpt>
      <trkpt lat="44.06366" lon="5.8437">
        <ele>714</ele>
        <time>2021-05-30T07:02:10.773Z</time>
      </trkpt>
      <trkpt lat="44.06389" lon="5.84526">
        <ele>715.6</ele>
        <time>2021-05-30T07:02:57.101Z</time>
      </trkpt>
      <trkpt lat="44.06412" lon="5.84642">
        <ele>717.3</ele>
        <time>2021-05-30T07:03:34.329Z</time>
      </trkpt>
      <trkpt lat="44.0644" lon="5.84722">
        <ele>719.8</ele>
        <time>2021-05-30T07:04:09.494Z</time>
      </trkpt>
      <trkpt lat="44.06481" lon="5.8483">
        <ele>721.7</ele>
        <time>2021-05-30T07:04:48.140Z</time>
      </trkpt>
      <trkpt lat="44.06484" lon="5.84934">
        <ele>720.2</ele>
        <time>2021-05-30T07:05:01.695Z</time>
      </trkpt>
      <trkpt lat="44.06527" lon="5.85091">
        <ele>724.6</ele>
        <time>2021-05-30T07:06:05.669Z</time>
      </trkpt>
      <trkpt lat="44.06665" lon="5.85339">
        <ele>732.5</ele>
        <time>2021-05-30T07:08:02.855Z</time>
      </trkpt>
      <trkpt lat="44.06694" lon="5.85563">
        <ele>724.3</ele>
        <time>2021-05-30T07:08:24.768Z</time>
      </trkpt>
      <trkpt lat="44.0672" lon="5.85647">
        <ele>721.8</ele>
        <time>2021-05-30T07:08:34.605Z</time>
      </trkpt>
      <trkpt lat="44.0672" lon="5.85847">
        <ele>722.4</ele>
        <time>2021-05-30T07:09:27.351Z</time>
      </trkpt>
      <trkpt lat="44.06737" lon="5.86004">
        <ele>724.9</ele>
        <time>2021-05-30T07:10:17.736Z</time>
      </trkpt>
      <trkpt lat="44.06717" lon="5.86128">
        <ele>724.2</ele>
        <time>2021-05-30T07:10:37.097Z</time>
      </trkpt>
      <trkpt lat="44.06717" lon="5.86332">
        <ele>721.4</ele>
        <time>2021-05-30T07:11:03.962Z</time>
      </trkpt>
      <trkpt lat="44.06728" lon="5.86444">
        <ele>719.9</ele>
        <time>2021-05-30T07:11:18.962Z</time>
      </trkpt>
      <trkpt lat="44.06717" lon="5.86588">
        <ele>717</ele>
        <time>2021-05-30T07:11:36.237Z</time>
      </trkpt>
      <trkpt lat="44.0674" lon="5.86712">
        <ele>720.2</ele>
        <time>2021-05-30T07:12:23.904Z</time>
      </trkpt>
      <trkpt lat="44.06737" lon="5.86832">
        <ele>721.6</ele>
        <time>2021-05-30T07:12:59.676Z</time>
      </trkpt>
      <trkpt lat="44.06748" lon="5.87009">
        <ele>721.9</ele>
        <time>2021-05-30T07:13:45.730Z</time>
      </trkpt>
      <trkpt lat="44.0676" lon="5.87101">
        <ele>724.2</ele>
        <time>2021-05-30T07:14:20.281Z</time>
      </trkpt>
      <trkpt lat="44.06714" lon="5.87253">
        <ele>722.7</ele>
        <time>2021-05-30T07:14:43.798Z</time>
      </trkpt>
      <trkpt lat="44.06688" lon="5.87377">
        <ele>719.3</ele>
        <time>2021-05-30T07:14:57.882Z</time>
      </trkpt>
      <trkpt lat="44.06685" lon="5.87509">
        <ele>718.9</ele>
        <time>2021-05-30T07:15:29.348Z</time>
      </trkpt>
      <trkpt lat="44.06731" lon="5.87613">
        <ele>717.1</ele>
        <time>2021-05-30T07:15:45.166Z</time>
      </trkpt>
      <trkpt lat="44.06711" lon="5.87713">
        <ele>712</ele>
        <time>2021-05-30T07:15:54.709Z</time>
      </trkpt>
      <trkpt lat="44.06706" lon="5.87785">
        <ele>714.2</ele>
        <time>2021-05-30T07:16:24.674Z</time>
      </trkpt>
      <trkpt lat="44.06729" lon="5.87853">
        <ele>720.4</ele>
        <time>2021-05-30T07:17:22.608Z</time>
      </trkpt>
      <trkpt lat="44.06793" lon="5.87913">
        <ele>730</ele>
        <time>2021-05-30T07:18:55.551Z</time>
      </trkpt>
      <trkpt lat="44.06732" lon="5.88006">
        <ele>727.3</ele>
        <time>2021-05-30T07:19:10.262Z</time>
      </trkpt>
      <trkpt lat="44.06793" lon="5.88082">
        <ele>736.5</ele>
        <time>2021-05-30T07:20:35.721Z</time>
      </trkpt>
      <trkpt lat="44.06741" lon="5.88146">
        <ele>738</ele>
        <time>2021-05-30T07:21:06.272Z</time>
      </trkpt>
      <trkpt lat="44.06724" lon="5.88206">
        <ele>741.2</ele>
        <time>2021-05-30T07:21:38.957Z</time>
      </trkpt>
      <trkpt lat="44.06724" lon="5.8831">
        <ele>744.6</ele>
        <time>2021-05-30T07:22:23.760Z</time>
      </trkpt>
      <trkpt lat="44.06712" lon="5.88398">
        <ele>741.6</ele>
        <time>2021-05-30T07:22:32.656Z</time>
      </trkpt>
      <trkpt lat="44.06686" lon="5.88622">
        <ele>724.3</ele>
        <time>2021-05-30T07:22:53.515Z</time>
      </trkpt>
      <trkpt lat="44.0666" lon="5.88774">
        <ele>716.4</ele>
        <time>2021-05-30T07:23:07.879Z</time>
      </trkpt>
      <trkpt lat="44.06657" lon="5.89003">
        <ele>714.1</ele>
        <time>2021-05-30T07:23:39.993Z</time>
      </trkpt>
      <trkpt lat="44.06652" lon="5.89267">
        <ele>705.9</ele>
        <time>2021-05-30T07:24:07.043Z</time>
      </trkpt>
      <trkpt lat="44.06646" lon="5.89431">
        <ele>700.4</ele>
        <time>2021-05-30T07:24:23.351Z</time>
      </trkpt>
      <trkpt lat="44.06623" lon="5.89619">
        <ele>698.3</ele>
        <time>2021-05-30T07:24:49.643Z</time>
      </trkpt>
      <trkpt lat="44.06626" lon="5.89735">
        <ele>699.1</ele>
        <time>2021-05-30T07:25:21.921Z</time>
      </trkpt>
      <trkpt lat="44.06637" lon="5.89766">
        <ele>700</ele>
        <time>2021-05-30T07:25:35.046Z</time>
      </trkpt>
      <trkpt lat="44.06621" lon="5.89799">
        <ele>695.3</ele>
        <time>2021-05-30T07:25:38.706Z</time>
      </trkpt>
      <trkpt lat="44.06633" lon="5.89831">
        <ele>695.5</ele>
        <time>2021-05-30T07:25:48.557Z</time>
      </trkpt>
      <trkpt lat="44.06626" lon="5.89862">
        <ele>691.8</ele>
        <time>2021-05-30T07:25:51.545Z</time>
      </trkpt>
      <trkpt lat="44.06641" lon="5.89881">
        <ele>692.1</ele>
        <time>2021-05-30T07:25:59.827Z</time>
      </trkpt>
      <trkpt lat="44.06714" lon="5.89907">
        <ele>694.6</ele>
        <time>2021-05-30T07:26:38.039Z</time>
      </trkpt>
      <trkpt lat="44.06795" lon="5.8997">
        <ele>690</ele>
        <time>2021-05-30T07:26:50.533Z</time>
      </trkpt>
      <trkpt lat="44.06806" lon="5.90034">
        <ele>685.7</ele>
        <time>2021-05-30T07:26:56.583Z</time>
      </trkpt>
      <trkpt lat="44.06845" lon="5.90116">
        <ele>684.7</ele>
        <time>2021-05-30T07:27:10.340Z</time>
      </trkpt>
      <trkpt lat="44.06866" lon="5.90116">
        <ele>684.9</ele>
        <time>2021-05-30T07:27:18.462Z</time>
      </trkpt>
      <trkpt lat="44.06866" lon="5.90116">
        <ele>684.9</ele>
        <time>2021-05-30T07:27:18.462Z</time>
      </trkpt>
      <trkpt lat="44.0689" lon="5.90118">
        <ele>685.1</ele>
        <time>2021-05-30T07:27:27.649Z</time>
      </trkpt>
      <trkpt lat="44.06942" lon="5.90112">
        <ele>685.8</ele>
        <time>2021-05-30T07:27:48.649Z</time>
      </trkpt>
      <trkpt lat="44.07002" lon="5.90109">
        <ele>686.6</ele>
        <time>2021-05-30T07:28:12.789Z</time>
      </trkpt>
      <trkpt lat="44.07047" lon="5.90117">
        <ele>685.3</ele>
        <time>2021-05-30T07:28:20.258Z</time>
      </trkpt>
      <trkpt lat="44.0709" lon="5.90132">
        <ele>683.8</ele>
        <time>2021-05-30T07:28:27.175Z</time>
      </trkpt>
      <trkpt lat="44.07145" lon="5.90155">
        <ele>682.3</ele>
        <time>2021-05-30T07:28:36.892Z</time>
      </trkpt>
      <trkpt lat="44.07219" lon="5.90181">
        <ele>679.4</ele>
        <time>2021-05-30T07:28:48.321Z</time>
      </trkpt>
      <trkpt lat="44.073" lon="5.90244">
        <ele>677.3</ele>
        <time>2021-05-30T07:29:04.645Z</time>
      </trkpt>
      <trkpt lat="44.07329" lon="5.90264">
        <ele>678.2</ele>
        <time>2021-05-30T07:29:19.975Z</time>
      </trkpt>
      <trkpt lat="44.074" lon="5.9032">
        <ele>681</ele>
        <time>2021-05-30T07:30:01.985Z</time>
      </trkpt>
      <trkpt lat="44.07406" lon="5.90332">
        <ele>681.4</ele>
        <time>2021-05-30T07:30:07.679Z</time>
      </trkpt>
      <trkpt lat="44.07439" lon="5.90374">
        <ele>685.4</ele>
        <time>2021-05-30T07:30:44.903Z</time>
      </trkpt>
      <trkpt lat="44.07487" lon="5.90442">
        <ele>685.9</ele>
        <time>2021-05-30T07:31:10.812Z</time>
      </trkpt>
      <trkpt lat="44.07513" lon="5.90484">
        <ele>688.5</ele>
        <time>2021-05-30T07:31:38.132Z</time>
      </trkpt>
      <trkpt lat="44.07534" lon="5.90529">
        <ele>692.9</ele>
        <time>2021-05-30T07:32:19.174Z</time>
      </trkpt>
      <trkpt lat="44.0755" lon="5.90572">
        <ele>696.6</ele>
        <time>2021-05-30T07:32:53.218Z</time>
      </trkpt>
      <trkpt lat="44.07563" lon="5.90623">
        <ele>698</ele>
        <time>2021-05-30T07:33:13.697Z</time>
      </trkpt>
      <trkpt lat="44.07568" lon="5.90663">
        <ele>699.8</ele>
        <time>2021-05-30T07:33:33.198Z</time>
      </trkpt>
      <trkpt lat="44.07562" lon="5.90779">
        <ele>697.8</ele>
        <time>2021-05-30T07:33:47.682Z</time>
      </trkpt>
      <trkpt lat="44.07552" lon="5.9081">
        <ele>698.5</ele>
        <time>2021-05-30T07:33:59.369Z</time>
      </trkpt>
      <trkpt lat="44.07534" lon="5.9085">
        <ele>701.7</ele>
        <time>2021-05-30T07:34:28.878Z</time>
      </trkpt>
      <trkpt lat="44.07512" lon="5.9091">
        <ele>701.9</ele>
        <time>2021-05-30T07:34:46.634Z</time>
      </trkpt>
      <trkpt lat="44.07503" lon="5.90951">
        <ele>699.4</ele>
        <time>2021-05-30T07:34:50.575Z</time>
      </trkpt>
      <trkpt lat="44.07497" lon="5.90988">
        <ele>696</ele>
        <time>2021-05-30T07:34:54.061Z</time>
      </trkpt>
      <trkpt lat="44.07492" lon="5.91003">
        <ele>695.4</ele>
        <time>2021-05-30T07:34:55.648Z</time>
      </trkpt>
      <trkpt lat="44.07523" lon="5.9102">
        <ele>680.6</ele>
        <time>2021-05-30T07:34:59.911Z</time>
      </trkpt>
      <trkpt lat="44.07531" lon="5.91029">
        <ele>676.3</ele>
        <time>2021-05-30T07:35:01.227Z</time>
      </trkpt>
      <trkpt lat="44.07541" lon="5.91046">
        <ele>670.4</ele>
        <time>2021-05-30T07:35:03.246Z</time>
      </trkpt>
      <trkpt lat="44.07555" lon="5.91089">
        <ele>660.8</ele>
        <time>2021-05-30T07:35:07.586Z</time>
      </trkpt>
      <trkpt lat="44.0756" lon="5.9112">
        <ele>657.2</ele>
        <time>2021-05-30T07:35:10.506Z</time>
      </trkpt>
      <trkpt lat="44.07566" lon="5.91181">
        <ele>651.4</ele>
        <time>2021-05-30T07:35:16.165Z</time>
      </trkpt>
      <trkpt lat="44.07565" lon="5.91211">
        <ele>650.2</ele>
        <time>2021-05-30T07:35:18.925Z</time>
      </trkpt>
      <trkpt lat="44.0757" lon="5.91237">
        <ele>647.2</ele>
        <time>2021-05-30T07:35:21.399Z</time>
      </trkpt>
      <trkpt lat="44.07581" lon="5.91254">
        <ele>642.6</ele>
        <time>2021-05-30T07:35:23.502Z</time>
      </trkpt>
      <trkpt lat="44.07588" lon="5.91306">
        <ele>639.9</ele>
        <time>2021-05-30T07:35:28.365Z</time>
      </trkpt>
      <trkpt lat="44.07594" lon="5.91327">
        <ele>639.6</ele>
        <time>2021-05-30T07:35:31.363Z</time>
      </trkpt>
      <trkpt lat="44.07595" lon="5.91343">
        <ele>639.3</ele>
        <time>2021-05-30T07:35:33.318Z</time>
      </trkpt>
      <trkpt lat="44.07606" lon="5.91415">
        <ele>639.2</ele>
        <time>2021-05-30T07:35:51.460Z</time>
      </trkpt>
      <trkpt lat="44.07624" lon="5.91582">
        <ele>632.5</ele>
        <time>2021-05-30T07:36:07.029Z</time>
      </trkpt>
      <trkpt lat="44.07623" lon="5.91641">
        <ele>631.9</ele>
        <time>2021-05-30T07:36:15.285Z</time>
      </trkpt>
      <trkpt lat="44.07614" lon="5.91687">
        <ele>629.7</ele>
        <time>2021-05-30T07:36:19.375Z</time>
      </trkpt>
      <trkpt lat="44.07577" lon="5.91838">
        <ele>618.1</ele>
        <time>2021-05-30T07:36:34.039Z</time>
      </trkpt>
      <trkpt lat="44.07571" lon="5.91878">
        <ele>619</ele>
        <time>2021-05-30T07:36:48.448Z</time>
      </trkpt>
      <trkpt lat="44.07572" lon="5.91908">
        <ele>619.9</ele>
        <time>2021-05-30T07:37:00.774Z</time>
      </trkpt>
      <trkpt lat="44.07582" lon="5.91926">
        <ele>623</ele>
        <time>2021-05-30T07:37:23.032Z</time>
      </trkpt>
      <trkpt lat="44.07598" lon="5.91943">
        <ele>629.8</ele>
        <time>2021-05-30T07:37:50.439Z</time>
      </trkpt>
      <trkpt lat="44.07629" lon="5.91965">
        <ele>640.2</ele>
        <time>2021-05-30T07:38:37.818Z</time>
      </trkpt>
      <trkpt lat="44.07652" lon="5.91973">
        <ele>646.4</ele>
        <time>2021-05-30T07:39:10.097Z</time>
      </trkpt>
      <trkpt lat="44.07659" lon="5.91984">
        <ele>648.2</ele>
        <time>2021-05-30T07:39:24.471Z</time>
      </trkpt>
      <trkpt lat="44.07654" lon="5.91994">
        <ele>647.3</ele>
        <time>2021-05-30T07:39:25.591Z</time>
      </trkpt>
      <trkpt lat="44.0762" lon="5.92028">
        <ele>646.3</ele>
        <time>2021-05-30T07:39:32.853Z</time>
      </trkpt>
      <trkpt lat="44.07559" lon="5.92096">
        <ele>643.3</ele>
        <time>2021-05-30T07:39:44.511Z</time>
      </trkpt>
      <trkpt lat="44.07549" lon="5.92111">
        <ele>641.5</ele>
        <time>2021-05-30T07:39:46.392Z</time>
      </trkpt>
      <trkpt lat="44.0754" lon="5.92129">
        <ele>640.4</ele>
        <time>2021-05-30T07:39:48.408Z</time>
      </trkpt>
      <trkpt lat="44.07537" lon="5.92148">
        <ele>641.3</ele>
        <time>2021-05-30T07:39:57.933Z</time>
      </trkpt>
      <trkpt lat="44.07536" lon="5.92171">
        <ele>643.3</ele>
        <time>2021-05-30T07:40:16.996Z</time>
      </trkpt>
      <trkpt lat="44.07542" lon="5.9221">
        <ele>648.5</ele>
        <time>2021-05-30T07:40:56.011Z</time>
      </trkpt>
      <trkpt lat="44.0755" lon="5.9224">
        <ele>652.6</ele>
        <time>2021-05-30T07:41:27.314Z</time>
      </trkpt>
      <trkpt lat="44.07564" lon="5.92269">
        <ele>657.8</ele>
        <time>2021-05-30T07:42:01.491Z</time>
      </trkpt>
      <trkpt lat="44.07585" lon="5.923">
        <ele>663.9</ele>
        <time>2021-05-30T07:42:43.170Z</time>
      </trkpt>
      <trkpt lat="44.07625" lon="5.9235">
        <ele>671.5</ele>
        <time>2021-05-30T07:43:56.371Z</time>
      </trkpt>
      <trkpt lat="44.07664" lon="5.9241">
        <ele>676.7</ele>
        <time>2021-05-30T07:44:44.761Z</time>
      </trkpt>
      <trkpt lat="44.07698" lon="5.92456">
        <ele>678.2</ele>
        <time>2021-05-30T07:45:08.328Z</time>
      </trkpt>
      <trkpt lat="44.07733" lon="5.92479">
        <ele>679.6</ele>
        <time>2021-05-30T07:45:28.760Z</time>
      </trkpt>
      <trkpt lat="44.07766" lon="5.92497">
        <ele>680.5</ele>
        <time>2021-05-30T07:45:45.064Z</time>
      </trkpt>
      <trkpt lat="44.07814" lon="5.92533">
        <ele>680.7</ele>
        <time>2021-05-30T07:46:04.980Z</time>
      </trkpt>
      <trkpt lat="44.07835" lon="5.92558">
        <ele>680.7</ele>
        <time>2021-05-30T07:46:14.735Z</time>
      </trkpt>
      <trkpt lat="44.07857" lon="5.9259">
        <ele>680.8</ele>
        <time>2021-05-30T07:46:26.300Z</time>
      </trkpt>
      <trkpt lat="44.07886" lon="5.92641">
        <ele>681.6</ele>
        <time>2021-05-30T07:46:45.862Z</time>
      </trkpt>
      <trkpt lat="44.07903" lon="5.92666">
        <ele>682.3</ele>
        <time>2021-05-30T07:46:57.648Z</time>
      </trkpt>
      <trkpt lat="44.07946" lon="5.92713">
        <ele>681.8</ele>
        <time>2021-05-30T07:47:09.009Z</time>
      </trkpt>
      <trkpt lat="44.07956" lon="5.92729">
        <ele>681.3</ele>
        <time>2021-05-30T07:47:11.411Z</time>
      </trkpt>
      <trkpt lat="44.07955" lon="5.92746">
        <ele>680.7</ele>
        <time>2021-05-30T07:47:13.069Z</time>
      </trkpt>
      <trkpt lat="44.07961" lon="5.92764">
        <ele>680</ele>
        <time>2021-05-30T07:47:14.997Z</time>
      </trkpt>
      <trkpt lat="44.07986" lon="5.92796">
        <ele>678.5</ele>
        <time>2021-05-30T07:47:19.796Z</time>
      </trkpt>
      <trkpt lat="44.0801" lon="5.92822">
        <ele>677.2</ele>
        <time>2021-05-30T07:47:24.150Z</time>
      </trkpt>
      <trkpt lat="44.0802" lon="5.92837">
        <ele>676.2</ele>
        <time>2021-05-30T07:47:26.030Z</time>
      </trkpt>
      <trkpt lat="44.08044" lon="5.92894">
        <ele>671.2</ele>
        <time>2021-05-30T07:47:32.103Z</time>
      </trkpt>
      <trkpt lat="44.08065" lon="5.92925">
        <ele>668.5</ele>
        <time>2021-05-30T07:47:36.019Z</time>
      </trkpt>
      <trkpt lat="44.08096" lon="5.92965">
        <ele>665.3</ele>
        <time>2021-05-30T07:47:41.427Z</time>
      </trkpt>
      <trkpt lat="44.08109" lon="5.92989">
        <ele>663.6</ele>
        <time>2021-05-30T07:47:44.189Z</time>
      </trkpt>
      <trkpt lat="44.08116" lon="5.9301">
        <ele>662</ele>
        <time>2021-05-30T07:47:46.317Z</time>
      </trkpt>
      <trkpt lat="44.08125" lon="5.93029">
        <ele>660.9</ele>
        <time>2021-05-30T07:47:48.409Z</time>
      </trkpt>
      <trkpt lat="44.08131" lon="5.93049">
        <ele>659.7</ele>
        <time>2021-05-30T07:47:50.401Z</time>
      </trkpt>
      <trkpt lat="44.08148" lon="5.93071">
        <ele>658.9</ele>
        <time>2021-05-30T07:47:54.000Z</time>
      </trkpt>
      <trkpt lat="44.08162" lon="5.93074">
        <ele>659.3</ele>
        <time>2021-05-30T07:48:00.745Z</time>
      </trkpt>
      <trkpt lat="44.08192" lon="5.93071">
        <ele>660.4</ele>
        <time>2021-05-30T07:48:16.711Z</time>
      </trkpt>
      <trkpt lat="44.08204" lon="5.93081">
        <ele>660</ele>
        <time>2021-05-30T07:48:19.015Z</time>
      </trkpt>
      <trkpt lat="44.08199" lon="5.93094">
        <ele>659.1</ele>
        <time>2021-05-30T07:48:20.370Z</time>
      </trkpt>
      <trkpt lat="44.08185" lon="5.93119">
        <ele>657.3</ele>
        <time>2021-05-30T07:48:23.283Z</time>
      </trkpt>
      <trkpt lat="44.08181" lon="5.93143">
        <ele>655.8</ele>
        <time>2021-05-30T07:48:25.547Z</time>
      </trkpt>
      <trkpt lat="44.08158" lon="5.93235">
        <ele>650.3</ele>
        <time>2021-05-30T07:48:34.500Z</time>
      </trkpt>
      <trkpt lat="44.08147" lon="5.93265">
        <ele>649.1</ele>
        <time>2021-05-30T07:48:37.758Z</time>
      </trkpt>
      <trkpt lat="44.08137" lon="5.93275">
        <ele>648.8</ele>
        <time>2021-05-30T07:48:39.882Z</time>
      </trkpt>
      <trkpt lat="44.08129" lon="5.93292">
        <ele>648.6</ele>
        <time>2021-05-30T07:48:42.741Z</time>
      </trkpt>
      <trkpt lat="44.08134" lon="5.93303">
        <ele>648.9</ele>
        <time>2021-05-30T07:48:47.415Z</time>
      </trkpt>
      <trkpt lat="44.08164" lon="5.93315">
        <ele>649.9</ele>
        <time>2021-05-30T07:49:03.010Z</time>
      </trkpt>
      <trkpt lat="44.08176" lon="5.93338">
        <ele>650.3</ele>
        <time>2021-05-30T07:49:11.795Z</time>
      </trkpt>
      <trkpt lat="44.08187" lon="5.93343">
        <ele>650.6</ele>
        <time>2021-05-30T07:49:17.152Z</time>
      </trkpt>
      <trkpt lat="44.08225" lon="5.93333">
        <ele>652.8</ele>
        <time>2021-05-30T07:49:42.151Z</time>
      </trkpt>
      <trkpt lat="44.0824" lon="5.93336">
        <ele>653.4</ele>
        <time>2021-05-30T07:49:50.544Z</time>
      </trkpt>
      <trkpt lat="44.08253" lon="5.93331">
        <ele>654.2</ele>
        <time>2021-05-30T07:49:59.410Z</time>
      </trkpt>
      <trkpt lat="44.08262" lon="5.93322">
        <ele>654.8</ele>
        <time>2021-05-30T07:50:06.441Z</time>
      </trkpt>
      <trkpt lat="44.08273" lon="5.93317">
        <ele>655.6</ele>
        <time>2021-05-30T07:50:14.608Z</time>
      </trkpt>
      <trkpt lat="44.08301" lon="5.93318">
        <ele>657.3</ele>
        <time>2021-05-30T07:50:33.199Z</time>
      </trkpt>
      <trkpt lat="44.08332" lon="5.93332">
        <ele>658</ele>
        <time>2021-05-30T07:50:47.521Z</time>
      </trkpt>
      <trkpt lat="44.0836" lon="5.93354">
        <ele>660</ele>
        <time>2021-05-30T07:51:09.092Z</time>
      </trkpt>
      <trkpt lat="44.08377" lon="5.93358">
        <ele>661.6</ele>
        <time>2021-05-30T07:51:23.882Z</time>
      </trkpt>
      <trkpt lat="44.08395" lon="5.93355">
        <ele>663.5</ele>
        <time>2021-05-30T07:51:41.341Z</time>
      </trkpt>
      <trkpt lat="44.08408" lon="5.93358">
        <ele>664.8</ele>
        <time>2021-05-30T07:51:53.281Z</time>
      </trkpt>
      <trkpt lat="44.08428" lon="5.9337">
        <ele>666.5</ele>
        <time>2021-05-30T07:52:09.752Z</time>
      </trkpt>
      <trkpt lat="44.08451" lon="5.93377">
        <ele>668.3</ele>
        <time>2021-05-30T07:52:27.331Z</time>
      </trkpt>
      <trkpt lat="44.08471" lon="5.9338">
        <ele>669.8</ele>
        <time>2021-05-30T07:52:42.130Z</time>
      </trkpt>
      <trkpt lat="44.08541" lon="5.934">
        <ele>673.2</ele>
        <time>2021-05-30T07:53:25.549Z</time>
      </trkpt>
      <trkpt lat="44.08632" lon="5.93419">
        <ele>676</ele>
        <time>2021-05-30T07:54:10.584Z</time>
      </trkpt>
      <trkpt lat="44.08647" lon="5.93418">
        <ele>676.8</ele>
        <time>2021-05-30T07:54:20.057Z</time>
      </trkpt>
      <trkpt lat="44.08683" lon="5.93405">
        <ele>679.2</ele>
        <time>2021-05-30T07:54:45.429Z</time>
      </trkpt>
      <trkpt lat="44.08729" lon="5.93378">
        <ele>682.4</ele>
        <time>2021-05-30T07:55:19.379Z</time>
      </trkpt>
      <trkpt lat="44.08757" lon="5.93358">
        <ele>684.7</ele>
        <time>2021-05-30T07:55:42.266Z</time>
      </trkpt>
      <trkpt lat="44.08806" lon="5.93328">
        <ele>686</ele>
        <time>2021-05-30T07:56:06.568Z</time>
      </trkpt>
      <trkpt lat="44.08838" lon="5.93302">
        <ele>687.9</ele>
        <time>2021-05-30T07:56:29.631Z</time>
      </trkpt>
      <trkpt lat="44.08857" lon="5.93301">
        <ele>687</ele>
        <time>2021-05-30T07:56:32.242Z</time>
      </trkpt>
      <trkpt lat="44.08959" lon="5.93269">
        <ele>683.8</ele>
        <time>2021-05-30T07:56:49.106Z</time>
      </trkpt>
      <trkpt lat="44.08983" lon="5.93245">
        <ele>683.8</ele>
        <time>2021-05-30T07:56:59.537Z</time>
      </trkpt>
      <trkpt lat="44.09008" lon="5.93229">
        <ele>684</ele>
        <time>2021-05-30T07:57:09.943Z</time>
      </trkpt>
      <trkpt lat="44.09057" lon="5.93219">
        <ele>683.1</ele>
        <time>2021-05-30T07:57:19.121Z</time>
      </trkpt>
      <trkpt lat="44.09078" lon="5.93223">
        <ele>682.2</ele>
        <time>2021-05-30T07:57:22.164Z</time>
      </trkpt>
      <trkpt lat="44.09095" lon="5.93229">
        <ele>682.2</ele>
        <time>2021-05-30T07:57:28.354Z</time>
      </trkpt>
      <trkpt lat="44.09106" lon="5.93245">
        <ele>682</ele>
        <time>2021-05-30T07:57:31.515Z</time>
      </trkpt>
      <trkpt lat="44.09128" lon="5.93267">
        <ele>681.8</ele>
        <time>2021-05-30T07:57:37.280Z</time>
      </trkpt>
      <trkpt lat="44.09134" lon="5.93276">
        <ele>681.4</ele>
        <time>2021-05-30T07:57:38.513Z</time>
      </trkpt>
      <trkpt lat="44.09156" lon="5.93329">
        <ele>678.4</ele>
        <time>2021-05-30T07:57:44.138Z</time>
      </trkpt>
      <trkpt lat="44.09188" lon="5.93375">
        <ele>674.4</ele>
        <time>2021-05-30T07:57:50.023Z</time>
      </trkpt>
      <trkpt lat="44.09217" lon="5.93387">
        <ele>673.7</ele>
        <time>2021-05-30T07:57:55.314Z</time>
      </trkpt>
      <trkpt lat="44.09221" lon="5.9341">
        <ele>671.3</ele>
        <time>2021-05-30T07:57:57.489Z</time>
      </trkpt>
      <trkpt lat="44.09228" lon="5.93434">
        <ele>669.5</ele>
        <time>2021-05-30T07:57:59.869Z</time>
      </trkpt>
      <trkpt lat="44.09238" lon="5.93487">
        <ele>666.3</ele>
        <time>2021-05-30T07:58:04.905Z</time>
      </trkpt>
      <trkpt lat="44.0924" lon="5.93507">
        <ele>665.4</ele>
        <time>2021-05-30T07:58:06.666Z</time>
      </trkpt>
      <trkpt lat="44.09251" lon="5.93529">
        <ele>665.3</ele>
        <time>2021-05-30T07:58:12.961Z</time>
      </trkpt>
      <trkpt lat="44.09266" lon="5.93545">
        <ele>665.3</ele>
        <time>2021-05-30T07:58:19.632Z</time>
      </trkpt>
      <trkpt lat="44.0928" lon="5.93567">
        <ele>664.9</ele>
        <time>2021-05-30T07:58:23.508Z</time>
      </trkpt>
      <trkpt lat="44.09293" lon="5.93576">
        <ele>664.8</ele>
        <time>2021-05-30T07:58:28.144Z</time>
      </trkpt>
      <trkpt lat="44.09305" lon="5.93597">
        <ele>664.1</ele>
        <time>2021-05-30T07:58:31.078Z</time>
      </trkpt>
      <trkpt lat="44.09314" lon="5.93623">
        <ele>663</ele>
        <time>2021-05-30T07:58:33.787Z</time>
      </trkpt>
      <trkpt lat="44.09316" lon="5.93652">
        <ele>661.7</ele>
        <time>2021-05-30T07:58:36.326Z</time>
      </trkpt>
      <trkpt lat="44.09316" lon="5.93727">
        <ele>658.4</ele>
        <time>2021-05-30T07:58:42.909Z</time>
      </trkpt>
      <trkpt lat="44.09312" lon="5.93748">
        <ele>657.3</ele>
        <time>2021-05-30T07:58:44.906Z</time>
      </trkpt>
      <trkpt lat="44.09316" lon="5.93765">
        <ele>656.1</ele>
        <time>2021-05-30T07:58:46.550Z</time>
      </trkpt>
      <trkpt lat="44.09327" lon="5.93785">
        <ele>655.1</ele>
        <time>2021-05-30T07:58:48.871Z</time>
      </trkpt>
      <trkpt lat="44.09329" lon="5.93805">
        <ele>653.7</ele>
        <time>2021-05-30T07:58:50.726Z</time>
      </trkpt>
      <trkpt lat="44.09329" lon="5.93894">
        <ele>645.7</ele>
        <time>2021-05-30T07:58:58.904Z</time>
      </trkpt>
      <trkpt lat="44.09318" lon="5.93937">
        <ele>640.2</ele>
        <time>2021-05-30T07:59:03.098Z</time>
      </trkpt>
      <trkpt lat="44.09301" lon="5.93978">
        <ele>634.5</ele>
        <time>2021-05-30T07:59:07.449Z</time>
      </trkpt>
      <trkpt lat="44.09276" lon="5.94017">
        <ele>628.3</ele>
        <time>2021-05-30T07:59:12.252Z</time>
      </trkpt>
      <trkpt lat="44.09249" lon="5.94041">
        <ele>623.5</ele>
        <time>2021-05-30T07:59:16.350Z</time>
      </trkpt>
      <trkpt lat="44.09239" lon="5.94067">
        <ele>620.4</ele>
        <time>2021-05-30T07:59:19.061Z</time>
      </trkpt>
      <trkpt lat="44.09239" lon="5.94102">
        <ele>617.8</ele>
        <time>2021-05-30T07:59:22.277Z</time>
      </trkpt>
      <trkpt lat="44.09247" lon="5.94148">
        <ele>615.8</ele>
        <time>2021-05-30T07:59:26.512Z</time>
      </trkpt>
      <trkpt lat="44.09258" lon="5.94171">
        <ele>615.1</ele>
        <time>2021-05-30T07:59:29.565Z</time>
      </trkpt>
      <trkpt lat="44.09274" lon="5.94187">
        <ele>614.9</ele>
        <time>2021-05-30T07:59:33.604Z</time>
      </trkpt>
      <trkpt lat="44.09287" lon="5.94212">
        <ele>614.2</ele>
        <time>2021-05-30T07:59:37.143Z</time>
      </trkpt>
      <trkpt lat="44.09287" lon="5.94278">
        <ele>612.9</ele>
        <time>2021-05-30T07:59:45.051Z</time>
      </trkpt>
      <trkpt lat="44.09285" lon="5.94301">
        <ele>613.2</ele>
        <time>2021-05-30T07:59:52.087Z</time>
      </trkpt>
      <trkpt lat="44.0928" lon="5.9431">
        <ele>613.3</ele>
        <time>2021-05-30T07:59:55.336Z</time>
      </trkpt>
      <trkpt lat="44.09277" lon="5.94326">
        <ele>613.5</ele>
        <time>2021-05-30T08:00:00.293Z</time>
      </trkpt>
      <trkpt lat="44.0928" lon="5.94346">
        <ele>613.4</ele>
        <time>2021-05-30T08:00:04.983Z</time>
      </trkpt>
      <trkpt lat="44.0928" lon="5.94346">
        <ele>613.4</ele>
        <time>2021-05-30T08:00:04.983Z</time>
      </trkpt>
      <trkpt lat="44.09331" lon="5.94363">
        <ele>614.6</ele>
        <time>2021-05-30T08:00:28.404Z</time>
      </trkpt>
      <trkpt lat="44.09396" lon="5.94393">
        <ele>615.2</ele>
        <time>2021-05-30T08:00:54.687Z</time>
      </trkpt>
      <trkpt lat="44.09455" lon="5.94402">
        <ele>614.4</ele>
        <time>2021-05-30T08:01:06.342Z</time>
      </trkpt>
      <trkpt lat="44.09516" lon="5.94402">
        <ele>612.5</ele>
        <time>2021-05-30T08:01:16.126Z</time>
      </trkpt>
      <trkpt lat="44.0959" lon="5.94384">
        <ele>608.2</ele>
        <time>2021-05-30T08:01:25.608Z</time>
      </trkpt>
      <trkpt lat="44.09652" lon="5.9441">
        <ele>604</ele>
        <time>2021-05-30T08:01:33.302Z</time>
      </trkpt>
      <trkpt lat="44.09704" lon="5.94419">
        <ele>599.7</ele>
        <time>2021-05-30T08:01:40.006Z</time>
      </trkpt>
      <trkpt lat="44.0976" lon="5.9441">
        <ele>596.1</ele>
        <time>2021-05-30T08:01:46.757Z</time>
      </trkpt>
      <trkpt lat="44.09834" lon="5.94453">
        <ele>591.7</ele>
        <time>2021-05-30T08:01:57.078Z</time>
      </trkpt>
      <trkpt lat="44.09923" lon="5.94522">
        <ele>590.7</ele>
        <time>2021-05-30T08:02:18.057Z</time>
      </trkpt>
      <trkpt lat="44.09979" lon="5.94573">
        <ele>587.7</ele>
        <time>2021-05-30T08:02:27.454Z</time>
      </trkpt>
      <trkpt lat="44.1004" lon="5.94603">
        <ele>586.9</ele>
        <time>2021-05-30T08:02:40.340Z</time>
      </trkpt>
      <trkpt lat="44.10086" lon="5.94629">
        <ele>586.3</ele>
        <time>2021-05-30T08:02:50.265Z</time>
      </trkpt>
      <trkpt lat="44.10065" lon="5.94715">
        <ele>580.9</ele>
        <time>2021-05-30T08:02:58.611Z</time>
      </trkpt>
      <trkpt lat="44.10009" lon="5.94792">
        <ele>575</ele>
        <time>2021-05-30T08:03:08.679Z</time>
      </trkpt>
      <trkpt lat="44.0996" lon="5.94874">
        <ele>569.1</ele>
        <time>2021-05-30T08:03:18.481Z</time>
      </trkpt>
      <trkpt lat="44.0992" lon="5.94981">
        <ele>567.1</ele>
        <time>2021-05-30T08:03:33.642Z</time>
      </trkpt>
      <trkpt lat="44.09877" lon="5.95093">
        <ele>568</ele>
        <time>2021-05-30T08:04:09.037Z</time>
      </trkpt>
      <trkpt lat="44.09834" lon="5.95217">
        <ele>569.3</ele>
        <time>2021-05-30T08:04:48.724Z</time>
      </trkpt>
      <trkpt lat="44.09812" lon="5.95359">
        <ele>574.2</ele>
        <time>2021-05-30T08:05:51.863Z</time>
      </trkpt>
      <trkpt lat="44.09797" lon="5.95449">
        <ele>576.4</ele>
        <time>2021-05-30T08:06:25.502Z</time>
      </trkpt>
      <trkpt lat="44.09821" lon="5.95552">
        <ele>581.7</ele>
        <time>2021-05-30T08:07:19.983Z</time>
      </trkpt>
      <trkpt lat="44.09794" lon="5.95659">
        <ele>585.3</ele>
        <time>2021-05-30T08:08:08.293Z</time>
      </trkpt>
      <trkpt lat="44.09763" lon="5.95758">
        <ele>588.7</ele>
        <time>2021-05-30T08:08:54.043Z</time>
      </trkpt>
      <trkpt lat="44.09747" lon="5.95818">
        <ele>599.4</ele>
        <time>2021-05-30T08:09:56.627Z</time>
      </trkpt>
      <trkpt lat="44.09676" lon="5.95856">
        <ele>601.1</ele>
        <time>2021-05-30T08:10:30.390Z</time>
      </trkpt>
      <trkpt lat="44.09593" lon="5.95895">
        <ele>595.8</ele>
        <time>2021-05-30T08:10:41.160Z</time>
      </trkpt>
      <trkpt lat="44.09525" lon="5.95959">
        <ele>598</ele>
        <time>2021-05-30T08:11:19.562Z</time>
      </trkpt>
      <trkpt lat="44.09485" lon="5.96032">
        <ele>605.9</ele>
        <time>2021-05-30T08:12:34.568Z</time>
      </trkpt>
      <trkpt lat="44.09473" lon="5.96114">
        <ele>624.2</ele>
        <time>2021-05-30T08:13:56.402Z</time>
      </trkpt>
      <trkpt lat="44.09488" lon="5.96165">
        <ele>639.3</ele>
        <time>2021-05-30T08:14:50.294Z</time>
      </trkpt>
      <trkpt lat="44.09525" lon="5.96101">
        <ele>627.2</ele>
        <time>2021-05-30T08:14:57.844Z</time>
      </trkpt>
      <trkpt lat="44.0955" lon="5.96067">
        <ele>624.6</ele>
        <time>2021-05-30T08:15:02.315Z</time>
      </trkpt>
      <trkpt lat="44.09606" lon="5.96015">
        <ele>626.7</ele>
        <time>2021-05-30T08:15:35.583Z</time>
      </trkpt>
      <trkpt lat="44.09636" lon="5.95994">
        <ele>630.6</ele>
        <time>2021-05-30T08:16:12.163Z</time>
      </trkpt>
      <trkpt lat="44.0972" lon="5.95977">
        <ele>639.8</ele>
        <time>2021-05-30T08:17:37.017Z</time>
      </trkpt>
      <trkpt lat="44.09772" lon="5.95955">
        <ele>640.6</ele>
        <time>2021-05-30T08:17:59.192Z</time>
      </trkpt>
      <trkpt lat="44.0984" lon="5.95938">
        <ele>645.3</ele>
        <time>2021-05-30T08:18:47.549Z</time>
      </trkpt>
      <trkpt lat="44.09892" lon="5.95908">
        <ele>645.6</ele>
        <time>2021-05-30T08:19:08.438Z</time>
      </trkpt>
      <trkpt lat="44.09945" lon="5.95882">
        <ele>648.5</ele>
        <time>2021-05-30T08:19:43.492Z</time>
      </trkpt>
      <trkpt lat="44.09988" lon="5.95848">
        <ele>652.7</ele>
        <time>2021-05-30T08:20:23.075Z</time>
      </trkpt>
      <trkpt lat="44.10025" lon="5.95805">
        <ele>660.3</ele>
        <time>2021-05-30T08:21:28.694Z</time>
      </trkpt>
      <trkpt lat="44.1004" lon="5.95749">
        <ele>665.2</ele>
        <time>2021-05-30T08:22:14.403Z</time>
      </trkpt>
      <trkpt lat="44.10043" lon="5.95698">
        <ele>667.7</ele>
        <time>2021-05-30T08:22:40.124Z</time>
      </trkpt>
      <trkpt lat="44.10028" lon="5.9565">
        <ele>660.9</ele>
        <time>2021-05-30T08:22:44.934Z</time>
      </trkpt>
      <trkpt lat="44.10056" lon="5.95595">
        <ele>661.1</ele>
        <time>2021-05-30T08:23:02.697Z</time>
      </trkpt>
      <trkpt lat="44.10114" lon="5.95556">
        <ele>669</ele>
        <time>2021-05-30T08:24:18.574Z</time>
      </trkpt>
      <trkpt lat="44.1016" lon="5.95509">
        <ele>668.2</ele>
        <time>2021-05-30T08:24:29.701Z</time>
      </trkpt>
      <trkpt lat="44.10167" lon="5.95543">
        <ele>678.4</ele>
        <time>2021-05-30T08:25:04.284Z</time>
      </trkpt>
      <trkpt lat="44.10203" lon="5.9553">
        <ele>680.5</ele>
        <time>2021-05-30T08:25:28.255Z</time>
      </trkpt>
      <trkpt lat="44.10231" lon="5.9553">
        <ele>684.6</ele>
        <time>2021-05-30T08:26:06.380Z</time>
      </trkpt>
      <trkpt lat="44.10216" lon="5.95582">
        <ele>689</ele>
        <time>2021-05-30T08:26:47.020Z</time>
      </trkpt>
      <trkpt lat="44.10213" lon="5.95633">
        <ele>687.1</ele>
        <time>2021-05-30T08:26:51.878Z</time>
      </trkpt>
      <trkpt lat="44.10225" lon="5.95689">
        <ele>683.3</ele>
        <time>2021-05-30T08:26:57.247Z</time>
      </trkpt>
      <trkpt lat="44.1025" lon="5.95728">
        <ele>678.8</ele>
        <time>2021-05-30T08:27:02.050Z</time>
      </trkpt>
      <trkpt lat="44.10277" lon="5.95736">
        <ele>676.2</ele>
        <time>2021-05-30T08:27:05.582Z</time>
      </trkpt>
      <trkpt lat="44.1025" lon="5.95762">
        <ele>676.3</ele>
        <time>2021-05-30T08:27:17.502Z</time>
      </trkpt>
      <trkpt lat="44.10234" lon="5.95814">
        <ele>673.8</ele>
        <time>2021-05-30T08:27:22.456Z</time>
      </trkpt>
      <trkpt lat="44.1024" lon="5.95861">
        <ele>670.6</ele>
        <time>2021-05-30T08:27:26.842Z</time>
      </trkpt>
      <trkpt lat="44.10281" lon="5.95904">
        <ele>665.8</ele>
        <time>2021-05-30T08:27:33.409Z</time>
      </trkpt>
      <trkpt lat="44.10299" lon="5.95912">
        <ele>664.3</ele>
        <time>2021-05-30T08:27:35.826Z</time>
      </trkpt>
      <trkpt lat="44.1025" lon="5.95947">
        <ele>662.6</ele>
        <time>2021-05-30T08:27:44.684Z</time>
      </trkpt>
      <trkpt lat="44.10305" lon="5.95951">
        <ele>658.5</ele>
        <time>2021-05-30T08:27:51.730Z</time>
      </trkpt>
      <trkpt lat="44.10234" lon="5.96024">
        <ele>654.1</ele>
        <time>2021-05-30T08:28:03.585Z</time>
      </trkpt>
      <trkpt lat="44.10318" lon="5.95989">
        <ele>651.8</ele>
        <time>2021-05-30T08:28:18.403Z</time>
      </trkpt>
      <trkpt lat="44.1041" lon="5.95959">
        <ele>644.8</ele>
        <time>2021-05-30T08:28:30.492Z</time>
      </trkpt>
      <trkpt lat="44.10472" lon="5.95934">
        <ele>638.7</ele>
        <time>2021-05-30T08:28:38.750Z</time>
      </trkpt>
      <trkpt lat="44.10521" lon="5.95925">
        <ele>633.4</ele>
        <time>2021-05-30T08:28:45.074Z</time>
      </trkpt>
      <trkpt lat="44.10555" lon="5.95947">
        <ele>631</ele>
        <time>2021-05-30T08:28:49.558Z</time>
      </trkpt>
      <trkpt lat="44.10558" lon="5.95985">
        <ele>630.9</ele>
        <time>2021-05-30T08:28:58.736Z</time>
      </trkpt>
      <trkpt lat="44.10604" lon="5.95985">
        <ele>626.5</ele>
        <time>2021-05-30T08:29:04.621Z</time>
      </trkpt>
      <trkpt lat="44.10638" lon="5.95955">
        <ele>621.7</ele>
        <time>2021-05-30T08:29:09.771Z</time>
      </trkpt>
      <trkpt lat="44.1069" lon="5.95951">
        <ele>611.8</ele>
        <time>2021-05-30T08:29:16.434Z</time>
      </trkpt>
      <trkpt lat="44.10761" lon="5.95917">
        <ele>597.9</ele>
        <time>2021-05-30T08:29:26.039Z</time>
      </trkpt>
      <trkpt lat="44.10804" lon="5.95942">
        <ele>595.9</ele>
        <time>2021-05-30T08:29:32.700Z</time>
      </trkpt>
      <trkpt lat="44.10832" lon="5.96015">
        <ele>591</ele>
        <time>2021-05-30T08:29:40.303Z</time>
      </trkpt>
      <trkpt lat="44.10869" lon="5.96084">
        <ele>591.1</ele>
        <time>2021-05-30T08:30:02.459Z</time>
      </trkpt>
      <trkpt lat="44.10872" lon="5.96041">
        <ele>595.6</ele>
        <time>2021-05-30T08:30:44.696Z</time>
      </trkpt>
      <trkpt lat="44.10946" lon="5.96015">
        <ele>610.8</ele>
        <time>2021-05-30T08:32:28.610Z</time>
      </trkpt>
      <trkpt lat="44.11005" lon="5.96037">
        <ele>615.2</ele>
        <time>2021-05-30T08:33:12.673Z</time>
      </trkpt>
      <trkpt lat="44.11054" lon="5.96041">
        <ele>613.3</ele>
        <time>2021-05-30T08:33:19.973Z</time>
      </trkpt>
      <trkpt lat="44.11085" lon="5.96101">
        <ele>601.5</ele>
        <time>2021-05-30T08:33:26.764Z</time>
      </trkpt>
      <trkpt lat="44.11137" lon="5.96135">
        <ele>599.3</ele>
        <time>2021-05-30T08:33:35.341Z</time>
      </trkpt>
      <trkpt lat="44.1123" lon="5.96183">
        <ele>592.8</ele>
        <time>2021-05-30T08:33:47.066Z</time>
      </trkpt>
      <trkpt lat="44.11257" lon="5.96234">
        <ele>586.8</ele>
        <time>2021-05-30T08:33:52.886Z</time>
      </trkpt>
      <trkpt lat="44.11276" lon="5.96264">
        <ele>584</ele>
        <time>2021-05-30T08:33:56.561Z</time>
      </trkpt>
      <trkpt lat="44.11344" lon="5.96286">
        <ele>584</ele>
        <time>2021-05-30T08:34:21.205Z</time>
      </trkpt>
      <trkpt lat="44.11399" lon="5.96273">
        <ele>577.2</ele>
        <time>2021-05-30T08:34:28.342Z</time>
      </trkpt>
      <trkpt lat="44.11448" lon="5.96277">
        <ele>570.9</ele>
        <time>2021-05-30T08:34:34.622Z</time>
      </trkpt>
      <trkpt lat="44.11492" lon="5.96251">
        <ele>567.7</ele>
        <time>2021-05-30T08:34:40.737Z</time>
      </trkpt>
      <trkpt lat="44.11504" lon="5.96213">
        <ele>568.1</ele>
        <time>2021-05-30T08:34:52.733Z</time>
      </trkpt>
      <trkpt lat="44.11527" lon="5.9618">
        <ele>570.2</ele>
        <time>2021-05-30T08:35:15.108Z</time>
      </trkpt>
      <trkpt lat="44.11555" lon="5.96182">
        <ele>571.8</ele>
        <time>2021-05-30T08:35:33.254Z</time>
      </trkpt>
      <trkpt lat="44.11582" lon="5.96164">
        <ele>573.4</ele>
        <time>2021-05-30T08:35:52.157Z</time>
      </trkpt>
      <trkpt lat="44.11587" lon="5.96133">
        <ele>567.5</ele>
        <time>2021-05-30T08:35:55.076Z</time>
      </trkpt>
      <trkpt lat="44.11614" lon="5.96104">
        <ele>565.7</ele>
        <time>2021-05-30T08:35:59.542Z</time>
      </trkpt>
      <trkpt lat="44.11638" lon="5.96091">
        <ele>567.7</ele>
        <time>2021-05-30T08:36:18.956Z</time>
      </trkpt>
      <trkpt lat="44.11669" lon="5.96092">
        <ele>573.1</ele>
        <time>2021-05-30T08:37:01.176Z</time>
      </trkpt>
      <trkpt lat="44.11699" lon="5.96065">
        <ele>574.3</ele>
        <time>2021-05-30T08:37:19.390Z</time>
      </trkpt>
      <trkpt lat="44.11736" lon="5.96083">
        <ele>586.9</ele>
        <time>2021-05-30T08:38:12.753Z</time>
      </trkpt>
      <trkpt lat="44.11782" lon="5.96103">
        <ele>587.3</ele>
        <time>2021-05-30T08:38:31.164Z</time>
      </trkpt>
      <trkpt lat="44.11823" lon="5.96088">
        <ele>585.5</ele>
        <time>2021-05-30T08:38:37.248Z</time>
      </trkpt>
      <trkpt lat="44.11862" lon="5.96096">
        <ele>583.6</ele>
        <time>2021-05-30T08:38:42.621Z</time>
      </trkpt>
      <trkpt lat="44.11901" lon="5.96129">
        <ele>583.3</ele>
        <time>2021-05-30T08:38:57.255Z</time>
      </trkpt>
      <trkpt lat="44.11916" lon="5.9615">
        <ele>584.2</ele>
        <time>2021-05-30T08:39:09.514Z</time>
      </trkpt>
      <trkpt lat="44.11973" lon="5.96144">
        <ele>588.2</ele>
        <time>2021-05-30T08:39:50.111Z</time>
      </trkpt>
      <trkpt lat="44.11996" lon="5.96172">
        <ele>595.7</ele>
        <time>2021-05-30T08:40:31.702Z</time>
      </trkpt>
      <trkpt lat="44.11998" lon="5.96187">
        <ele>596.7</ele>
        <time>2021-05-30T08:40:40.971Z</time>
      </trkpt>
      <trkpt lat="44.11989" lon="5.96227">
        <ele>596.7</ele>
        <time>2021-05-30T08:40:51.594Z</time>
      </trkpt>
      <trkpt lat="44.11979" lon="5.9625">
        <ele>595.2</ele>
        <time>2021-05-30T08:40:54.064Z</time>
      </trkpt>
      <trkpt lat="44.11978" lon="5.96267">
        <ele>595.7</ele>
        <time>2021-05-30T08:41:00.969Z</time>
      </trkpt>
      <trkpt lat="44.11998" lon="5.96321">
        <ele>601.4</ele>
        <time>2021-05-30T08:41:58.082Z</time>
      </trkpt>
      <trkpt lat="44.11999" lon="5.96347">
        <ele>600.9</ele>
        <time>2021-05-30T08:42:01.223Z</time>
      </trkpt>
      <trkpt lat="44.11983" lon="5.96362">
        <ele>598.1</ele>
        <time>2021-05-30T08:42:03.691Z</time>
      </trkpt>
      <trkpt lat="44.12002" lon="5.96439">
        <ele>591.9</ele>
        <time>2021-05-30T08:42:11.169Z</time>
      </trkpt>
      <trkpt lat="44.11988" lon="5.96475">
        <ele>586.9</ele>
        <time>2021-05-30T08:42:14.929Z</time>
      </trkpt>
      <trkpt lat="44.11973" lon="5.96489">
        <ele>585.8</ele>
        <time>2021-05-30T08:42:17.142Z</time>
      </trkpt>
      <trkpt lat="44.11953" lon="5.96496">
        <ele>586.4</ele>
        <time>2021-05-30T08:42:27.067Z</time>
      </trkpt>
      <trkpt lat="44.11955" lon="5.96512">
        <ele>584.4</ele>
        <time>2021-05-30T08:42:28.558Z</time>
      </trkpt>
      <trkpt lat="44.11943" lon="5.96531">
        <ele>583.3</ele>
        <time>2021-05-30T08:42:30.791Z</time>
      </trkpt>
      <trkpt lat="44.11904" lon="5.96551">
        <ele>584.1</ele>
        <time>2021-05-30T08:42:48.602Z</time>
      </trkpt>
      <trkpt lat="44.11904" lon="5.96576">
        <ele>581.6</ele>
        <time>2021-05-30T08:42:50.898Z</time>
      </trkpt>
      <trkpt lat="44.11898" lon="5.96589">
        <ele>580.6</ele>
        <time>2021-05-30T08:42:52.318Z</time>
      </trkpt>
      <trkpt lat="44.11899" lon="5.96603">
        <ele>578.6</ele>
        <time>2021-05-30T08:42:53.610Z</time>
      </trkpt>
      <trkpt lat="44.11911" lon="5.96608">
        <ele>576.9</ele>
        <time>2021-05-30T08:42:55.213Z</time>
      </trkpt>
      <trkpt lat="44.11923" lon="5.96623">
        <ele>573.8</ele>
        <time>2021-05-30T08:42:57.275Z</time>
      </trkpt>
      <trkpt lat="44.1195" lon="5.96683">
        <ele>563.6</ele>
        <time>2021-05-30T08:43:03.779Z</time>
      </trkpt>
      <trkpt lat="44.11942" lon="5.967">
        <ele>561</ele>
        <time>2021-05-30T08:43:05.646Z</time>
      </trkpt>
      <trkpt lat="44.1192" lon="5.96717">
        <ele>558.8</ele>
        <time>2021-05-30T08:43:08.865Z</time>
      </trkpt>
      <trkpt lat="44.11943" lon="5.96745">
        <ele>553.2</ele>
        <time>2021-05-30T08:43:12.773Z</time>
      </trkpt>
      <trkpt lat="44.11963" lon="5.96733">
        <ele>554.7</ele>
        <time>2021-05-30T08:43:28.112Z</time>
      </trkpt>
      <trkpt lat="44.11983" lon="5.96737">
        <ele>553.5</ele>
        <time>2021-05-30T08:43:30.619Z</time>
      </trkpt>
      <trkpt lat="44.11967" lon="5.96787">
        <ele>547</ele>
        <time>2021-05-30T08:43:35.647Z</time>
      </trkpt>
      <trkpt lat="44.11976" lon="5.96814">
        <ele>543</ele>
        <time>2021-05-30T08:43:38.381Z</time>
      </trkpt>
      <trkpt lat="44.12005" lon="5.96861">
        <ele>534.8</ele>
        <time>2021-05-30T08:43:44.073Z</time>
      </trkpt>
      <trkpt lat="44.12024" lon="5.96923">
        <ele>525.8</ele>
        <time>2021-05-30T08:43:50.265Z</time>
      </trkpt>
      <trkpt lat="44.1203" lon="5.96929">
        <ele>525.1</ele>
        <time>2021-05-30T08:43:51.210Z</time>
      </trkpt>
      <trkpt lat="44.12035" lon="5.96993">
        <ele>518.8</ele>
        <time>2021-05-30T08:43:57.123Z</time>
      </trkpt>
      <trkpt lat="44.12017" lon="5.97032">
        <ele>515.8</ele>
        <time>2021-05-30T08:44:01.381Z</time>
      </trkpt>
      <trkpt lat="44.12038" lon="5.97046">
        <ele>514</ele>
        <time>2021-05-30T08:44:04.360Z</time>
      </trkpt>
      <trkpt lat="44.12044" lon="5.97071">
        <ele>511.5</ele>
        <time>2021-05-30T08:44:06.781Z</time>
      </trkpt>
      <trkpt lat="44.12078" lon="5.97073">
        <ele>510.2</ele>
        <time>2021-05-30T08:44:11.867Z</time>
      </trkpt>
      <trkpt lat="44.12118" lon="5.97096">
        <ele>507.6</ele>
        <time>2021-05-30T08:44:17.205Z</time>
      </trkpt>
      <trkpt lat="44.12124" lon="5.97073">
        <ele>508.7</ele>
        <time>2021-05-30T08:44:29.025Z</time>
      </trkpt>
      <trkpt lat="44.12222" lon="5.96999">
        <ele>514.1</ele>
        <time>2021-05-30T08:45:37.136Z</time>
      </trkpt>
      <trkpt lat="44.12282" lon="5.96976">
        <ele>519.4</ele>
        <time>2021-05-30T08:46:27.049Z</time>
      </trkpt>
      <trkpt lat="44.12295" lon="5.96957">
        <ele>521.2</ele>
        <time>2021-05-30T08:46:43.624Z</time>
      </trkpt>
      <trkpt lat="44.1235" lon="5.9693">
        <ele>525.9</ele>
        <time>2021-05-30T08:47:28.644Z</time>
      </trkpt>
      <trkpt lat="44.1236" lon="5.96917">
        <ele>527.5</ele>
        <time>2021-05-30T08:47:43.689Z</time>
      </trkpt>
      <trkpt lat="44.12383" lon="5.96912">
        <ele>530.2</ele>
        <time>2021-05-30T08:48:09.002Z</time>
      </trkpt>
      <trkpt lat="44.12416" lon="5.96945">
        <ele>530.6</ele>
        <time>2021-05-30T08:48:24.763Z</time>
      </trkpt>
      <trkpt lat="44.12417" lon="5.96975">
        <ele>528.1</ele>
        <time>2021-05-30T08:48:27.521Z</time>
      </trkpt>
      <trkpt lat="44.12409" lon="5.97016">
        <ele>526.4</ele>
        <time>2021-05-30T08:48:31.419Z</time>
      </trkpt>
      <trkpt lat="44.12403" lon="5.97022">
        <ele>526.2</ele>
        <time>2021-05-30T08:48:32.656Z</time>
      </trkpt>
      <trkpt lat="44.12388" lon="5.97016">
        <ele>524.7</ele>
        <time>2021-05-30T08:48:34.652Z</time>
      </trkpt>
      <trkpt lat="44.12386" lon="5.97021">
        <ele>524.7</ele>
        <time>2021-05-30T08:48:36.103Z</time>
      </trkpt>
      <trkpt lat="44.12443" lon="5.97025">
        <ele>528.6</ele>
        <time>2021-05-30T08:49:16.140Z</time>
      </trkpt>
      <trkpt lat="44.12438" lon="5.97041">
        <ele>529.1</ele>
        <time>2021-05-30T08:49:23.111Z</time>
      </trkpt>
      <trkpt lat="44.12421" lon="5.97037">
        <ele>528.4</ele>
        <time>2021-05-30T08:49:25.629Z</time>
      </trkpt>
      <trkpt lat="44.12394" lon="5.97047">
        <ele>526.2</ele>
        <time>2021-05-30T08:49:29.203Z</time>
      </trkpt>
      <trkpt lat="44.12359" lon="5.97045">
        <ele>522.3</ele>
        <time>2021-05-30T08:49:33.685Z</time>
      </trkpt>
      <trkpt lat="44.12297" lon="5.97065">
        <ele>516.1</ele>
        <time>2021-05-30T08:49:41.827Z</time>
      </trkpt>
      <trkpt lat="44.12291" lon="5.97061">
        <ele>515.9</ele>
        <time>2021-05-30T08:49:42.906Z</time>
      </trkpt>
      <trkpt lat="44.12269" lon="5.97067">
        <ele>514.1</ele>
        <time>2021-05-30T08:49:45.774Z</time>
      </trkpt>
      <trkpt lat="44.12266" lon="5.97078">
        <ele>513.4</ele>
        <time>2021-05-30T08:49:46.855Z</time>
      </trkpt>
      <trkpt lat="44.12254" lon="5.97083">
        <ele>512.3</ele>
        <time>2021-05-30T08:49:48.457Z</time>
      </trkpt>
      <trkpt lat="44.12251" lon="5.97095">
        <ele>511.9</ele>
        <time>2021-05-30T08:49:49.750Z</time>
      </trkpt>
      <trkpt lat="44.12237" lon="5.97104">
        <ele>510.9</ele>
        <time>2021-05-30T08:49:51.582Z</time>
      </trkpt>
      <trkpt lat="44.12226" lon="5.9713">
        <ele>509.8</ele>
        <time>2021-05-30T08:49:54.469Z</time>
      </trkpt>
      <trkpt lat="44.12211" lon="5.9714">
        <ele>508.7</ele>
        <time>2021-05-30T08:49:56.426Z</time>
      </trkpt>
      <trkpt lat="44.12208" lon="5.97151">
        <ele>508.3</ele>
        <time>2021-05-30T08:49:57.586Z</time>
      </trkpt>
      <trkpt lat="44.12189" lon="5.97163">
        <ele>506.7</ele>
        <time>2021-05-30T08:50:00.255Z</time>
      </trkpt>
      <trkpt lat="44.12172" lon="5.97193">
        <ele>505.4</ele>
        <time>2021-05-30T08:50:04.021Z</time>
      </trkpt>
      <trkpt lat="44.12152" lon="5.97216">
        <ele>504.2</ele>
        <time>2021-05-30T08:50:07.617Z</time>
      </trkpt>
      <trkpt lat="44.12134" lon="5.97227">
        <ele>502.9</ele>
        <time>2021-05-30T08:50:09.930Z</time>
      </trkpt>
      <trkpt lat="44.12113" lon="5.97261">
        <ele>500.1</ele>
        <time>2021-05-30T08:50:14.050Z</time>
      </trkpt>
      <trkpt lat="44.1211" lon="5.97279">
        <ele>499.1</ele>
        <time>2021-05-30T08:50:15.747Z</time>
      </trkpt>
      <trkpt lat="44.1212" lon="5.97318">
        <ele>498.5</ele>
        <time>2021-05-30T08:50:21.127Z</time>
      </trkpt>
      <trkpt lat="44.1211" lon="5.97346">
        <ele>496.3</ele>
        <time>2021-05-30T08:50:23.999Z</time>
      </trkpt>
      <trkpt lat="44.12053" lon="5.97399">
        <ele>491.9</ele>
        <time>2021-05-30T08:50:32.184Z</time>
      </trkpt>
      <trkpt lat="44.12049" lon="5.97413">
        <ele>491.5</ele>
        <time>2021-05-30T08:50:33.820Z</time>
      </trkpt>
      <trkpt lat="44.12029" lon="5.97425">
        <ele>491.3</ele>
        <time>2021-05-30T08:50:38.343Z</time>
      </trkpt>
      <trkpt lat="44.12015" lon="5.97453">
        <ele>490.6</ele>
        <time>2021-05-30T08:50:42.380Z</time>
      </trkpt>
      <trkpt lat="44.12012" lon="5.97485">
        <ele>489.7</ele>
        <time>2021-05-30T08:50:45.821Z</time>
      </trkpt>
      <trkpt lat="44.12004" lon="5.97496">
        <ele>489.9</ele>
        <time>2021-05-30T08:50:50.561Z</time>
      </trkpt>
      <trkpt lat="44.11986" lon="5.97556">
        <ele>483.8</ele>
        <time>2021-05-30T08:50:56.534Z</time>
      </trkpt>
      <trkpt lat="44.11948" lon="5.97599">
        <ele>481.8</ele>
        <time>2021-05-30T08:51:03.668Z</time>
      </trkpt>
      <trkpt lat="44.11949" lon="5.97634">
        <ele>482.2</ele>
        <time>2021-05-30T08:51:14.059Z</time>
      </trkpt>
      <trkpt lat="44.1194" lon="5.97661">
        <ele>483.4</ele>
        <time>2021-05-30T08:51:27.804Z</time>
      </trkpt>
      <trkpt lat="44.11922" lon="5.97673">
        <ele>486.7</ele>
        <time>2021-05-30T08:51:54.975Z</time>
      </trkpt>
      <trkpt lat="44.11904" lon="5.97662">
        <ele>487.9</ele>
        <time>2021-05-30T08:52:08.054Z</time>
      </trkpt>
      <trkpt lat="44.11884" lon="5.97672">
        <ele>492.6</ele>
        <time>2021-05-30T08:52:36.987Z</time>
      </trkpt>
      <trkpt lat="44.11871" lon="5.97671">
        <ele>494.5</ele>
        <time>2021-05-30T08:52:54.715Z</time>
      </trkpt>
      <trkpt lat="44.11852" lon="5.97643">
        <ele>495.9</ele>
        <time>2021-05-30T08:53:11.857Z</time>
      </trkpt>
      <trkpt lat="44.11842" lon="5.97601">
        <ele>496.1</ele>
        <time>2021-05-30T08:53:23.757Z</time>
      </trkpt>
      <trkpt lat="44.11847" lon="5.97571">
        <ele>494.5</ele>
        <time>2021-05-30T08:53:26.586Z</time>
      </trkpt>
      <trkpt lat="44.11839" lon="5.97539">
        <ele>495.6</ele>
        <time>2021-05-30T08:53:41.145Z</time>
      </trkpt>
      <trkpt lat="44.11807" lon="5.97472">
        <ele>498.3</ele>
        <time>2021-05-30T08:54:16.058Z</time>
      </trkpt>
      <trkpt lat="44.11811" lon="5.9746">
        <ele>496.7</ele>
        <time>2021-05-30T08:54:17.273Z</time>
      </trkpt>
      <trkpt lat="44.11807" lon="5.97429">
        <ele>495</ele>
        <time>2021-05-30T08:54:20.166Z</time>
      </trkpt>
      <trkpt lat="44.11799" lon="5.97422">
        <ele>495.8</ele>
        <time>2021-05-30T08:54:27.712Z</time>
      </trkpt>
      <trkpt lat="44.11771" lon="5.97433">
        <ele>501</ele>
        <time>2021-05-30T08:55:07.324Z</time>
      </trkpt>
      <trkpt lat="44.11768" lon="5.97428">
        <ele>501.1</ele>
        <time>2021-05-30T08:55:09.377Z</time>
      </trkpt>
      <trkpt lat="44.11774" lon="5.97426">
        <ele>500</ele>
        <time>2021-05-30T08:55:10.166Z</time>
      </trkpt>
      <trkpt lat="44.11759" lon="5.97427">
        <ele>502.5</ele>
        <time>2021-05-30T08:55:30.614Z</time>
      </trkpt>
      <trkpt lat="44.11728" lon="5.97385">
        <ele>503.7</ele>
        <time>2021-05-30T08:55:51.082Z</time>
      </trkpt>
      <trkpt lat="44.11728" lon="5.97377">
        <ele>503</ele>
        <time>2021-05-30T08:55:51.817Z</time>
      </trkpt>
      <trkpt lat="44.11718" lon="5.9737">
        <ele>503.5</ele>
        <time>2021-05-30T08:55:58.492Z</time>
      </trkpt>
      <trkpt lat="44.1169" lon="5.97369">
        <ele>506.3</ele>
        <time>2021-05-30T08:56:24.196Z</time>
      </trkpt>
      <trkpt lat="44.11671" lon="5.97378">
        <ele>509.4</ele>
        <time>2021-05-30T08:56:51.521Z</time>
      </trkpt>
      <trkpt lat="44.11644" lon="5.97377">
        <ele>512.3</ele>
        <time>2021-05-30T08:57:18.234Z</time>
      </trkpt>
      <trkpt lat="44.11611" lon="5.97385">
        <ele>516.6</ele>
        <time>2021-05-30T08:58:00.733Z</time>
      </trkpt>
      <trkpt lat="44.11598" lon="5.97367">
        <ele>516.8</ele>
        <time>2021-05-30T08:58:07.922Z</time>
      </trkpt>
      <trkpt lat="44.1158" lon="5.97363">
        <ele>518.7</ele>
        <time>2021-05-30T08:58:25.376Z</time>
      </trkpt>
      <trkpt lat="44.11568" lon="5.97374">
        <ele>520.2</ele>
        <time>2021-05-30T08:58:39.156Z</time>
      </trkpt>
      <trkpt lat="44.11568" lon="5.97385">
        <ele>520.7</ele>
        <time>2021-05-30T08:58:44.497Z</time>
      </trkpt>
      <trkpt lat="44.1155" lon="5.97403">
        <ele>522.6</ele>
        <time>2021-05-30T08:59:02.357Z</time>
      </trkpt>
      <trkpt lat="44.1152" lon="5.97405">
        <ele>524.7</ele>
        <time>2021-05-30T08:59:23.679Z</time>
      </trkpt>
      <trkpt lat="44.11502" lon="5.97416">
        <ele>525.9</ele>
        <time>2021-05-30T08:59:36.758Z</time>
      </trkpt>
      <trkpt lat="44.11453" lon="5.97401">
        <ele>531.9</ele>
        <time>2021-05-30T09:00:33.682Z</time>
      </trkpt>
      <trkpt lat="44.11383" lon="5.97417">
        <ele>541.9</ele>
        <time>2021-05-30T09:02:10.269Z</time>
      </trkpt>
      <trkpt lat="44.11338" lon="5.97385">
        <ele>545.4</ele>
        <time>2021-05-30T09:02:45.963Z</time>
      </trkpt>
      <trkpt lat="44.11328" lon="5.97385">
        <ele>546.5</ele>
        <time>2021-05-30T09:02:56.134Z</time>
      </trkpt>
      <trkpt lat="44.11306" lon="5.97356">
        <ele>545.9</ele>
        <time>2021-05-30T09:03:01.639Z</time>
      </trkpt>
      <trkpt lat="44.11272" lon="5.97345">
        <ele>548.1</ele>
        <time>2021-05-30T09:03:25.195Z</time>
      </trkpt>
      <trkpt lat="44.11241" lon="5.97351">
        <ele>551.6</ele>
        <time>2021-05-30T09:03:57.669Z</time>
      </trkpt>
      <trkpt lat="44.11196" lon="5.97339">
        <ele>554.1</ele>
        <time>2021-05-30T09:04:26.822Z</time>
      </trkpt>
      <trkpt lat="44.11178" lon="5.97341">
        <ele>555.7</ele>
        <time>2021-05-30T09:04:41.742Z</time>
      </trkpt>
      <trkpt lat="44.1115" lon="5.97329">
        <ele>557.5</ele>
        <time>2021-05-30T09:05:01.290Z</time>
      </trkpt>
      <trkpt lat="44.1112" lon="5.97327">
        <ele>560.3</ele>
        <time>2021-05-30T09:05:27.154Z</time>
      </trkpt>
      <trkpt lat="44.11098" lon="5.97333">
        <ele>562.6</ele>
        <time>2021-05-30T09:05:48.268Z</time>
      </trkpt>
      <trkpt lat="44.11109" lon="5.97304">
        <ele>560.3</ele>
        <time>2021-05-30T09:05:51.281Z</time>
      </trkpt>
      <trkpt lat="44.11096" lon="5.97289">
        <ele>560.5</ele>
        <time>2021-05-30T09:05:57.965Z</time>
      </trkpt>
      <trkpt lat="44.111" lon="5.97262">
        <ele>559</ele>
        <time>2021-05-30T09:06:00.498Z</time>
      </trkpt>
      <trkpt lat="44.11111" lon="5.97237">
        <ele>557.4</ele>
        <time>2021-05-30T09:06:03.191Z</time>
      </trkpt>
      <trkpt lat="44.11113" lon="5.97187">
        <ele>555.2</ele>
        <time>2021-05-30T09:06:07.588Z</time>
      </trkpt>
      <trkpt lat="44.11123" lon="5.97179">
        <ele>554.6</ele>
        <time>2021-05-30T09:06:09.109Z</time>
      </trkpt>
      <trkpt lat="44.11127" lon="5.97165">
        <ele>553.8</ele>
        <time>2021-05-30T09:06:10.493Z</time>
      </trkpt>
      <trkpt lat="44.11124" lon="5.97116">
        <ele>548.9</ele>
        <time>2021-05-30T09:06:15.010Z</time>
      </trkpt>
      <trkpt lat="44.11114" lon="5.97112">
        <ele>548.9</ele>
        <time>2021-05-30T09:06:18.683Z</time>
      </trkpt>
      <trkpt lat="44.11107" lon="5.97117">
        <ele>549.8</ele>
        <time>2021-05-30T09:06:27.084Z</time>
      </trkpt>
      <trkpt lat="44.11068" lon="5.97106">
        <ele>551.2</ele>
        <time>2021-05-30T09:06:47.810Z</time>
      </trkpt>
      <trkpt lat="44.11059" lon="5.97111">
        <ele>552.4</ele>
        <time>2021-05-30T09:06:59.397Z</time>
      </trkpt>
      <trkpt lat="44.11042" lon="5.9708">
        <ele>551.6</ele>
        <time>2021-05-30T09:07:04.013Z</time>
      </trkpt>
      <trkpt lat="44.11025" lon="5.97069">
        <ele>553.4</ele>
        <time>2021-05-30T09:07:20.579Z</time>
      </trkpt>
      <trkpt lat="44.10976" lon="5.97075">
        <ele>560.2</ele>
        <time>2021-05-30T09:08:27.554Z</time>
      </trkpt>
      <trkpt lat="44.10984" lon="5.97045">
        <ele>559.7</ele>
        <time>2021-05-30T09:08:31.637Z</time>
      </trkpt>
      <trkpt lat="44.10983" lon="5.97026">
        <ele>560.5</ele>
        <time>2021-05-30T09:08:40.577Z</time>
      </trkpt>
      <trkpt lat="44.10967" lon="5.96997">
        <ele>563.8</ele>
        <time>2021-05-30T09:09:12.724Z</time>
      </trkpt>
      <trkpt lat="44.10922" lon="5.96983">
        <ele>570.1</ele>
        <time>2021-05-30T09:10:15.505Z</time>
      </trkpt>
      <trkpt lat="44.1088" lon="5.96961">
        <ele>574.7</ele>
        <time>2021-05-30T09:10:57.732Z</time>
      </trkpt>
      <trkpt lat="44.10822" lon="5.9695">
        <ele>580.8</ele>
        <time>2021-05-30T09:11:53.766Z</time>
      </trkpt>
      <trkpt lat="44.10771" lon="5.96975">
        <ele>584.2</ele>
        <time>2021-05-30T09:12:30.216Z</time>
      </trkpt>
      <trkpt lat="44.10728" lon="5.96985">
        <ele>588.3</ele>
        <time>2021-05-30T09:13:08.041Z</time>
      </trkpt>
      <trkpt lat="44.10666" lon="5.96979">
        <ele>596.6</ele>
        <time>2021-05-30T09:14:32.663Z</time>
      </trkpt>
      <trkpt lat="44.10622" lon="5.96989">
        <ele>602.1</ele>
        <time>2021-05-30T09:15:25.656Z</time>
      </trkpt>
      <trkpt lat="44.10613" lon="5.96982">
        <ele>603.4</ele>
        <time>2021-05-30T09:15:38.349Z</time>
      </trkpt>
      <trkpt lat="44.10598" lon="5.96983">
        <ele>605.3</ele>
        <time>2021-05-30T09:15:56.939Z</time>
      </trkpt>
      <trkpt lat="44.10548" lon="5.96968">
        <ele>612.7</ele>
        <time>2021-05-30T09:17:06.580Z</time>
      </trkpt>
      <trkpt lat="44.10533" lon="5.96955">
        <ele>615.1</ele>
        <time>2021-05-30T09:17:30.636Z</time>
      </trkpt>
      <trkpt lat="44.10487" lon="5.96948">
        <ele>622.5</ele>
        <time>2021-05-30T09:18:33.642Z</time>
      </trkpt>
      <trkpt lat="44.1047" lon="5.96938">
        <ele>625.2</ele>
        <time>2021-05-30T09:18:58.769Z</time>
      </trkpt>
      <trkpt lat="44.10461" lon="5.96921">
        <ele>625.9</ele>
        <time>2021-05-30T09:19:07.900Z</time>
      </trkpt>
      <trkpt lat="44.10435" lon="5.96902">
        <ele>628.6</ele>
        <time>2021-05-30T09:19:32.895Z</time>
      </trkpt>
      <trkpt lat="44.10389" lon="5.9688">
        <ele>635</ele>
        <time>2021-05-30T09:20:37.397Z</time>
      </trkpt>
      <trkpt lat="44.10363" lon="5.96876">
        <ele>639.8</ele>
        <time>2021-05-30T09:21:13.013Z</time>
      </trkpt>
      <trkpt lat="44.10359" lon="5.96864">
        <ele>640.3</ele>
        <time>2021-05-30T09:21:18.980Z</time>
      </trkpt>
      <trkpt lat="44.10372" lon="5.96842">
        <ele>636.9</ele>
        <time>2021-05-30T09:21:21.598Z</time>
      </trkpt>
      <trkpt lat="44.10349" lon="5.96834">
        <ele>641.6</ele>
        <time>2021-05-30T09:21:53.876Z</time>
      </trkpt>
      <trkpt lat="44.1033" lon="5.96811">
        <ele>645.1</ele>
        <time>2021-05-30T09:22:28.154Z</time>
      </trkpt>
      <trkpt lat="44.10318" lon="5.96808">
        <ele>649.2</ele>
        <time>2021-05-30T09:22:44.755Z</time>
      </trkpt>
      <trkpt lat="44.10176" lon="5.96656">
        <ele>653</ele>
        <time>2021-05-30T09:24:03.230Z</time>
      </trkpt>
      <trkpt lat="44.10153" lon="5.96666">
        <ele>654.6</ele>
        <time>2021-05-30T09:24:19.893Z</time>
      </trkpt>
      <trkpt lat="44.1015" lon="5.96657">
        <ele>654.2</ele>
        <time>2021-05-30T09:24:20.801Z</time>
      </trkpt>
      <trkpt lat="44.10115" lon="5.96666">
        <ele>656.4</ele>
        <time>2021-05-30T09:24:44.613Z</time>
      </trkpt>
      <trkpt lat="44.10088" lon="5.96642">
        <ele>656.6</ele>
        <time>2021-05-30T09:24:56.606Z</time>
      </trkpt>
      <trkpt lat="44.10077" lon="5.96645">
        <ele>656.9</ele>
        <time>2021-05-30T09:25:01.848Z</time>
      </trkpt>
      <trkpt lat="44.1006" lon="5.96665">
        <ele>657.6</ele>
        <time>2021-05-30T09:25:12.883Z</time>
      </trkpt>
      <trkpt lat="44.10044" lon="5.96655">
        <ele>656.9</ele>
        <time>2021-05-30T09:25:15.462Z</time>
      </trkpt>
      <trkpt lat="44.10017" lon="5.9659">
        <ele>652.8</ele>
        <time>2021-05-30T09:25:22.361Z</time>
      </trkpt>
      <trkpt lat="44.09988" lon="5.96548">
        <ele>648.8</ele>
        <time>2021-05-30T09:25:27.714Z</time>
      </trkpt>
      <trkpt lat="44.09943" lon="5.96585">
        <ele>648</ele>
        <time>2021-05-30T09:25:37.743Z</time>
      </trkpt>
      <trkpt lat="44.09893" lon="5.96609">
        <ele>646.3</ele>
        <time>2021-05-30T09:25:46.139Z</time>
      </trkpt>
      <trkpt lat="44.09867" lon="5.96648">
        <ele>646.8</ele>
        <time>2021-05-30T09:26:01.466Z</time>
      </trkpt>
      <trkpt lat="44.09859" lon="5.9669">
        <ele>648.6</ele>
        <time>2021-05-30T09:26:21.748Z</time>
      </trkpt>
      <trkpt lat="44.09866" lon="5.96719">
        <ele>651.1</ele>
        <time>2021-05-30T09:26:45.047Z</time>
      </trkpt>
      <trkpt lat="44.0986" lon="5.96729">
        <ele>651.2</ele>
        <time>2021-05-30T09:26:48.709Z</time>
      </trkpt>
      <trkpt lat="44.09844" lon="5.96738">
        <ele>650.3</ele>
        <time>2021-05-30T09:26:50.982Z</time>
      </trkpt>
      <trkpt lat="44.09814" lon="5.9673">
        <ele>647.8</ele>
        <time>2021-05-30T09:26:54.890Z</time>
      </trkpt>
      <trkpt lat="44.09803" lon="5.96716">
        <ele>646.4</ele>
        <time>2021-05-30T09:26:56.796Z</time>
      </trkpt>
      <trkpt lat="44.09796" lon="5.96722">
        <ele>646.4</ele>
        <time>2021-05-30T09:26:59.698Z</time>
      </trkpt>
      <trkpt lat="44.09797" lon="5.96727">
        <ele>646.8</ele>
        <time>2021-05-30T09:27:03.382Z</time>
      </trkpt>
      <trkpt lat="44.09754" lon="5.96732">
        <ele>644.9</ele>
        <time>2021-05-30T09:27:09.487Z</time>
      </trkpt>
      <trkpt lat="44.09733" lon="5.96756">
        <ele>645.1</ele>
        <time>2021-05-30T09:27:19.771Z</time>
      </trkpt>
      <trkpt lat="44.09729" lon="5.96768">
        <ele>645.9</ele>
        <time>2021-05-30T09:27:27.329Z</time>
      </trkpt>
      <trkpt lat="44.09706" lon="5.96793">
        <ele>646.2</ele>
        <time>2021-05-30T09:27:38.700Z</time>
      </trkpt>
      <trkpt lat="44.09703" lon="5.96813">
        <ele>647.7</ele>
        <time>2021-05-30T09:27:52.468Z</time>
      </trkpt>
      <trkpt lat="44.09693" lon="5.96821">
        <ele>647.4</ele>
        <time>2021-05-30T09:27:54.422Z</time>
      </trkpt>
      <trkpt lat="44.09664" lon="5.96826">
        <ele>645</ele>
        <time>2021-05-30T09:27:58.161Z</time>
      </trkpt>
      <trkpt lat="44.09639" lon="5.96865">
        <ele>644.4</ele>
        <time>2021-05-30T09:28:05.306Z</time>
      </trkpt>
      <trkpt lat="44.09628" lon="5.96862">
        <ele>642.1</ele>
        <time>2021-05-30T09:28:06.740Z</time>
      </trkpt>
      <trkpt lat="44.09606" lon="5.96838">
        <ele>636.2</ele>
        <time>2021-05-30T09:28:10.316Z</time>
      </trkpt>
      <trkpt lat="44.09591" lon="5.96841">
        <ele>633.9</ele>
        <time>2021-05-30T09:28:12.255Z</time>
      </trkpt>
      <trkpt lat="44.09579" lon="5.96855">
        <ele>633.1</ele>
        <time>2021-05-30T09:28:14.335Z</time>
      </trkpt>
      <trkpt lat="44.0954" lon="5.96863">
        <ele>630</ele>
        <time>2021-05-30T09:28:19.379Z</time>
      </trkpt>
      <trkpt lat="44.09527" lon="5.9688">
        <ele>630</ele>
        <time>2021-05-30T09:28:25.674Z</time>
      </trkpt>
      <trkpt lat="44.09503" lon="5.96881">
        <ele>627.7</ele>
        <time>2021-05-30T09:28:28.746Z</time>
      </trkpt>
      <trkpt lat="44.09488" lon="5.96873">
        <ele>625.7</ele>
        <time>2021-05-30T09:28:30.801Z</time>
      </trkpt>
      <trkpt lat="44.09459" lon="5.96883">
        <ele>623.5</ele>
        <time>2021-05-30T09:28:34.624Z</time>
      </trkpt>
      <trkpt lat="44.09442" lon="5.96897">
        <ele>622.6</ele>
        <time>2021-05-30T09:28:37.379Z</time>
      </trkpt>
      <trkpt lat="44.09446" lon="5.96909">
        <ele>623.7</ele>
        <time>2021-05-30T09:28:47.685Z</time>
      </trkpt>
      <trkpt lat="44.09446" lon="5.96939">
        <ele>622.9</ele>
        <time>2021-05-30T09:28:50.939Z</time>
      </trkpt>
      <trkpt lat="44.09439" lon="5.96966">
        <ele>620.5</ele>
        <time>2021-05-30T09:28:53.577Z</time>
      </trkpt>
      <trkpt lat="44.09422" lon="5.96984">
        <ele>616.9</ele>
        <time>2021-05-30T09:28:56.309Z</time>
      </trkpt>
      <trkpt lat="44.09425" lon="5.96999">
        <ele>616.4</ele>
        <time>2021-05-30T09:28:57.882Z</time>
      </trkpt>
      <trkpt lat="44.0942" lon="5.97012">
        <ele>616.2</ele>
        <time>2021-05-30T09:28:59.828Z</time>
      </trkpt>
      <trkpt lat="44.09397" lon="5.9703">
        <ele>614.5</ele>
        <time>2021-05-30T09:29:02.973Z</time>
      </trkpt>
      <trkpt lat="44.09396" lon="5.97057">
        <ele>615.8</ele>
        <time>2021-05-30T09:29:16.456Z</time>
      </trkpt>
      <trkpt lat="44.09357" lon="5.97117">
        <ele>615.7</ele>
        <time>2021-05-30T09:29:36.446Z</time>
      </trkpt>
      <trkpt lat="44.09331" lon="5.97169">
        <ele>620.5</ele>
        <time>2021-05-30T09:30:20.577Z</time>
      </trkpt>
      <trkpt lat="44.09326" lon="5.97171">
        <ele>621</ele>
        <time>2021-05-30T09:30:25.178Z</time>
      </trkpt>
      <trkpt lat="44.09323" lon="5.97156">
        <ele>618.7</ele>
        <time>2021-05-30T09:30:26.609Z</time>
      </trkpt>
      <trkpt lat="44.09299" lon="5.97157">
        <ele>618.9</ele>
        <time>2021-05-30T09:30:35.785Z</time>
      </trkpt>
      <trkpt lat="44.09296" lon="5.97176">
        <ele>622.5</ele>
        <time>2021-05-30T09:30:54.809Z</time>
      </trkpt>
      <trkpt lat="44.09254" lon="5.97215">
        <ele>631.9</ele>
        <time>2021-05-30T09:32:03.546Z</time>
      </trkpt>
      <trkpt lat="44.09292" lon="5.9723">
        <ele>634.2</ele>
        <time>2021-05-30T09:32:29.316Z</time>
      </trkpt>
      <trkpt lat="44.09325" lon="5.97253">
        <ele>637.9</ele>
        <time>2021-05-30T09:33:03.280Z</time>
      </trkpt>
      <trkpt lat="44.09322" lon="5.97262">
        <ele>639.7</ele>
        <time>2021-05-30T09:33:12.983Z</time>
      </trkpt>
      <trkpt lat="44.09293" lon="5.97257">
        <ele>639.7</ele>
        <time>2021-05-30T09:33:23.298Z</time>
      </trkpt>
      <trkpt lat="44.09286" lon="5.97261">
        <ele>640.6</ele>
        <time>2021-05-30T09:33:31.816Z</time>
      </trkpt>
      <trkpt lat="44.09265" lon="5.97253">
        <ele>639.9</ele>
        <time>2021-05-30T09:33:35.272Z</time>
      </trkpt>
      <trkpt lat="44.09257" lon="5.97257">
        <ele>640.9</ele>
        <time>2021-05-30T09:33:44.696Z</time>
      </trkpt>
      <trkpt lat="44.09277" lon="5.9729">
        <ele>645.7</ele>
        <time>2021-05-30T09:34:26.921Z</time>
      </trkpt>
      <trkpt lat="44.0931" lon="5.9732">
        <ele>650.6</ele>
        <time>2021-05-30T09:35:14.343Z</time>
      </trkpt>
      <trkpt lat="44.09317" lon="5.97347">
        <ele>652.7</ele>
        <time>2021-05-30T09:35:33.618Z</time>
      </trkpt>
      <trkpt lat="44.09396" lon="5.97354">
        <ele>653.9</ele>
        <time>2021-05-30T09:36:06.068Z</time>
      </trkpt>
      <trkpt lat="44.09407" lon="5.97364">
        <ele>654.2</ele>
        <time>2021-05-30T09:36:11.932Z</time>
      </trkpt>
      <trkpt lat="44.0944" lon="5.9735">
        <ele>655.3</ele>
        <time>2021-05-30T09:36:29.134Z</time>
      </trkpt>
      <trkpt lat="44.09455" lon="5.97331">
        <ele>655.4</ele>
        <time>2021-05-30T09:36:36.631Z</time>
      </trkpt>
      <trkpt lat="44.09494" lon="5.97303">
        <ele>651.9</ele>
        <time>2021-05-30T09:36:42.245Z</time>
      </trkpt>
      <trkpt lat="44.09518" lon="5.97322">
        <ele>658.2</ele>
        <time>2021-05-30T09:37:19.836Z</time>
      </trkpt>
      <trkpt lat="44.09561" lon="5.97341">
        <ele>664.8</ele>
        <time>2021-05-30T09:38:21.261Z</time>
      </trkpt>
      <trkpt lat="44.09581" lon="5.97366">
        <ele>664.7</ele>
        <time>2021-05-30T09:38:30.237Z</time>
      </trkpt>
      <trkpt lat="44.09583" lon="5.97379">
        <ele>663.6</ele>
        <time>2021-05-30T09:38:31.459Z</time>
      </trkpt>
      <trkpt lat="44.09522" lon="5.97524">
        <ele>644.5</ele>
        <time>2021-05-30T09:38:46.900Z</time>
      </trkpt>
      <trkpt lat="44.09516" lon="5.97529">
        <ele>643.8</ele>
        <time>2021-05-30T09:38:47.794Z</time>
      </trkpt>
      <trkpt lat="44.09495" lon="5.9759">
        <ele>634.8</ele>
        <time>2021-05-30T09:38:54.010Z</time>
      </trkpt>
      <trkpt lat="44.09464" lon="5.97636">
        <ele>627.2</ele>
        <time>2021-05-30T09:38:59.806Z</time>
      </trkpt>
      <trkpt lat="44.09435" lon="5.97664">
        <ele>622.6</ele>
        <time>2021-05-30T09:39:04.321Z</time>
      </trkpt>
      <trkpt lat="44.09404" lon="5.97679">
        <ele>619.9</ele>
        <time>2021-05-30T09:39:08.520Z</time>
      </trkpt>
      <trkpt lat="44.09389" lon="5.977">
        <ele>616</ele>
        <time>2021-05-30T09:39:11.242Z</time>
      </trkpt>
      <trkpt lat="44.09376" lon="5.97696">
        <ele>616.6</ele>
        <time>2021-05-30T09:39:19.202Z</time>
      </trkpt>
      <trkpt lat="44.09359" lon="5.97705">
        <ele>614.6</ele>
        <time>2021-05-30T09:39:21.529Z</time>
      </trkpt>
      <trkpt lat="44.09336" lon="5.97687">
        <ele>617.9</ele>
        <time>2021-05-30T09:39:53.581Z</time>
      </trkpt>
      <trkpt lat="44.09336" lon="5.97655">
        <ele>624</ele>
        <time>2021-05-30T09:40:24.874Z</time>
      </trkpt>
      <trkpt lat="44.09331" lon="5.97652">
        <ele>624.4</ele>
        <time>2021-05-30T09:40:28.845Z</time>
      </trkpt>
      <trkpt lat="44.09306" lon="5.97661">
        <ele>622.9</ele>
        <time>2021-05-30T09:40:32.082Z</time>
      </trkpt>
      <trkpt lat="44.09288" lon="5.97651">
        <ele>624.2</ele>
        <time>2021-05-30T09:40:45.552Z</time>
      </trkpt>
      <trkpt lat="44.09273" lon="5.97662">
        <ele>622.6</ele>
        <time>2021-05-30T09:40:47.721Z</time>
      </trkpt>
      <trkpt lat="44.0924" lon="5.97642">
        <ele>624.1</ele>
        <time>2021-05-30T09:41:08.271Z</time>
      </trkpt>
      <trkpt lat="44.09221" lon="5.97646">
        <ele>622</ele>
        <time>2021-05-30T09:41:10.729Z</time>
      </trkpt>
      <trkpt lat="44.09209" lon="5.97641">
        <ele>621.5</ele>
        <time>2021-05-30T09:41:12.571Z</time>
      </trkpt>
      <trkpt lat="44.09183" lon="5.97643">
        <ele>619</ele>
        <time>2021-05-30T09:41:15.902Z</time>
      </trkpt>
      <trkpt lat="44.09169" lon="5.97631">
        <ele>619.1</ele>
        <time>2021-05-30T09:41:22.048Z</time>
      </trkpt>
      <trkpt lat="44.09171" lon="5.97606">
        <ele>622</ele>
        <time>2021-05-30T09:41:46.648Z</time>
      </trkpt>
      <trkpt lat="44.09179" lon="5.97593">
        <ele>624.1</ele>
        <time>2021-05-30T09:42:03.389Z</time>
      </trkpt>
      <trkpt lat="44.09169" lon="5.97574">
        <ele>625.7</ele>
        <time>2021-05-30T09:42:18.140Z</time>
      </trkpt>
      <trkpt lat="44.09138" lon="5.97554">
        <ele>627.7</ele>
        <time>2021-05-30T09:42:40.478Z</time>
      </trkpt>
      <trkpt lat="44.09097" lon="5.97564">
        <ele>624.7</ele>
        <time>2021-05-30T09:42:45.804Z</time>
      </trkpt>
      <trkpt lat="44.09077" lon="5.97559">
        <ele>624.7</ele>
        <time>2021-05-30T09:42:52.977Z</time>
      </trkpt>
      <trkpt lat="44.09048" lon="5.97537">
        <ele>626.9</ele>
        <time>2021-05-30T09:43:15.852Z</time>
      </trkpt>
      <trkpt lat="44.09008" lon="5.9753">
        <ele>626</ele>
        <time>2021-05-30T09:43:22.969Z</time>
      </trkpt>
      <trkpt lat="44.08997" lon="5.97522">
        <ele>627.1</ele>
        <time>2021-05-30T09:43:33.226Z</time>
      </trkpt>
      <trkpt lat="44.08964" lon="5.97542">
        <ele>624.3</ele>
        <time>2021-05-30T09:43:37.831Z</time>
      </trkpt>
      <trkpt lat="44.08964" lon="5.97554">
        <ele>622</ele>
        <time>2021-05-30T09:43:38.933Z</time>
      </trkpt>
      <trkpt lat="44.08951" lon="5.97555">
        <ele>622.1</ele>
        <time>2021-05-30T09:43:43.877Z</time>
      </trkpt>
      <trkpt lat="44.0894" lon="5.97571">
        <ele>619.2</ele>
        <time>2021-05-30T09:43:45.913Z</time>
      </trkpt>
      <trkpt lat="44.08927" lon="5.97573">
        <ele>619</ele>
        <time>2021-05-30T09:43:48.423Z</time>
      </trkpt>
      <trkpt lat="44.08809" lon="5.97633">
        <ele>615.5</ele>
        <time>2021-05-30T09:44:09.282Z</time>
      </trkpt>
      <trkpt lat="44.08784" lon="5.97663">
        <ele>611.7</ele>
        <time>2021-05-30T09:44:13.505Z</time>
      </trkpt>
      <trkpt lat="44.08776" lon="5.977">
        <ele>606.1</ele>
        <time>2021-05-30T09:44:17.056Z</time>
      </trkpt>
      <trkpt lat="44.08795" lon="5.97744">
        <ele>600.6</ele>
        <time>2021-05-30T09:44:21.774Z</time>
      </trkpt>
      <trkpt lat="44.08792" lon="5.97757">
        <ele>598.3</ele>
        <time>2021-05-30T09:44:23.029Z</time>
      </trkpt>
      <trkpt lat="44.08721" lon="5.97786">
        <ele>588.1</ele>
        <time>2021-05-30T09:44:32.495Z</time>
      </trkpt>
      <trkpt lat="44.08707" lon="5.97786">
        <ele>587</ele>
        <time>2021-05-30T09:44:34.287Z</time>
      </trkpt>
      <trkpt lat="44.08671" lon="5.97809">
        <ele>582.7</ele>
        <time>2021-05-30T09:44:39.354Z</time>
      </trkpt>
      <trkpt lat="44.08657" lon="5.97842">
        <ele>580.6</ele>
        <time>2021-05-30T09:44:42.876Z</time>
      </trkpt>
      <trkpt lat="44.08649" lon="5.97849">
        <ele>580.2</ele>
        <time>2021-05-30T09:44:44.234Z</time>
      </trkpt>
      <trkpt lat="44.08626" lon="5.9785">
        <ele>579.1</ele>
        <time>2021-05-30T09:44:47.381Z</time>
      </trkpt>
      <trkpt lat="44.08624" lon="5.97837">
        <ele>578.6</ele>
        <time>2021-05-30T09:44:48.637Z</time>
      </trkpt>
      <trkpt lat="44.08625" lon="5.97853">
        <ele>579.1</ele>
        <time>2021-05-30T09:44:55.390Z</time>
      </trkpt>
      <trkpt lat="44.08614" lon="5.97855">
        <ele>578.6</ele>
        <time>2021-05-30T09:44:56.945Z</time>
      </trkpt>
      <trkpt lat="44.08621" lon="5.97855">
        <ele>578.9</ele>
        <time>2021-05-30T09:45:01.013Z</time>
      </trkpt>
      <trkpt lat="44.08622" lon="5.97839">
        <ele>578.5</ele>
        <time>2021-05-30T09:45:02.798Z</time>
      </trkpt>
      <trkpt lat="44.08611" lon="5.97809">
        <ele>578.3</ele>
        <time>2021-05-30T09:45:07.886Z</time>
      </trkpt>
      <trkpt lat="44.08588" lon="5.97768">
        <ele>577.2</ele>
        <time>2021-05-30T09:45:13.987Z</time>
      </trkpt>
      <trkpt lat="44.08563" lon="5.97708">
        <ele>578.7</ele>
        <time>2021-05-30T09:45:38.272Z</time>
      </trkpt>
      <trkpt lat="44.08523" lon="5.97635">
        <ele>577.4</ele>
        <time>2021-05-30T09:45:50.273Z</time>
      </trkpt>
      <trkpt lat="44.08511" lon="5.97592">
        <ele>577.8</ele>
        <time>2021-05-30T09:46:03.425Z</time>
      </trkpt>
      <trkpt lat="44.08518" lon="5.97531">
        <ele>580.6</ele>
        <time>2021-05-30T09:46:33.386Z</time>
      </trkpt>
      <trkpt lat="44.08562" lon="5.97409">
        <ele>577.3</ele>
        <time>2021-05-30T09:46:48.714Z</time>
      </trkpt>
      <trkpt lat="44.08575" lon="5.97385">
        <ele>578.9</ele>
        <time>2021-05-30T09:47:04.541Z</time>
      </trkpt>
      <trkpt lat="44.08572" lon="5.97343">
        <ele>577.4</ele>
        <time>2021-05-30T09:47:08.627Z</time>
      </trkpt>
      <trkpt lat="44.08561" lon="5.97288">
        <ele>573.5</ele>
        <time>2021-05-30T09:47:13.874Z</time>
      </trkpt>
      <trkpt lat="44.08554" lon="5.97306">
        <ele>573.4</ele>
        <time>2021-05-30T09:47:18.574Z</time>
      </trkpt>
      <trkpt lat="44.08511" lon="5.97315">
        <ele>567.6</ele>
        <time>2021-05-30T09:47:24.137Z</time>
      </trkpt>
      <trkpt lat="44.08491" lon="5.97295">
        <ele>564.7</ele>
        <time>2021-05-30T09:47:27.288Z</time>
      </trkpt>
      <trkpt lat="44.08476" lon="5.97299">
        <ele>562.5</ele>
        <time>2021-05-30T09:47:29.242Z</time>
      </trkpt>
      <trkpt lat="44.08454" lon="5.97275">
        <ele>558.8</ele>
        <time>2021-05-30T09:47:32.818Z</time>
      </trkpt>
      <trkpt lat="44.0845" lon="5.97261">
        <ele>557.8</ele>
        <time>2021-05-30T09:47:34.202Z</time>
      </trkpt>
      <trkpt lat="44.08422" lon="5.97234">
        <ele>552.6</ele>
        <time>2021-05-30T09:47:38.560Z</time>
      </trkpt>
      <trkpt lat="44.08398" lon="5.97243">
        <ele>548.3</ele>
        <time>2021-05-30T09:47:41.740Z</time>
      </trkpt>
      <trkpt lat="44.08361" lon="5.97244">
        <ele>541.1</ele>
        <time>2021-05-30T09:47:46.475Z</time>
      </trkpt>
      <trkpt lat="44.08343" lon="5.97255">
        <ele>537.7</ele>
        <time>2021-05-30T09:47:48.990Z</time>
      </trkpt>
      <trkpt lat="44.08329" lon="5.97251">
        <ele>534.8</ele>
        <time>2021-05-30T09:47:50.819Z</time>
      </trkpt>
      <trkpt lat="44.08322" lon="5.97263">
        <ele>536.3</ele>
        <time>2021-05-30T09:48:05.938Z</time>
      </trkpt>
      <trkpt lat="44.0832" lon="5.97295">
        <ele>541.8</ele>
        <time>2021-05-30T09:48:37.355Z</time>
      </trkpt>
      <trkpt lat="44.08312" lon="5.97309">
        <ele>543.8</ele>
        <time>2021-05-30T09:48:54.852Z</time>
      </trkpt>
      <trkpt lat="44.08294" lon="5.97316">
        <ele>544.3</ele>
        <time>2021-05-30T09:49:03.591Z</time>
      </trkpt>
      <trkpt lat="44.08282" lon="5.97333">
        <ele>547.1</ele>
        <time>2021-05-30T09:49:26.902Z</time>
      </trkpt>
      <trkpt lat="44.08263" lon="5.97337">
        <ele>547.4</ele>
        <time>2021-05-30T09:49:34.817Z</time>
      </trkpt>
      <trkpt lat="44.08234" lon="5.97331">
        <ele>543.2</ele>
        <time>2021-05-30T09:49:38.568Z</time>
      </trkpt>
      <trkpt lat="44.08221" lon="5.97337">
        <ele>542.8</ele>
        <time>2021-05-30T09:49:40.810Z</time>
      </trkpt>
      <trkpt lat="44.08148" lon="5.97341">
        <ele>533.7</ele>
        <time>2021-05-30T09:49:50.157Z</time>
      </trkpt>
      <trkpt lat="44.08126" lon="5.97352">
        <ele>533.7</ele>
        <time>2021-05-30T09:49:58.409Z</time>
      </trkpt>
      <trkpt lat="44.08107" lon="5.97352">
        <ele>531.4</ele>
        <time>2021-05-30T09:50:00.840Z</time>
      </trkpt>
      <trkpt lat="44.08071" lon="5.97369">
        <ele>531</ele>
        <time>2021-05-30T09:50:08.596Z</time>
      </trkpt>
      <trkpt lat="44.08057" lon="5.97399">
        <ele>535.3</ele>
        <time>2021-05-30T09:50:43.588Z</time>
      </trkpt>
      <trkpt lat="44.08018" lon="5.97405">
        <ele>532.9</ele>
        <time>2021-05-30T09:50:48.387Z</time>
      </trkpt>
      <trkpt lat="44.08014" lon="5.97398">
        <ele>531.5</ele>
        <time>2021-05-30T09:50:49.209Z</time>
      </trkpt>
      <trkpt lat="44.07997" lon="5.97407">
        <ele>531</ele>
        <time>2021-05-30T09:50:52.241Z</time>
      </trkpt>
      <trkpt lat="44.07994" lon="5.97424">
        <ele>532.7</ele>
        <time>2021-05-30T09:51:09.363Z</time>
      </trkpt>
      <trkpt lat="44.07987" lon="5.97426">
        <ele>531.6</ele>
        <time>2021-05-30T09:51:10.278Z</time>
      </trkpt>
      <trkpt lat="44.07969" lon="5.97417">
        <ele>526.7</ele>
        <time>2021-05-30T09:51:12.725Z</time>
      </trkpt>
      <trkpt lat="44.07904" lon="5.97431">
        <ele>515.4</ele>
        <time>2021-05-30T09:51:21.140Z</time>
      </trkpt>
      <trkpt lat="44.07843" lon="5.97464">
        <ele>506.9</ele>
        <time>2021-05-30T09:51:29.513Z</time>
      </trkpt>
      <trkpt lat="44.07835" lon="5.97462">
        <ele>505.1</ele>
        <time>2021-05-30T09:51:30.553Z</time>
      </trkpt>
      <trkpt lat="44.0782" lon="5.97474">
        <ele>505.9</ele>
        <time>2021-05-30T09:51:40.975Z</time>
      </trkpt>
      <trkpt lat="44.07809" lon="5.97495">
        <ele>508.5</ele>
        <time>2021-05-30T09:52:06.397Z</time>
      </trkpt>
      <trkpt lat="44.07796" lon="5.97571">
        <ele>520.7</ele>
        <time>2021-05-30T09:53:22.815Z</time>
      </trkpt>
      <trkpt lat="44.07804" lon="5.97585">
        <ele>521.8</ele>
        <time>2021-05-30T09:53:33.160Z</time>
      </trkpt>
      <trkpt lat="44.07909" lon="5.97633">
        <ele>523.6</ele>
        <time>2021-05-30T09:54:19.014Z</time>
      </trkpt>
      <trkpt lat="44.07999" lon="5.97638">
        <ele>531.7</ele>
        <time>2021-05-30T09:55:34.309Z</time>
      </trkpt>
      <trkpt lat="44.08063" lon="5.97618">
        <ele>540.5</ele>
        <time>2021-05-30T09:57:03.619Z</time>
      </trkpt>
      <trkpt lat="44.08084" lon="5.97618">
        <ele>542.8</ele>
        <time>2021-05-30T09:57:24.869Z</time>
      </trkpt>
      <trkpt lat="44.0815" lon="5.97652">
        <ele>540.9</ele>
        <time>2021-05-30T09:57:36.664Z</time>
      </trkpt>
      <trkpt lat="44.08236" lon="5.97679">
        <ele>548</ele>
        <time>2021-05-30T09:58:44.691Z</time>
      </trkpt>
      <trkpt lat="44.0824" lon="5.97688">
        <ele>548.2</ele>
        <time>2021-05-30T09:58:48.226Z</time>
      </trkpt>
      <trkpt lat="44.08238" lon="5.9773">
        <ele>546.8</ele>
        <time>2021-05-30T09:58:52.417Z</time>
      </trkpt>
      <trkpt lat="44.08247" lon="5.9775">
        <ele>546.8</ele>
        <time>2021-05-30T09:58:58.402Z</time>
      </trkpt>
      <trkpt lat="44.08299" lon="5.97771">
        <ele>553.7</ele>
        <time>2021-05-30T10:00:06.244Z</time>
      </trkpt>
      <trkpt lat="44.0832" lon="5.97793">
        <ele>557.8</ele>
        <time>2021-05-30T10:00:42.030Z</time>
      </trkpt>
      <trkpt lat="44.08358" lon="5.9782">
        <ele>562.1</ele>
        <time>2021-05-30T10:01:21.498Z</time>
      </trkpt>
      <trkpt lat="44.08499" lon="5.97877">
        <ele>575.2</ele>
        <time>2021-05-30T10:03:23.471Z</time>
      </trkpt>
      <trkpt lat="44.08589" lon="5.97895">
        <ele>579.1</ele>
        <time>2021-05-30T10:04:16.338Z</time>
      </trkpt>
      <trkpt lat="44.08592" lon="5.979">
        <ele>579.5</ele>
        <time>2021-05-30T10:04:20.102Z</time>
      </trkpt>
      <trkpt lat="44.08588" lon="5.97911">
        <ele>579.9</ele>
        <time>2021-05-30T10:04:25.400Z</time>
      </trkpt>
      <trkpt lat="44.08549" lon="5.97932">
        <ele>581.5</ele>
        <time>2021-05-30T10:04:48.127Z</time>
      </trkpt>
      <trkpt lat="44.08512" lon="5.97925">
        <ele>580.3</ele>
        <time>2021-05-30T10:04:54.054Z</time>
      </trkpt>
      <trkpt lat="44.08472" lon="5.97933">
        <ele>581.5</ele>
        <time>2021-05-30T10:05:13.649Z</time>
      </trkpt>
      <trkpt lat="44.08447" lon="5.9793">
        <ele>581.1</ele>
        <time>2021-05-30T10:05:18.428Z</time>
      </trkpt>
      <trkpt lat="44.08424" lon="5.9794">
        <ele>582.9</ele>
        <time>2021-05-30T10:05:36.173Z</time>
      </trkpt>
      <trkpt lat="44.08377" lon="5.97935">
        <ele>581</ele>
        <time>2021-05-30T10:05:43.077Z</time>
      </trkpt>
      <trkpt lat="44.0835" lon="5.97941">
        <ele>581.3</ele>
        <time>2021-05-30T10:05:53.807Z</time>
      </trkpt>
      <trkpt lat="44.08354" lon="5.97958">
        <ele>584.1</ele>
        <time>2021-05-30T10:06:11.303Z</time>
      </trkpt>
      <trkpt lat="44.08385" lon="5.97981">
        <ele>588.8</ele>
        <time>2021-05-30T10:06:59.133Z</time>
      </trkpt>
      <trkpt lat="44.08358" lon="5.97991">
        <ele>589.5</ele>
        <time>2021-05-30T10:07:11.933Z</time>
      </trkpt>
      <trkpt lat="44.08337" lon="5.98007">
        <ele>590.7</ele>
        <time>2021-05-30T10:07:26.722Z</time>
      </trkpt>
      <trkpt lat="44.08293" lon="5.9801">
        <ele>588.9</ele>
        <time>2021-05-30T10:07:33.141Z</time>
      </trkpt>
      <trkpt lat="44.0827" lon="5.98033">
        <ele>588</ele>
        <time>2021-05-30T10:07:37.653Z</time>
      </trkpt>
      <trkpt lat="44.08242" lon="5.98044">
        <ele>585.7</ele>
        <time>2021-05-30T10:07:41.376Z</time>
      </trkpt>
      <trkpt lat="44.08238" lon="5.98053">
        <ele>585.1</ele>
        <time>2021-05-30T10:07:42.348Z</time>
      </trkpt>
      <trkpt lat="44.08234" lon="5.98052">
        <ele>584.6</ele>
        <time>2021-05-30T10:07:42.868Z</time>
      </trkpt>
      <trkpt lat="44.08235" lon="5.98046">
        <ele>584.9</ele>
        <time>2021-05-30T10:07:45.960Z</time>
      </trkpt>
      <trkpt lat="44.08289" lon="5.98068">
        <ele>590.3</ele>
        <time>2021-05-30T10:08:35.661Z</time>
      </trkpt>
      <trkpt lat="44.08311" lon="5.98064">
        <ele>592.4</ele>
        <time>2021-05-30T10:08:55.019Z</time>
      </trkpt>
      <trkpt lat="44.08374" lon="5.98084">
        <ele>599.8</ele>
        <time>2021-05-30T10:10:04.113Z</time>
      </trkpt>
      <trkpt lat="44.08387" lon="5.98078">
        <ele>600.6</ele>
        <time>2021-05-30T10:10:13.060Z</time>
      </trkpt>
      <trkpt lat="44.0851" lon="5.98115">
        <ele>602.4</ele>
        <time>2021-05-30T10:11:04.180Z</time>
      </trkpt>
      <trkpt lat="44.08519" lon="5.98111">
        <ele>603.1</ele>
        <time>2021-05-30T10:11:11.104Z</time>
      </trkpt>
      <trkpt lat="44.08542" lon="5.98123">
        <ele>603.2</ele>
        <time>2021-05-30T10:11:20.111Z</time>
      </trkpt>
      <trkpt lat="44.08549" lon="5.98133">
        <ele>602.8</ele>
        <time>2021-05-30T10:11:21.586Z</time>
      </trkpt>
      <trkpt lat="44.08564" lon="5.98133">
        <ele>603.6</ele>
        <time>2021-05-30T10:11:31.051Z</time>
      </trkpt>
      <trkpt lat="44.08575" lon="5.98142">
        <ele>603.7</ele>
        <time>2021-05-30T10:11:35.903Z</time>
      </trkpt>
      <trkpt lat="44.08593" lon="5.98175">
        <ele>601.3</ele>
        <time>2021-05-30T10:11:39.711Z</time>
      </trkpt>
      <trkpt lat="44.0866" lon="5.98209">
        <ele>595.7</ele>
        <time>2021-05-30T10:11:48.835Z</time>
      </trkpt>
      <trkpt lat="44.08681" lon="5.98212">
        <ele>595.2</ele>
        <time>2021-05-30T10:11:52.505Z</time>
      </trkpt>
      <trkpt lat="44.08731" lon="5.98253">
        <ele>589.6</ele>
        <time>2021-05-30T10:11:59.929Z</time>
      </trkpt>
      <trkpt lat="44.08751" lon="5.98258">
        <ele>589.1</ele>
        <time>2021-05-30T10:12:03.425Z</time>
      </trkpt>
      <trkpt lat="44.08762" lon="5.98228">
        <ele>591.9</ele>
        <time>2021-05-30T10:12:29.656Z</time>
      </trkpt>
      <trkpt lat="44.08757" lon="5.9825">
        <ele>590.4</ele>
        <time>2021-05-30T10:12:31.777Z</time>
      </trkpt>
      <trkpt lat="44.08825" lon="5.98326">
        <ele>571.5</ele>
        <time>2021-05-30T10:12:42.933Z</time>
      </trkpt>
      <trkpt lat="44.08832" lon="5.98426">
        <ele>548.5</ele>
        <time>2021-05-30T10:12:52.167Z</time>
      </trkpt>
      <trkpt lat="44.08844" lon="5.98424">
        <ele>548</ele>
        <time>2021-05-30T10:12:53.919Z</time>
      </trkpt>
      <trkpt lat="44.08858" lon="5.98386">
        <ele>554.7</ele>
        <time>2021-05-30T10:13:35.686Z</time>
      </trkpt>
      <trkpt lat="44.08879" lon="5.98374">
        <ele>555</ele>
        <time>2021-05-30T10:13:44.803Z</time>
      </trkpt>
      <trkpt lat="44.08895" lon="5.98348">
        <ele>558.3</ele>
        <time>2021-05-30T10:14:18.287Z</time>
      </trkpt>
      <trkpt lat="44.08901" lon="5.98394">
        <ele>548.7</ele>
        <time>2021-05-30T10:14:22.583Z</time>
      </trkpt>
      <trkpt lat="44.08895" lon="5.98426">
        <ele>544</ele>
        <time>2021-05-30T10:14:25.622Z</time>
      </trkpt>
      <trkpt lat="44.08895" lon="5.9846">
        <ele>541</ele>
        <time>2021-05-30T10:14:28.747Z</time>
      </trkpt>
      <trkpt lat="44.08873" lon="5.98497">
        <ele>537.3</ele>
        <time>2021-05-30T10:14:33.161Z</time>
      </trkpt>
      <trkpt lat="44.08863" lon="5.9853">
        <ele>537.5</ele>
        <time>2021-05-30T10:14:42.938Z</time>
      </trkpt>
      <trkpt lat="44.0884" lon="5.98565">
        <ele>535.3</ele>
        <time>2021-05-30T10:14:46.996Z</time>
      </trkpt>
      <trkpt lat="44.08802" lon="5.98661">
        <ele>534.4</ele>
        <time>2021-05-30T10:15:02.870Z</time>
      </trkpt>
      <trkpt lat="44.08811" lon="5.98679">
        <ele>534.7</ele>
        <time>2021-05-30T10:15:09.606Z</time>
      </trkpt>
      <trkpt lat="44.08924" lon="5.98757">
        <ele>540.4</ele>
        <time>2021-05-30T10:16:25.080Z</time>
      </trkpt>
      <trkpt lat="44.09025" lon="5.98877">
        <ele>535.8</ele>
        <time>2021-05-30T10:16:45.630Z</time>
      </trkpt>
      <trkpt lat="44.09122" lon="5.98925">
        <ele>535</ele>
        <time>2021-05-30T10:17:07.425Z</time>
      </trkpt>
      <trkpt lat="44.09173" lon="5.98937">
        <ele>536.1</ele>
        <time>2021-05-30T10:17:30.101Z</time>
      </trkpt>
      <trkpt lat="44.09189" lon="5.98932">
        <ele>537.4</ele>
        <time>2021-05-30T10:17:42.625Z</time>
      </trkpt>
      <trkpt lat="44.0923" lon="5.98904">
        <ele>543.2</ele>
        <time>2021-05-30T10:18:39.520Z</time>
      </trkpt>
      <trkpt lat="44.09249" lon="5.98898">
        <ele>545.1</ele>
        <time>2021-05-30T10:18:56.983Z</time>
      </trkpt>
      <trkpt lat="44.09271" lon="5.98904">
        <ele>543.5</ele>
        <time>2021-05-30T10:18:59.851Z</time>
      </trkpt>
      <trkpt lat="44.09277" lon="5.98895">
        <ele>544.8</ele>
        <time>2021-05-30T10:19:11.860Z</time>
      </trkpt>
      <trkpt lat="44.09291" lon="5.98787">
        <ele>560.4</ele>
        <time>2021-05-30T10:20:59.181Z</time>
      </trkpt>
      <trkpt lat="44.09322" lon="5.98736">
        <ele>565.4</ele>
        <time>2021-05-30T10:21:45.110Z</time>
      </trkpt>
      <trkpt lat="44.09328" lon="5.98709">
        <ele>569.5</ele>
        <time>2021-05-30T10:22:12.748Z</time>
      </trkpt>
      <trkpt lat="44.09355" lon="5.98647">
        <ele>574.9</ele>
        <time>2021-05-30T10:23:02.339Z</time>
      </trkpt>
      <trkpt lat="44.09365" lon="5.98635">
        <ele>574.7</ele>
        <time>2021-05-30T10:23:04.877Z</time>
      </trkpt>
      <trkpt lat="44.09413" lon="5.9853">
        <ele>579.7</ele>
        <time>2021-05-30T10:24:02.286Z</time>
      </trkpt>
      <trkpt lat="44.09418" lon="5.98476">
        <ele>585.8</ele>
        <time>2021-05-30T10:24:55.529Z</time>
      </trkpt>
      <trkpt lat="44.0941" lon="5.98388">
        <ele>591.2</ele>
        <time>2021-05-30T10:25:46.450Z</time>
      </trkpt>
      <trkpt lat="44.09415" lon="5.98383">
        <ele>590.4</ele>
        <time>2021-05-30T10:25:47.238Z</time>
      </trkpt>
      <trkpt lat="44.09437" lon="5.98398">
        <ele>587.6</ele>
        <time>2021-05-30T10:25:50.372Z</time>
      </trkpt>
      <trkpt lat="44.09443" lon="5.9841">
        <ele>586.8</ele>
        <time>2021-05-30T10:25:51.716Z</time>
      </trkpt>
      <trkpt lat="44.09447" lon="5.98464">
        <ele>582.7</ele>
        <time>2021-05-30T10:25:56.704Z</time>
      </trkpt>
      <trkpt lat="44.09453" lon="5.98479">
        <ele>580.7</ele>
        <time>2021-05-30T10:25:58.281Z</time>
      </trkpt>
      <trkpt lat="44.0947" lon="5.98447">
        <ele>580.6</ele>
        <time>2021-05-30T10:26:07.859Z</time>
      </trkpt>
      <trkpt lat="44.09481" lon="5.98413">
        <ele>581</ele>
        <time>2021-05-30T10:26:18.812Z</time>
      </trkpt>
      <trkpt lat="44.09496" lon="5.98402">
        <ele>578.9</ele>
        <time>2021-05-30T10:26:20.981Z</time>
      </trkpt>
      <trkpt lat="44.09505" lon="5.98384">
        <ele>578.8</ele>
        <time>2021-05-30T10:26:26.048Z</time>
      </trkpt>
      <trkpt lat="44.09531" lon="5.98389">
        <ele>579</ele>
        <time>2021-05-30T10:26:36.009Z</time>
      </trkpt>
      <trkpt lat="44.09521" lon="5.98385">
        <ele>579</ele>
        <time>2021-05-30T10:26:39.681Z</time>
      </trkpt>
      <trkpt lat="44.09523" lon="5.98368">
        <ele>579.4</ele>
        <time>2021-05-30T10:26:45.886Z</time>
      </trkpt>
      <trkpt lat="44.09549" lon="5.98347">
        <ele>580.3</ele>
        <time>2021-05-30T10:27:00.507Z</time>
      </trkpt>
      <trkpt lat="44.09581" lon="5.98335">
        <ele>580.9</ele>
        <time>2021-05-30T10:27:14.531Z</time>
      </trkpt>
      <trkpt lat="44.0961" lon="5.98344">
        <ele>581.9</ele>
        <time>2021-05-30T10:27:29.694Z</time>
      </trkpt>
      <trkpt lat="44.09636" lon="5.98332">
        <ele>583.6</ele>
        <time>2021-05-30T10:27:48.052Z</time>
      </trkpt>
      <trkpt lat="44.09653" lon="5.98348">
        <ele>583.6</ele>
        <time>2021-05-30T10:27:55.296Z</time>
      </trkpt>
      <trkpt lat="44.09663" lon="5.98349">
        <ele>583.9</ele>
        <time>2021-05-30T10:28:00.171Z</time>
      </trkpt>
      <trkpt lat="44.09669" lon="5.98343">
        <ele>584.4</ele>
        <time>2021-05-30T10:28:05.328Z</time>
      </trkpt>
      <trkpt lat="44.09674" lon="5.98347">
        <ele>584.2</ele>
        <time>2021-05-30T10:28:06.220Z</time>
      </trkpt>
      <trkpt lat="44.09698" lon="5.98341">
        <ele>584.8</ele>
        <time>2021-05-30T10:28:17.333Z</time>
      </trkpt>
      <trkpt lat="44.09725" lon="5.98306">
        <ele>587.9</ele>
        <time>2021-05-30T10:28:46.637Z</time>
      </trkpt>
      <trkpt lat="44.09757" lon="5.98312">
        <ele>588.3</ele>
        <time>2021-05-30T10:28:59.494Z</time>
      </trkpt>
      <trkpt lat="44.09766" lon="5.98303">
        <ele>589.6</ele>
        <time>2021-05-30T10:29:11.732Z</time>
      </trkpt>
      <trkpt lat="44.09779" lon="5.98306">
        <ele>589.8</ele>
        <time>2021-05-30T10:29:17.135Z</time>
      </trkpt>
      <trkpt lat="44.09803" lon="5.98299">
        <ele>591.5</ele>
        <time>2021-05-30T10:29:34.465Z</time>
      </trkpt>
      <trkpt lat="44.09816" lon="5.98313">
        <ele>590.5</ele>
        <time>2021-05-30T10:29:36.480Z</time>
      </trkpt>
      <trkpt lat="44.09834" lon="5.98315">
        <ele>591</ele>
        <time>2021-05-30T10:29:45.021Z</time>
      </trkpt>
      <trkpt lat="44.09841" lon="5.98334">
        <ele>589.2</ele>
        <time>2021-05-30T10:29:46.983Z</time>
      </trkpt>
      <trkpt lat="44.09849" lon="5.98338">
        <ele>589.3</ele>
        <time>2021-05-30T10:29:50.346Z</time>
      </trkpt>
      <trkpt lat="44.09878" lon="5.98334">
        <ele>590.6</ele>
        <time>2021-05-30T10:30:07.720Z</time>
      </trkpt>
      <trkpt lat="44.09889" lon="5.98323">
        <ele>591.9</ele>
        <time>2021-05-30T10:30:19.685Z</time>
      </trkpt>
      <trkpt lat="44.09888" lon="5.98329">
        <ele>591.3</ele>
        <time>2021-05-30T10:30:20.250Z</time>
      </trkpt>
      <trkpt lat="44.10031" lon="5.98284">
        <ele>602.5</ele>
        <time>2021-05-30T10:32:09.666Z</time>
      </trkpt>
      <trkpt lat="44.10061" lon="5.98294">
        <ele>603.5</ele>
        <time>2021-05-30T10:32:25.154Z</time>
      </trkpt>
      <trkpt lat="44.1012" lon="5.9827">
        <ele>607.7</ele>
        <time>2021-05-30T10:33:08.272Z</time>
      </trkpt>
      <trkpt lat="44.10148" lon="5.98207">
        <ele>614.6</ele>
        <time>2021-05-30T10:34:16.995Z</time>
      </trkpt>
      <trkpt lat="44.10174" lon="5.98184">
        <ele>618.1</ele>
        <time>2021-05-30T10:34:49.601Z</time>
      </trkpt>
      <trkpt lat="44.10189" lon="5.9818">
        <ele>618.8</ele>
        <time>2021-05-30T10:34:58.777Z</time>
      </trkpt>
      <trkpt lat="44.10203" lon="5.98163">
        <ele>620.8</ele>
        <time>2021-05-30T10:35:17.206Z</time>
      </trkpt>
      <trkpt lat="44.10214" lon="5.98159">
        <ele>621.3</ele>
        <time>2021-05-30T10:35:23.927Z</time>
      </trkpt>
      <trkpt lat="44.10224" lon="5.98215">
        <ele>616.1</ele>
        <time>2021-05-30T10:35:29.229Z</time>
      </trkpt>
      <trkpt lat="44.10245" lon="5.98256">
        <ele>613.7</ele>
        <time>2021-05-30T10:35:33.477Z</time>
      </trkpt>
      <trkpt lat="44.10265" lon="5.98279">
        <ele>615.2</ele>
        <time>2021-05-30T10:35:50.353Z</time>
      </trkpt>
      <trkpt lat="44.10271" lon="5.98297">
        <ele>615.6</ele>
        <time>2021-05-30T10:35:57.125Z</time>
      </trkpt>
      <trkpt lat="44.10259" lon="5.98314">
        <ele>614.2</ele>
        <time>2021-05-30T10:35:59.315Z</time>
      </trkpt>
      <trkpt lat="44.10247" lon="5.98316">
        <ele>612.9</ele>
        <time>2021-05-30T10:36:00.861Z</time>
      </trkpt>
      <trkpt lat="44.10239" lon="5.9831">
        <ele>612.3</ele>
        <time>2021-05-30T10:36:01.931Z</time>
      </trkpt>
      <trkpt lat="44.10215" lon="5.98317">
        <ele>609.8</ele>
        <time>2021-05-30T10:36:05.068Z</time>
      </trkpt>
      <trkpt lat="44.10192" lon="5.98316">
        <ele>607.7</ele>
        <time>2021-05-30T10:36:08.012Z</time>
      </trkpt>
      <trkpt lat="44.10172" lon="5.98331">
        <ele>604.7</ele>
        <time>2021-05-30T10:36:10.919Z</time>
      </trkpt>
      <trkpt lat="44.10171" lon="5.98352">
        <ele>604.3</ele>
        <time>2021-05-30T10:36:13.466Z</time>
      </trkpt>
      <trkpt lat="44.10182" lon="5.98368">
        <ele>605.5</ele>
        <time>2021-05-30T10:36:25.249Z</time>
      </trkpt>
      <trkpt lat="44.10178" lon="5.98419">
        <ele>605</ele>
        <time>2021-05-30T10:36:32.475Z</time>
      </trkpt>
      <trkpt lat="44.10156" lon="5.98414">
        <ele>602</ele>
        <time>2021-05-30T10:36:35.327Z</time>
      </trkpt>
      <trkpt lat="44.10138" lon="5.98429">
        <ele>601.3</ele>
        <time>2021-05-30T10:36:38.615Z</time>
      </trkpt>
      <trkpt lat="44.10127" lon="5.98431">
        <ele>600.3</ele>
        <time>2021-05-30T10:36:40.034Z</time>
      </trkpt>
      <trkpt lat="44.10123" lon="5.98423">
        <ele>599.3</ele>
        <time>2021-05-30T10:36:40.930Z</time>
      </trkpt>
      <trkpt lat="44.10094" lon="5.98428">
        <ele>596.8</ele>
        <time>2021-05-30T10:36:44.669Z</time>
      </trkpt>
      <trkpt lat="44.10068" lon="5.98421">
        <ele>594.5</ele>
        <time>2021-05-30T10:36:48.057Z</time>
      </trkpt>
      <trkpt lat="44.10026" lon="5.98439">
        <ele>592.7</ele>
        <time>2021-05-30T10:36:54.454Z</time>
      </trkpt>
      <trkpt lat="44.10003" lon="5.98463">
        <ele>591.2</ele>
        <time>2021-05-30T10:36:58.238Z</time>
      </trkpt>
      <trkpt lat="44.09983" lon="5.98469">
        <ele>589.8</ele>
        <time>2021-05-30T10:37:00.855Z</time>
      </trkpt>
      <trkpt lat="44.09977" lon="5.9846">
        <ele>589.5</ele>
        <time>2021-05-30T10:37:02.229Z</time>
      </trkpt>
      <trkpt lat="44.09943" lon="5.9848">
        <ele>586.7</ele>
        <time>2021-05-30T10:37:06.951Z</time>
      </trkpt>
      <trkpt lat="44.09907" lon="5.98464">
        <ele>584.9</ele>
        <time>2021-05-30T10:37:12.127Z</time>
      </trkpt>
      <trkpt lat="44.09893" lon="5.98471">
        <ele>584</ele>
        <time>2021-05-30T10:37:13.956Z</time>
      </trkpt>
      <trkpt lat="44.09874" lon="5.98508">
        <ele>582.7</ele>
        <time>2021-05-30T10:37:18.763Z</time>
      </trkpt>
      <trkpt lat="44.09872" lon="5.98524">
        <ele>584.1</ele>
        <time>2021-05-30T10:37:32.068Z</time>
      </trkpt>
      <trkpt lat="44.09854" lon="5.98521">
        <ele>582.8</ele>
        <time>2021-05-30T10:37:34.387Z</time>
      </trkpt>
      <trkpt lat="44.09841" lon="5.98526">
        <ele>582.4</ele>
        <time>2021-05-30T10:37:36.584Z</time>
      </trkpt>
      <trkpt lat="44.09832" lon="5.9852">
        <ele>581.3</ele>
        <time>2021-05-30T10:37:37.861Z</time>
      </trkpt>
      <trkpt lat="44.09798" lon="5.98534">
        <ele>578.7</ele>
        <time>2021-05-30T10:37:42.397Z</time>
      </trkpt>
      <trkpt lat="44.09766" lon="5.9851">
        <ele>574.1</ele>
        <time>2021-05-30T10:37:47.047Z</time>
      </trkpt>
      <trkpt lat="44.09748" lon="5.9851">
        <ele>572.5</ele>
        <time>2021-05-30T10:37:49.350Z</time>
      </trkpt>
      <trkpt lat="44.09689" lon="5.98532">
        <ele>573.2</ele>
        <time>2021-05-30T10:38:13.440Z</time>
      </trkpt>
      <trkpt lat="44.09672" lon="5.98546">
        <ele>572.4</ele>
        <time>2021-05-30T10:38:16.327Z</time>
      </trkpt>
      <trkpt lat="44.09627" lon="5.98559">
        <ele>574</ele>
        <time>2021-05-30T10:38:40.147Z</time>
      </trkpt>
      <trkpt lat="44.09592" lon="5.98619">
        <ele>572.5</ele>
        <time>2021-05-30T10:38:49.448Z</time>
      </trkpt>
      <trkpt lat="44.09532" lon="5.98686">
        <ele>567.1</ele>
        <time>2021-05-30T10:38:59.288Z</time>
      </trkpt>
      <trkpt lat="44.09491" lon="5.98801">
        <ele>557.4</ele>
        <time>2021-05-30T10:39:11.086Z</time>
      </trkpt>
      <trkpt lat="44.09442" lon="5.98855">
        <ele>551.8</ele>
        <time>2021-05-30T10:39:19.081Z</time>
      </trkpt>
      <trkpt lat="44.0942" lon="5.9887">
        <ele>550</ele>
        <time>2021-05-30T10:39:22.215Z</time>
      </trkpt>
      <trkpt lat="44.09371" lon="5.9892">
        <ele>543.1</ele>
        <time>2021-05-30T10:39:29.987Z</time>
      </trkpt>
      <trkpt lat="44.09311" lon="5.98947">
        <ele>538.6</ele>
        <time>2021-05-30T10:39:38.055Z</time>
      </trkpt>
      <trkpt lat="44.09279" lon="5.98949">
        <ele>538.5</ele>
        <time>2021-05-30T10:39:48.846Z</time>
      </trkpt>
      <trkpt lat="44.09273" lon="5.98958">
        <ele>537.7</ele>
        <time>2021-05-30T10:39:49.974Z</time>
      </trkpt>
      <trkpt lat="44.09265" lon="5.99002">
        <ele>533.5</ele>
        <time>2021-05-30T10:39:54.145Z</time>
      </trkpt>
      <trkpt lat="44.09262" lon="5.99228">
        <ele>535.6</ele>
        <time>2021-05-30T10:40:59.156Z</time>
      </trkpt>
      <trkpt lat="44.09266" lon="5.99275">
        <ele>539.1</ele>
        <time>2021-05-30T10:41:31.289Z</time>
      </trkpt>
      <trkpt lat="44.09262" lon="5.99283">
        <ele>539.9</ele>
        <time>2021-05-30T10:41:38.754Z</time>
      </trkpt>
      <trkpt lat="44.09234" lon="5.99291">
        <ele>541.2</ele>
        <time>2021-05-30T10:41:55.890Z</time>
      </trkpt>
      <trkpt lat="44.09181" lon="5.9925">
        <ele>537</ele>
        <time>2021-05-30T10:42:03.647Z</time>
      </trkpt>
      <trkpt lat="44.09127" lon="5.99232">
        <ele>532.9</ele>
        <time>2021-05-30T10:42:10.751Z</time>
      </trkpt>
      <trkpt lat="44.09025" lon="5.99234">
        <ele>528.6</ele>
        <time>2021-05-30T10:42:25.436Z</time>
      </trkpt>
      <trkpt lat="44.08986" lon="5.99243">
        <ele>528</ele>
        <time>2021-05-30T10:42:33.035Z</time>
      </trkpt>
      <trkpt lat="44.08904" lon="5.99247">
        <ele>527</ele>
        <time>2021-05-30T10:42:49.416Z</time>
      </trkpt>
      <trkpt lat="44.08777" lon="5.99293">
        <ele>528.9</ele>
        <time>2021-05-30T10:43:42.823Z</time>
      </trkpt>
      <trkpt lat="44.08769" lon="5.99291">
        <ele>528.4</ele>
        <time>2021-05-30T10:43:43.814Z</time>
      </trkpt>
      <trkpt lat="44.0877" lon="5.99262">
        <ele>527.2</ele>
        <time>2021-05-30T10:43:46.440Z</time>
      </trkpt>
      <trkpt lat="44.08764" lon="5.9924">
        <ele>525.1</ele>
        <time>2021-05-30T10:43:48.602Z</time>
      </trkpt>
      <trkpt lat="44.08781" lon="5.99223">
        <ele>523.3</ele>
        <time>2021-05-30T10:43:51.280Z</time>
      </trkpt>
      <trkpt lat="44.08787" lon="5.99185">
        <ele>518.3</ele>
        <time>2021-05-30T10:43:54.856Z</time>
      </trkpt>
      <trkpt lat="44.08784" lon="5.99153">
        <ele>514</ele>
        <time>2021-05-30T10:43:57.821Z</time>
      </trkpt>
      <trkpt lat="44.08787" lon="5.99136">
        <ele>512.1</ele>
        <time>2021-05-30T10:43:59.430Z</time>
      </trkpt>
      <trkpt lat="44.088" lon="5.99121">
        <ele>510.9</ele>
        <time>2021-05-30T10:44:01.590Z</time>
      </trkpt>
      <trkpt lat="44.08826" lon="5.9912">
        <ele>512</ele>
        <time>2021-05-30T10:44:16.578Z</time>
      </trkpt>
      <trkpt lat="44.08845" lon="5.9909">
        <ele>509.1</ele>
        <time>2021-05-30T10:44:20.253Z</time>
      </trkpt>
      <trkpt lat="44.08821" lon="5.99067">
        <ele>508.6</ele>
        <time>2021-05-30T10:44:25.719Z</time>
      </trkpt>
      <trkpt lat="44.08801" lon="5.99062">
        <ele>508</ele>
        <time>2021-05-30T10:44:29.034Z</time>
      </trkpt>
      <trkpt lat="44.08795" lon="5.99067">
        <ele>507.3</ele>
        <time>2021-05-30T10:44:29.929Z</time>
      </trkpt>
      <trkpt lat="44.08765" lon="5.99064">
        <ele>506.1</ele>
        <time>2021-05-30T10:44:34.351Z</time>
      </trkpt>
      <trkpt lat="44.08743" lon="5.99072">
        <ele>504.6</ele>
        <time>2021-05-30T10:44:37.030Z</time>
      </trkpt>
      <trkpt lat="44.08685" lon="5.99075">
        <ele>502.3</ele>
        <time>2021-05-30T10:44:45.587Z</time>
      </trkpt>
      <trkpt lat="44.08675" lon="5.99062">
        <ele>502.8</ele>
        <time>2021-05-30T10:44:52.847Z</time>
      </trkpt>
      <trkpt lat="44.08658" lon="5.99059">
        <ele>502.6</ele>
        <time>2021-05-30T10:44:56.291Z</time>
      </trkpt>
      <trkpt lat="44.08652" lon="5.99067">
        <ele>501.9</ele>
        <time>2021-05-30T10:44:57.354Z</time>
      </trkpt>
      <trkpt lat="44.08638" lon="5.9906">
        <ele>502</ele>
        <time>2021-05-30T10:45:02.949Z</time>
      </trkpt>
      <trkpt lat="44.08599" lon="5.99098">
        <ele>501.4</ele>
        <time>2021-05-30T10:45:12.402Z</time>
      </trkpt>
      <trkpt lat="44.08536" lon="5.99109">
        <ele>497.7</ele>
        <time>2021-05-30T10:45:20.350Z</time>
      </trkpt>
      <trkpt lat="44.08491" lon="5.99092">
        <ele>494.1</ele>
        <time>2021-05-30T10:45:26.315Z</time>
      </trkpt>
      <trkpt lat="44.08445" lon="5.99099">
        <ele>493.3</ele>
        <time>2021-05-30T10:45:34.983Z</time>
      </trkpt>
      <trkpt lat="44.08421" lon="5.99082">
        <ele>494.1</ele>
        <time>2021-05-30T10:45:48.042Z</time>
      </trkpt>
      <trkpt lat="44.08401" lon="5.9908">
        <ele>495.4</ele>
        <time>2021-05-30T10:46:01.751Z</time>
      </trkpt>
      <trkpt lat="44.08388" lon="5.9907">
        <ele>497.5</ele>
        <time>2021-05-30T10:46:21.975Z</time>
      </trkpt>
      <trkpt lat="44.08375" lon="5.99048">
        <ele>501.8</ele>
        <time>2021-05-30T10:46:49.837Z</time>
      </trkpt>
      <trkpt lat="44.08358" lon="5.99048">
        <ele>503.4</ele>
        <time>2021-05-30T10:47:04.597Z</time>
      </trkpt>
      <trkpt lat="44.08364" lon="5.99039">
        <ele>504.3</ele>
        <time>2021-05-30T10:47:12.858Z</time>
      </trkpt>
      <trkpt lat="44.08364" lon="5.99019">
        <ele>507.5</ele>
        <time>2021-05-30T10:47:32.419Z</time>
      </trkpt>
      <trkpt lat="44.08346" lon="5.98974">
        <ele>515.9</ele>
        <time>2021-05-30T10:48:22.796Z</time>
      </trkpt>
      <trkpt lat="44.08347" lon="5.98962">
        <ele>517</ele>
        <time>2021-05-30T10:48:33.572Z</time>
      </trkpt>
      <trkpt lat="44.08337" lon="5.98934">
        <ele>521.5</ele>
        <time>2021-05-30T10:49:04.156Z</time>
      </trkpt>
      <trkpt lat="44.08337" lon="5.98919">
        <ele>523.1</ele>
        <time>2021-05-30T10:49:18.827Z</time>
      </trkpt>
      <trkpt lat="44.08312" lon="5.98874">
        <ele>523.6</ele>
        <time>2021-05-30T10:49:35.073Z</time>
      </trkpt>
      <trkpt lat="44.0831" lon="5.98834">
        <ele>521.8</ele>
        <time>2021-05-30T10:49:38.559Z</time>
      </trkpt>
      <trkpt lat="44.08298" lon="5.98826">
        <ele>524</ele>
        <time>2021-05-30T10:49:56.675Z</time>
      </trkpt>
      <trkpt lat="44.08294" lon="5.98812">
        <ele>524.4</ele>
        <time>2021-05-30T10:50:02.451Z</time>
      </trkpt>
      <trkpt lat="44.08302" lon="5.98789">
        <ele>522.7</ele>
        <time>2021-05-30T10:50:04.800Z</time>
      </trkpt>
      <trkpt lat="44.08289" lon="5.9878">
        <ele>524.3</ele>
        <time>2021-05-30T10:50:19.599Z</time>
      </trkpt>
      <trkpt lat="44.08278" lon="5.98762">
        <ele>524.9</ele>
        <time>2021-05-30T10:50:28.460Z</time>
      </trkpt>
      <trkpt lat="44.08284" lon="5.98734">
        <ele>523.9</ele>
        <time>2021-05-30T10:50:31.335Z</time>
      </trkpt>
      <trkpt lat="44.08264" lon="5.98712">
        <ele>525</ele>
        <time>2021-05-30T10:50:46.215Z</time>
      </trkpt>
      <trkpt lat="44.08261" lon="5.98699">
        <ele>524.8</ele>
        <time>2021-05-30T10:50:47.985Z</time>
      </trkpt>
      <trkpt lat="44.08272" lon="5.98681">
        <ele>524.4</ele>
        <time>2021-05-30T10:50:50.941Z</time>
      </trkpt>
      <trkpt lat="44.08269" lon="5.98649">
        <ele>525.2</ele>
        <time>2021-05-30T10:51:02.906Z</time>
      </trkpt>
      <trkpt lat="44.08279" lon="5.98621">
        <ele>526.9</ele>
        <time>2021-05-30T10:51:19.576Z</time>
      </trkpt>
      <trkpt lat="44.08297" lon="5.98625">
        <ele>527.1</ele>
        <time>2021-05-30T10:51:26.730Z</time>
      </trkpt>
      <trkpt lat="44.08299" lon="5.98621">
        <ele>527.4</ele>
        <time>2021-05-30T10:51:29.550Z</time>
      </trkpt>
      <trkpt lat="44.08286" lon="5.98601">
        <ele>528.3</ele>
        <time>2021-05-30T10:51:41.238Z</time>
      </trkpt>
      <trkpt lat="44.08291" lon="5.98589">
        <ele>529.1</ele>
        <time>2021-05-30T10:51:48.911Z</time>
      </trkpt>
      <trkpt lat="44.08287" lon="5.98565">
        <ele>530.4</ele>
        <time>2021-05-30T10:52:01.819Z</time>
      </trkpt>
      <trkpt lat="44.08279" lon="5.9856">
        <ele>530.4</ele>
        <time>2021-05-30T10:52:04.914Z</time>
      </trkpt>
      <trkpt lat="44.08277" lon="5.98569">
        <ele>529.8</ele>
        <time>2021-05-30T10:52:05.780Z</time>
      </trkpt>
      <trkpt lat="44.0826" lon="5.98565">
        <ele>529.5</ele>
        <time>2021-05-30T10:52:09.005Z</time>
      </trkpt>
      <trkpt lat="44.08255" lon="5.98547">
        <ele>530.4</ele>
        <time>2021-05-30T10:52:18.489Z</time>
      </trkpt>
      <trkpt lat="44.08224" lon="5.98541">
        <ele>531.9</ele>
        <time>2021-05-30T10:52:37.549Z</time>
      </trkpt>
      <trkpt lat="44.08214" lon="5.98526">
        <ele>533</ele>
        <time>2021-05-30T10:52:48.386Z</time>
      </trkpt>
      <trkpt lat="44.08215" lon="5.98514">
        <ele>533.4</ele>
        <time>2021-05-30T10:52:53.609Z</time>
      </trkpt>
      <trkpt lat="44.08198" lon="5.98506">
        <ele>534.1</ele>
        <time>2021-05-30T10:53:03.465Z</time>
      </trkpt>
      <trkpt lat="44.08192" lon="5.98482">
        <ele>535.1</ele>
        <time>2021-05-30T10:53:15.097Z</time>
      </trkpt>
      <trkpt lat="44.08186" lon="5.98492">
        <ele>534.8</ele>
        <time>2021-05-30T10:53:16.584Z</time>
      </trkpt>
      <trkpt lat="44.08172" lon="5.98497">
        <ele>535</ele>
        <time>2021-05-30T10:53:22.427Z</time>
      </trkpt>
      <trkpt lat="44.08125" lon="5.98472">
        <ele>537.8</ele>
        <time>2021-05-30T10:53:54.677Z</time>
      </trkpt>
      <trkpt lat="44.08111" lon="5.9847">
        <ele>538.6</ele>
        <time>2021-05-30T10:54:03.772Z</time>
      </trkpt>
      <trkpt lat="44.08089" lon="5.98481">
        <ele>539.7</ele>
        <time>2021-05-30T10:54:17.928Z</time>
      </trkpt>
      <trkpt lat="44.0805" lon="5.9847">
        <ele>544.8</ele>
        <time>2021-05-30T10:55:08.275Z</time>
      </trkpt>
      <trkpt lat="44.08001" lon="5.98474">
        <ele>551.9</ele>
        <time>2021-05-30T10:56:15.107Z</time>
      </trkpt>
      <trkpt lat="44.07997" lon="5.98485">
        <ele>553</ele>
        <time>2021-05-30T10:56:25.746Z</time>
      </trkpt>
      <trkpt lat="44.08005" lon="5.98547">
        <ele>557.2</ele>
        <time>2021-05-30T10:57:04.569Z</time>
      </trkpt>
      <trkpt lat="44.0805" lon="5.98596">
        <ele>553.1</ele>
        <time>2021-05-30T10:57:11.878Z</time>
      </trkpt>
      <trkpt lat="44.08069" lon="5.98593">
        <ele>549.5</ele>
        <time>2021-05-30T10:57:14.324Z</time>
      </trkpt>
      <trkpt lat="44.08082" lon="5.98602">
        <ele>548</ele>
        <time>2021-05-30T10:57:16.182Z</time>
      </trkpt>
      <trkpt lat="44.0812" lon="5.9865">
        <ele>546.2</ele>
        <time>2021-05-30T10:57:24.089Z</time>
      </trkpt>
      <trkpt lat="44.08147" lon="5.9866">
        <ele>542.1</ele>
        <time>2021-05-30T10:57:27.664Z</time>
      </trkpt>
      <trkpt lat="44.0815" lon="5.98674">
        <ele>542.2</ele>
        <time>2021-05-30T10:57:31.723Z</time>
      </trkpt>
      <trkpt lat="44.08166" lon="5.98693">
        <ele>540.4</ele>
        <time>2021-05-30T10:57:34.414Z</time>
      </trkpt>
      <trkpt lat="44.08155" lon="5.98697">
        <ele>542</ele>
        <time>2021-05-30T10:57:49.894Z</time>
      </trkpt>
      <trkpt lat="44.08155" lon="5.98721">
        <ele>542.8</ele>
        <time>2021-05-30T10:58:00.290Z</time>
      </trkpt>
      <trkpt lat="44.0816" lon="5.98728">
        <ele>542.6</ele>
        <time>2021-05-30T10:58:01.463Z</time>
      </trkpt>
      <trkpt lat="44.08158" lon="5.9874">
        <ele>543.2</ele>
        <time>2021-05-30T10:58:07.647Z</time>
      </trkpt>
      <trkpt lat="44.08151" lon="5.98742">
        <ele>543.7</ele>
        <time>2021-05-30T10:58:12.722Z</time>
      </trkpt>
      <trkpt lat="44.08163" lon="5.98788">
        <ele>539.9</ele>
        <time>2021-05-30T10:58:17.219Z</time>
      </trkpt>
      <trkpt lat="44.08151" lon="5.98783">
        <ele>540.6</ele>
        <time>2021-05-30T10:58:25.261Z</time>
      </trkpt>
      <trkpt lat="44.08149" lon="5.98794">
        <ele>539.5</ele>
        <time>2021-05-30T10:58:26.304Z</time>
      </trkpt>
      <trkpt lat="44.08153" lon="5.98802">
        <ele>538.6</ele>
        <time>2021-05-30T10:58:27.200Z</time>
      </trkpt>
      <trkpt lat="44.08145" lon="5.98805">
        <ele>538.3</ele>
        <time>2021-05-30T10:58:28.462Z</time>
      </trkpt>
      <trkpt lat="44.08097" lon="5.98748">
        <ele>547.3</ele>
        <time>2021-05-30T10:59:54.368Z</time>
      </trkpt>
      <trkpt lat="44.0809" lon="5.98723">
        <ele>549.3</ele>
        <time>2021-05-30T11:00:12.735Z</time>
      </trkpt>
      <trkpt lat="44.08065" lon="5.98697">
        <ele>552.6</ele>
        <time>2021-05-30T11:00:43.082Z</time>
      </trkpt>
      <trkpt lat="44.08048" lon="5.98648">
        <ele>556</ele>
        <time>2021-05-30T11:01:14.925Z</time>
      </trkpt>
      <trkpt lat="44.08026" lon="5.98631">
        <ele>558</ele>
        <time>2021-05-30T11:01:34.176Z</time>
      </trkpt>
      <trkpt lat="44.07985" lon="5.98566">
        <ele>561.9</ele>
        <time>2021-05-30T11:02:16.031Z</time>
      </trkpt>
      <trkpt lat="44.07981" lon="5.98548">
        <ele>560.8</ele>
        <time>2021-05-30T11:02:17.763Z</time>
      </trkpt>
      <trkpt lat="44.07976" lon="5.9855">
        <ele>561.6</ele>
        <time>2021-05-30T11:02:24.846Z</time>
      </trkpt>
      <trkpt lat="44.0796" lon="5.98526">
        <ele>562.3</ele>
        <time>2021-05-30T11:02:36.261Z</time>
      </trkpt>
      <trkpt lat="44.07958" lon="5.98506">
        <ele>561.4</ele>
        <time>2021-05-30T11:02:38.023Z</time>
      </trkpt>
      <trkpt lat="44.07939" lon="5.98508">
        <ele>565</ele>
        <time>2021-05-30T11:03:03.967Z</time>
      </trkpt>
      <trkpt lat="44.07926" lon="5.98502">
        <ele>567.3</ele>
        <time>2021-05-30T11:03:22.615Z</time>
      </trkpt>
      <trkpt lat="44.07926" lon="5.98485">
        <ele>565.1</ele>
        <time>2021-05-30T11:03:24.178Z</time>
      </trkpt>
      <trkpt lat="44.07912" lon="5.98464">
        <ele>563.9</ele>
        <time>2021-05-30T11:03:26.753Z</time>
      </trkpt>
      <trkpt lat="44.07922" lon="5.98453">
        <ele>561</ele>
        <time>2021-05-30T11:03:28.384Z</time>
      </trkpt>
      <trkpt lat="44.07909" lon="5.98417">
        <ele>557.1</ele>
        <time>2021-05-30T11:03:32.087Z</time>
      </trkpt>
      <trkpt lat="44.07896" lon="5.98411">
        <ele>558</ele>
        <time>2021-05-30T11:03:41.511Z</time>
      </trkpt>
      <trkpt lat="44.0788" lon="5.98425">
        <ele>562</ele>
        <time>2021-05-30T11:04:07.243Z</time>
      </trkpt>
      <trkpt lat="44.07864" lon="5.98411">
        <ele>562.1</ele>
        <time>2021-05-30T11:04:14.254Z</time>
      </trkpt>
      <trkpt lat="44.07854" lon="5.98387">
        <ele>559.4</ele>
        <time>2021-05-30T11:04:16.804Z</time>
      </trkpt>
      <trkpt lat="44.07825" lon="5.98356">
        <ele>556.4</ele>
        <time>2021-05-30T11:04:21.482Z</time>
      </trkpt>
      <trkpt lat="44.07791" lon="5.98356">
        <ele>557.6</ele>
        <time>2021-05-30T11:04:39.218Z</time>
      </trkpt>
      <trkpt lat="44.0775" lon="5.98333">
        <ele>554.9</ele>
        <time>2021-05-30T11:04:44.628Z</time>
      </trkpt>
      <trkpt lat="44.07747" lon="5.98323">
        <ele>553.1</ele>
        <time>2021-05-30T11:04:45.624Z</time>
      </trkpt>
      <trkpt lat="44.07686" lon="5.98292">
        <ele>548.2</ele>
        <time>2021-05-30T11:04:53.933Z</time>
      </trkpt>
      <trkpt lat="44.07677" lon="5.98293">
        <ele>548.6</ele>
        <time>2021-05-30T11:04:59.296Z</time>
      </trkpt>
      <trkpt lat="44.07653" lon="5.98276">
        <ele>545.8</ele>
        <time>2021-05-30T11:05:02.742Z</time>
      </trkpt>
      <trkpt lat="44.07642" lon="5.98258">
        <ele>542.7</ele>
        <time>2021-05-30T11:05:04.914Z</time>
      </trkpt>
      <trkpt lat="44.07582" lon="5.98241">
        <ele>543.9</ele>
        <time>2021-05-30T11:05:31.258Z</time>
      </trkpt>
      <trkpt lat="44.0754" lon="5.9825">
        <ele>549.1</ele>
        <time>2021-05-30T11:06:21.140Z</time>
      </trkpt>
      <trkpt lat="44.075" lon="5.98222">
        <ele>544.6</ele>
        <time>2021-05-30T11:06:26.868Z</time>
      </trkpt>
      <trkpt lat="44.07452" lon="5.98207">
        <ele>540.7</ele>
        <time>2021-05-30T11:06:33.162Z</time>
      </trkpt>
      <trkpt lat="44.07415" lon="5.98214">
        <ele>541.9</ele>
        <time>2021-05-30T11:06:51.842Z</time>
      </trkpt>
      <trkpt lat="44.07403" lon="5.98209">
        <ele>540.8</ele>
        <time>2021-05-30T11:06:53.445Z</time>
      </trkpt>
      <trkpt lat="44.07372" lon="5.98214">
        <ele>540.7</ele>
        <time>2021-05-30T11:07:03.946Z</time>
      </trkpt>
      <trkpt lat="44.07253" lon="5.98153">
        <ele>534.3</ele>
        <time>2021-05-30T11:07:20.889Z</time>
      </trkpt>
      <trkpt lat="44.07223" lon="5.98132">
        <ele>528</ele>
        <time>2021-05-30T11:07:25.186Z</time>
      </trkpt>
      <trkpt lat="44.07195" lon="5.98125">
        <ele>523.9</ele>
        <time>2021-05-30T11:07:28.825Z</time>
      </trkpt>
      <trkpt lat="44.07186" lon="5.98138">
        <ele>523.8</ele>
        <time>2021-05-30T11:07:31.574Z</time>
      </trkpt>
      <trkpt lat="44.07189" lon="5.98158">
        <ele>525.8</ele>
        <time>2021-05-30T11:07:51.561Z</time>
      </trkpt>
      <trkpt lat="44.07212" lon="5.98178">
        <ele>528.7</ele>
        <time>2021-05-30T11:08:18.260Z</time>
      </trkpt>
      <trkpt lat="44.07273" lon="5.98194">
        <ele>535</ele>
        <time>2021-05-30T11:09:16.084Z</time>
      </trkpt>
      <trkpt lat="44.07318" lon="5.98232">
        <ele>537.9</ele>
        <time>2021-05-30T11:09:49.695Z</time>
      </trkpt>
      <trkpt lat="44.0743" lon="5.9826">
        <ele>550</ele>
        <time>2021-05-30T11:11:41.027Z</time>
      </trkpt>
      <trkpt lat="44.07471" lon="5.98282">
        <ele>555.1</ele>
        <time>2021-05-30T11:12:28.850Z</time>
      </trkpt>
      <trkpt lat="44.07483" lon="5.98297">
        <ele>557.8</ele>
        <time>2021-05-30T11:12:50.811Z</time>
      </trkpt>
      <trkpt lat="44.07538" lon="5.98315">
        <ele>559</ele>
        <time>2021-05-30T11:13:15.573Z</time>
      </trkpt>
      <trkpt lat="44.07551" lon="5.98332">
        <ele>560.7</ele>
        <time>2021-05-30T11:13:31.231Z</time>
      </trkpt>
      <trkpt lat="44.07554" lon="5.98344">
        <ele>560.3</ele>
        <time>2021-05-30T11:13:32.525Z</time>
      </trkpt>
      <trkpt lat="44.07551" lon="5.98377">
        <ele>559.1</ele>
        <time>2021-05-30T11:13:35.725Z</time>
      </trkpt>
      <trkpt lat="44.07536" lon="5.984">
        <ele>558.4</ele>
        <time>2021-05-30T11:13:39.296Z</time>
      </trkpt>
      <trkpt lat="44.07523" lon="5.98435">
        <ele>554</ele>
        <time>2021-05-30T11:13:42.918Z</time>
      </trkpt>
      <trkpt lat="44.07506" lon="5.98447">
        <ele>550.4</ele>
        <time>2021-05-30T11:13:45.356Z</time>
      </trkpt>
      <trkpt lat="44.07482" lon="5.98496">
        <ele>536.4</ele>
        <time>2021-05-30T11:13:50.807Z</time>
      </trkpt>
      <trkpt lat="44.07463" lon="5.9857">
        <ele>519.6</ele>
        <time>2021-05-30T11:13:58.031Z</time>
      </trkpt>
      <trkpt lat="44.07471" lon="5.98648">
        <ele>510.7</ele>
        <time>2021-05-30T11:14:05.273Z</time>
      </trkpt>
      <trkpt lat="44.07503" lon="5.98712">
        <ele>509.2</ele>
        <time>2021-05-30T11:14:14.684Z</time>
      </trkpt>
      <trkpt lat="44.07519" lon="5.98725">
        <ele>511.2</ele>
        <time>2021-05-30T11:14:33.120Z</time>
      </trkpt>
      <trkpt lat="44.07534" lon="5.98748">
        <ele>510.9</ele>
        <time>2021-05-30T11:14:37.505Z</time>
      </trkpt>
      <trkpt lat="44.0754" lon="5.98767">
        <ele>510.1</ele>
        <time>2021-05-30T11:14:39.443Z</time>
      </trkpt>
      <trkpt lat="44.07553" lon="5.98778">
        <ele>511.8</ele>
        <time>2021-05-30T11:14:55.214Z</time>
      </trkpt>
      <trkpt lat="44.07555" lon="5.98804">
        <ele>509</ele>
        <time>2021-05-30T11:14:57.617Z</time>
      </trkpt>
      <trkpt lat="44.07564" lon="5.98807">
        <ele>510.6</ele>
        <time>2021-05-30T11:15:10.218Z</time>
      </trkpt>
      <trkpt lat="44.07582" lon="5.9883">
        <ele>511.2</ele>
        <time>2021-05-30T11:15:21.347Z</time>
      </trkpt>
      <trkpt lat="44.07677" lon="5.98905">
        <ele>516.2</ele>
        <time>2021-05-30T11:16:26.947Z</time>
      </trkpt>
      <trkpt lat="44.07712" lon="5.98917">
        <ele>520.1</ele>
        <time>2021-05-30T11:17:02.908Z</time>
      </trkpt>
      <trkpt lat="44.07738" lon="5.98917">
        <ele>524.8</ele>
        <time>2021-05-30T11:17:38.309Z</time>
      </trkpt>
      <trkpt lat="44.07764" lon="5.98927">
        <ele>526.7</ele>
        <time>2021-05-30T11:17:57.534Z</time>
      </trkpt>
      <trkpt lat="44.07782" lon="5.98949">
        <ele>525</ele>
        <time>2021-05-30T11:18:00.598Z</time>
      </trkpt>
      <trkpt lat="44.07788" lon="5.9895">
        <ele>525.7</ele>
        <time>2021-05-30T11:18:07.158Z</time>
      </trkpt>
      <trkpt lat="44.07793" lon="5.98938">
        <ele>528.5</ele>
        <time>2021-05-30T11:18:20.727Z</time>
      </trkpt>
      <trkpt lat="44.07791" lon="5.98878">
        <ele>541</ele>
        <time>2021-05-30T11:19:19.480Z</time>
      </trkpt>
      <trkpt lat="44.07796" lon="5.98868">
        <ele>543.8</ele>
        <time>2021-05-30T11:19:31.398Z</time>
      </trkpt>
      <trkpt lat="44.07823" lon="5.98883">
        <ele>542.9</ele>
        <time>2021-05-30T11:19:36.069Z</time>
      </trkpt>
      <trkpt lat="44.07818" lon="5.98865">
        <ele>546.3</ele>
        <time>2021-05-30T11:19:54.946Z</time>
      </trkpt>
      <trkpt lat="44.07827" lon="5.98871">
        <ele>545.8</ele>
        <time>2021-05-30T11:19:56.284Z</time>
      </trkpt>
      <trkpt lat="44.07828" lon="5.98861">
        <ele>547.9</ele>
        <time>2021-05-30T11:20:06.160Z</time>
      </trkpt>
      <trkpt lat="44.07814" lon="5.98834">
        <ele>552.7</ele>
        <time>2021-05-30T11:20:38.731Z</time>
      </trkpt>
      <trkpt lat="44.07789" lon="5.98805">
        <ele>557.2</ele>
        <time>2021-05-30T11:21:23.041Z</time>
      </trkpt>
      <trkpt lat="44.07777" lon="5.98714">
        <ele>574.2</ele>
        <time>2021-05-30T11:22:53.540Z</time>
      </trkpt>
      <trkpt lat="44.07762" lon="5.98681">
        <ele>581.9</ele>
        <time>2021-05-30T11:23:31.738Z</time>
      </trkpt>
      <trkpt lat="44.07708" lon="5.98607">
        <ele>580</ele>
        <time>2021-05-30T11:23:44.709Z</time>
      </trkpt>
      <trkpt lat="44.07694" lon="5.98569">
        <ele>579</ele>
        <time>2021-05-30T11:23:49.557Z</time>
      </trkpt>
      <trkpt lat="44.07699" lon="5.98541">
        <ele>576.7</ele>
        <time>2021-05-30T11:23:52.209Z</time>
      </trkpt>
      <trkpt lat="44.07742" lon="5.98534">
        <ele>578.1</ele>
        <time>2021-05-30T11:24:13.924Z</time>
      </trkpt>
      <trkpt lat="44.07763" lon="5.98549">
        <ele>579.3</ele>
        <time>2021-05-30T11:24:28.573Z</time>
      </trkpt>
      <trkpt lat="44.07795" lon="5.98556">
        <ele>576.7</ele>
        <time>2021-05-30T11:24:32.718Z</time>
      </trkpt>
      <trkpt lat="44.07867" lon="5.98618">
        <ele>568.5</ele>
        <time>2021-05-30T11:24:43.550Z</time>
      </trkpt>
      <trkpt lat="44.07885" lon="5.98642">
        <ele>565.3</ele>
        <time>2021-05-30T11:24:46.739Z</time>
      </trkpt>
      <trkpt lat="44.07917" lon="5.98667">
        <ele>559</ele>
        <time>2021-05-30T11:24:51.433Z</time>
      </trkpt>
      <trkpt lat="44.07924" lon="5.98694">
        <ele>556.6</ele>
        <time>2021-05-30T11:24:54.072Z</time>
      </trkpt>
      <trkpt lat="44.07991" lon="5.98748">
        <ele>547</ele>
        <time>2021-05-30T11:25:03.977Z</time>
      </trkpt>
      <trkpt lat="44.08019" lon="5.98781">
        <ele>542.6</ele>
        <time>2021-05-30T11:25:08.671Z</time>
      </trkpt>
      <trkpt lat="44.07981" lon="5.9878">
        <ele>544.9</ele>
        <time>2021-05-30T11:25:33.866Z</time>
      </trkpt>
      <trkpt lat="44.07975" lon="5.98788">
        <ele>545.1</ele>
        <time>2021-05-30T11:25:37.629Z</time>
      </trkpt>
      <trkpt lat="44.07981" lon="5.98814">
        <ele>542.2</ele>
        <time>2021-05-30T11:25:40.139Z</time>
      </trkpt>
      <trkpt lat="44.08015" lon="5.98868">
        <ele>538</ele>
        <time>2021-05-30T11:25:46.738Z</time>
      </trkpt>
      <trkpt lat="44.08036" lon="5.98874">
        <ele>535.9</ele>
        <time>2021-05-30T11:25:49.481Z</time>
      </trkpt>
      <trkpt lat="44.08074" lon="5.98921">
        <ele>529.6</ele>
        <time>2021-05-30T11:25:55.984Z</time>
      </trkpt>
      <trkpt lat="44.08045" lon="5.98931">
        <ele>534.5</ele>
        <time>2021-05-30T11:26:36.664Z</time>
      </trkpt>
      <trkpt lat="44.08042" lon="5.98942">
        <ele>534.7</ele>
        <time>2021-05-30T11:26:40.473Z</time>
      </trkpt>
      <trkpt lat="44.08057" lon="5.98971">
        <ele>531.2</ele>
        <time>2021-05-30T11:26:43.758Z</time>
      </trkpt>
      <trkpt lat="44.08064" lon="5.98998">
        <ele>529.3</ele>
        <time>2021-05-30T11:26:46.396Z</time>
      </trkpt>
      <trkpt lat="44.0808" lon="5.99018">
        <ele>525.2</ele>
        <time>2021-05-30T11:26:49.147Z</time>
      </trkpt>
      <trkpt lat="44.08083" lon="5.99029">
        <ele>524</ele>
        <time>2021-05-30T11:26:50.229Z</time>
      </trkpt>
      <trkpt lat="44.0809" lon="5.99032">
        <ele>522.8</ele>
        <time>2021-05-30T11:26:51.166Z</time>
      </trkpt>
      <trkpt lat="44.081" lon="5.99022">
        <ele>522.1</ele>
        <time>2021-05-30T11:26:52.725Z</time>
      </trkpt>
      <trkpt lat="44.08127" lon="5.99046">
        <ele>516.3</ele>
        <time>2021-05-30T11:26:56.823Z</time>
      </trkpt>
      <trkpt lat="44.08178" lon="5.99131">
        <ele>500.5</ele>
        <time>2021-05-30T11:27:07.002Z</time>
      </trkpt>
      <trkpt lat="44.08195" lon="5.9914">
        <ele>498.3</ele>
        <time>2021-05-30T11:27:09.329Z</time>
      </trkpt>
      <trkpt lat="44.08171" lon="5.99171">
        <ele>496.1</ele>
        <time>2021-05-30T11:27:13.518Z</time>
      </trkpt>
      <trkpt lat="44.0816" lon="5.99175">
        <ele>496.3</ele>
        <time>2021-05-30T11:27:18.302Z</time>
      </trkpt>
      <trkpt lat="44.08152" lon="5.99188">
        <ele>495</ele>
        <time>2021-05-30T11:27:19.875Z</time>
      </trkpt>
      <trkpt lat="44.08078" lon="5.99172">
        <ele>503.4</ele>
        <time>2021-05-30T11:28:37.869Z</time>
      </trkpt>
      <trkpt lat="44.08041" lon="5.99145">
        <ele>511.7</ele>
        <time>2021-05-30T11:29:34.750Z</time>
      </trkpt>
      <trkpt lat="44.07997" lon="5.99141">
        <ele>515.8</ele>
        <time>2021-05-30T11:30:12.637Z</time>
      </trkpt>
      <trkpt lat="44.07955" lon="5.99154">
        <ele>511.8</ele>
        <time>2021-05-30T11:30:18.142Z</time>
      </trkpt>
      <trkpt lat="44.07926" lon="5.99184">
        <ele>505.6</ele>
        <time>2021-05-30T11:30:22.765Z</time>
      </trkpt>
      <trkpt lat="44.07923" lon="5.99194">
        <ele>504</ele>
        <time>2021-05-30T11:30:23.761Z</time>
      </trkpt>
      <trkpt lat="44.07906" lon="5.9921">
        <ele>500</ele>
        <time>2021-05-30T11:30:26.386Z</time>
      </trkpt>
      <trkpt lat="44.07894" lon="5.99209">
        <ele>498.8</ele>
        <time>2021-05-30T11:30:27.924Z</time>
      </trkpt>
      <trkpt lat="44.07891" lon="5.99214">
        <ele>497.8</ele>
        <time>2021-05-30T11:30:28.523Z</time>
      </trkpt>
      <trkpt lat="44.07909" lon="5.9923">
        <ele>497.3</ele>
        <time>2021-05-30T11:30:32.247Z</time>
      </trkpt>
      <trkpt lat="44.07933" lon="5.99271">
        <ele>493.4</ele>
        <time>2021-05-30T11:30:37.108Z</time>
      </trkpt>
      <trkpt lat="44.07942" lon="5.9927">
        <ele>493.7</ele>
        <time>2021-05-30T11:30:41.690Z</time>
      </trkpt>
      <trkpt lat="44.07941" lon="5.99212">
        <ele>501.8</ele>
        <time>2021-05-30T11:31:38.438Z</time>
      </trkpt>
      <trkpt lat="44.07946" lon="5.99189">
        <ele>505.6</ele>
        <time>2021-05-30T11:32:01.942Z</time>
      </trkpt>
      <trkpt lat="44.07973" lon="5.99163">
        <ele>510.7</ele>
        <time>2021-05-30T11:32:46.644Z</time>
      </trkpt>
      <trkpt lat="44.07979" lon="5.99166">
        <ele>510.4</ele>
        <time>2021-05-30T11:32:47.522Z</time>
      </trkpt>
      <trkpt lat="44.07987" lon="5.99183">
        <ele>508</ele>
        <time>2021-05-30T11:32:49.390Z</time>
      </trkpt>
      <trkpt lat="44.07997" lon="5.99169">
        <ele>510.5</ele>
        <time>2021-05-30T11:33:08.701Z</time>
      </trkpt>
      <trkpt lat="44.08001" lon="5.99184">
        <ele>508.2</ele>
        <time>2021-05-30T11:33:10.171Z</time>
      </trkpt>
      <trkpt lat="44.08025" lon="5.99191">
        <ele>504.8</ele>
        <time>2021-05-30T11:33:13.309Z</time>
      </trkpt>
      <trkpt lat="44.08039" lon="5.99214">
        <ele>499.5</ele>
        <time>2021-05-30T11:33:16.079Z</time>
      </trkpt>
      <trkpt lat="44.08068" lon="5.99238">
        <ele>492.1</ele>
        <time>2021-05-30T11:33:20.396Z</time>
      </trkpt>
      <trkpt lat="44.08072" lon="5.99254">
        <ele>488.9</ele>
        <time>2021-05-30T11:33:21.953Z</time>
      </trkpt>
      <trkpt lat="44.08067" lon="5.99265">
        <ele>488.4</ele>
        <time>2021-05-30T11:33:23.171Z</time>
      </trkpt>
      <trkpt lat="44.08058" lon="5.99268">
        <ele>489</ele>
        <time>2021-05-30T11:33:29.498Z</time>
      </trkpt>
      <trkpt lat="44.08044" lon="5.99316">
        <ele>484.9</ele>
        <time>2021-05-30T11:33:34.259Z</time>
      </trkpt>
      <trkpt lat="44.08026" lon="5.99351">
        <ele>481.9</ele>
        <time>2021-05-30T11:33:38.215Z</time>
      </trkpt>
      <trkpt lat="44.08011" lon="5.994">
        <ele>474.8</ele>
        <time>2021-05-30T11:33:43.111Z</time>
      </trkpt>
      <trkpt lat="44.08017" lon="5.99469">
        <ele>471.3</ele>
        <time>2021-05-30T11:33:49.499Z</time>
      </trkpt>
      <trkpt lat="44.08061" lon="5.99541">
        <ele>481.2</ele>
        <time>2021-05-30T11:35:21.959Z</time>
      </trkpt>
      <trkpt lat="44.08066" lon="5.99559">
        <ele>482.8</ele>
        <time>2021-05-30T11:35:36.934Z</time>
      </trkpt>
      <trkpt lat="44.0809" lon="5.99564">
        <ele>486.5</ele>
        <time>2021-05-30T11:36:09.976Z</time>
      </trkpt>
      <trkpt lat="44.08137" lon="5.99613">
        <ele>489.8</ele>
        <time>2021-05-30T11:36:47.755Z</time>
      </trkpt>
      <trkpt lat="44.08157" lon="5.99602">
        <ele>492.3</ele>
        <time>2021-05-30T11:37:11.212Z</time>
      </trkpt>
      <trkpt lat="44.08207" lon="5.99629">
        <ele>496</ele>
        <time>2021-05-30T11:37:49.019Z</time>
      </trkpt>
      <trkpt lat="44.08225" lon="5.99623">
        <ele>499.4</ele>
        <time>2021-05-30T11:38:14.221Z</time>
      </trkpt>
      <trkpt lat="44.08229" lon="5.99671">
        <ele>492.9</ele>
        <time>2021-05-30T11:38:18.662Z</time>
      </trkpt>
      <trkpt lat="44.08254" lon="5.99688">
        <ele>494.7</ele>
        <time>2021-05-30T11:38:37.665Z</time>
      </trkpt>
      <trkpt lat="44.08277" lon="5.99694">
        <ele>497.5</ele>
        <time>2021-05-30T11:39:04.236Z</time>
      </trkpt>
      <trkpt lat="44.08289" lon="5.99704">
        <ele>498.6</ele>
        <time>2021-05-30T11:39:14.863Z</time>
      </trkpt>
      <trkpt lat="44.08334" lon="5.99703">
        <ele>504.4</ele>
        <time>2021-05-30T11:40:12.353Z</time>
      </trkpt>
      <trkpt lat="44.08357" lon="5.99695">
        <ele>508.7</ele>
        <time>2021-05-30T11:40:44.632Z</time>
      </trkpt>
      <trkpt lat="44.08372" lon="5.99706">
        <ele>510.2</ele>
        <time>2021-05-30T11:40:58.624Z</time>
      </trkpt>
      <trkpt lat="44.08383" lon="5.99706">
        <ele>512</ele>
        <time>2021-05-30T11:41:13.602Z</time>
      </trkpt>
      <trkpt lat="44.08415" lon="5.99678">
        <ele>521</ele>
        <time>2021-05-30T11:42:05.064Z</time>
      </trkpt>
      <trkpt lat="44.0844" lon="5.99666">
        <ele>525</ele>
        <time>2021-05-30T11:42:41.070Z</time>
      </trkpt>
      <trkpt lat="44.08446" lon="5.99656">
        <ele>526.4</ele>
        <time>2021-05-30T11:42:53.814Z</time>
      </trkpt>
      <trkpt lat="44.08443" lon="5.99643">
        <ele>527.2</ele>
        <time>2021-05-30T11:43:01.447Z</time>
      </trkpt>
      <trkpt lat="44.08468" lon="5.99621">
        <ele>530.7</ele>
        <time>2021-05-30T11:43:34.505Z</time>
      </trkpt>
      <trkpt lat="44.08496" lon="5.99608">
        <ele>533.3</ele>
        <time>2021-05-30T11:43:58.782Z</time>
      </trkpt>
      <trkpt lat="44.08559" lon="5.99608">
        <ele>538.9</ele>
        <time>2021-05-30T11:44:50.965Z</time>
      </trkpt>
      <trkpt lat="44.08565" lon="5.99571">
        <ele>539.6</ele>
        <time>2021-05-30T11:45:03.543Z</time>
      </trkpt>
      <trkpt lat="44.08572" lon="5.99562">
        <ele>539.6</ele>
        <time>2021-05-30T11:45:06.907Z</time>
      </trkpt>
      <trkpt lat="44.08567" lon="5.99577">
        <ele>540.2</ele>
        <time>2021-05-30T11:45:14.263Z</time>
      </trkpt>
      <trkpt lat="44.08585" lon="5.99587">
        <ele>542</ele>
        <time>2021-05-30T11:45:30.900Z</time>
      </trkpt>
      <trkpt lat="44.08593" lon="5.996">
        <ele>542.4</ele>
        <time>2021-05-30T11:45:37.083Z</time>
      </trkpt>
      <trkpt lat="44.08599" lon="5.996">
        <ele>543</ele>
        <time>2021-05-30T11:45:42.591Z</time>
      </trkpt>
      <trkpt lat="44.08609" lon="5.99582">
        <ele>544.1</ele>
        <time>2021-05-30T11:45:53.969Z</time>
      </trkpt>
      <trkpt lat="44.08652" lon="5.99558">
        <ele>547.2</ele>
        <time>2021-05-30T11:46:26.129Z</time>
      </trkpt>
      <trkpt lat="44.08693" lon="5.99553">
        <ele>552.1</ele>
        <time>2021-05-30T11:47:12.526Z</time>
      </trkpt>
      <trkpt lat="44.08709" lon="5.99562">
        <ele>554.4</ele>
        <time>2021-05-30T11:47:35.971Z</time>
      </trkpt>
      <trkpt lat="44.08737" lon="5.99557">
        <ele>558</ele>
        <time>2021-05-30T11:48:11.385Z</time>
      </trkpt>
      <trkpt lat="44.08747" lon="5.99546">
        <ele>558.8</ele>
        <time>2021-05-30T11:48:19.970Z</time>
      </trkpt>
      <trkpt lat="44.08776" lon="5.99559">
        <ele>562.4</ele>
        <time>2021-05-30T11:48:53.952Z</time>
      </trkpt>
      <trkpt lat="44.08812" lon="5.99549">
        <ele>565</ele>
        <time>2021-05-30T11:49:20.192Z</time>
      </trkpt>
      <trkpt lat="44.08847" lon="5.99557">
        <ele>568.9</ele>
        <time>2021-05-30T11:49:56.250Z</time>
      </trkpt>
      <trkpt lat="44.08908" lon="5.99582">
        <ele>578.8</ele>
        <time>2021-05-30T11:51:22.830Z</time>
      </trkpt>
      <trkpt lat="44.08945" lon="5.99578">
        <ele>579.9</ele>
        <time>2021-05-30T11:51:40.813Z</time>
      </trkpt>
      <trkpt lat="44.08956" lon="5.99569">
        <ele>578.5</ele>
        <time>2021-05-30T11:51:42.446Z</time>
      </trkpt>
      <trkpt lat="44.09005" lon="5.99559">
        <ele>578.6</ele>
        <time>2021-05-30T11:52:00.257Z</time>
      </trkpt>
      <trkpt lat="44.09022" lon="5.99546">
        <ele>577.3</ele>
        <time>2021-05-30T11:52:02.739Z</time>
      </trkpt>
      <trkpt lat="44.09085" lon="5.99548">
        <ele>581.6</ele>
        <time>2021-05-30T11:52:46.914Z</time>
      </trkpt>
      <trkpt lat="44.09163" lon="5.99591">
        <ele>585.3</ele>
        <time>2021-05-30T11:53:36.601Z</time>
      </trkpt>
      <trkpt lat="44.09189" lon="5.99587">
        <ele>582.5</ele>
        <time>2021-05-30T11:53:39.948Z</time>
      </trkpt>
      <trkpt lat="44.09194" lon="5.99591">
        <ele>582.5</ele>
        <time>2021-05-30T11:53:41.983Z</time>
      </trkpt>
      <trkpt lat="44.09213" lon="5.99585">
        <ele>580.2</ele>
        <time>2021-05-30T11:53:44.476Z</time>
      </trkpt>
      <trkpt lat="44.09212" lon="5.99598">
        <ele>581.4</ele>
        <time>2021-05-30T11:53:56.297Z</time>
      </trkpt>
      <trkpt lat="44.09231" lon="5.99637">
        <ele>581.8</ele>
        <time>2021-05-30T11:54:09.696Z</time>
      </trkpt>
      <trkpt lat="44.09251" lon="5.99661">
        <ele>579.6</ele>
        <time>2021-05-30T11:54:13.074Z</time>
      </trkpt>
      <trkpt lat="44.0927" lon="5.99662">
        <ele>575.6</ele>
        <time>2021-05-30T11:54:15.507Z</time>
      </trkpt>
      <trkpt lat="44.09279" lon="5.99694">
        <ele>577.2</ele>
        <time>2021-05-30T11:54:32.381Z</time>
      </trkpt>
      <trkpt lat="44.093" lon="5.99701">
        <ele>572.8</ele>
        <time>2021-05-30T11:54:35.143Z</time>
      </trkpt>
      <trkpt lat="44.09308" lon="5.99728">
        <ele>573.5</ele>
        <time>2021-05-30T11:54:45.808Z</time>
      </trkpt>
      <trkpt lat="44.0932" lon="5.99717">
        <ele>569.2</ele>
        <time>2021-05-30T11:54:47.646Z</time>
      </trkpt>
      <trkpt lat="44.09327" lon="5.99733">
        <ele>568.6</ele>
        <time>2021-05-30T11:54:49.540Z</time>
      </trkpt>
      <trkpt lat="44.09338" lon="5.99736">
        <ele>565.9</ele>
        <time>2021-05-30T11:54:50.974Z</time>
      </trkpt>
      <trkpt lat="44.09352" lon="5.99758">
        <ele>563.9</ele>
        <time>2021-05-30T11:54:53.675Z</time>
      </trkpt>
      <trkpt lat="44.09364" lon="5.9976">
        <ele>560.9</ele>
        <time>2021-05-30T11:54:55.221Z</time>
      </trkpt>
      <trkpt lat="44.09371" lon="5.99772">
        <ele>560.1</ele>
        <time>2021-05-30T11:54:56.642Z</time>
      </trkpt>
      <trkpt lat="44.09373" lon="5.99789">
        <ele>561.1</ele>
        <time>2021-05-30T11:55:06.212Z</time>
      </trkpt>
      <trkpt lat="44.09394" lon="5.99828">
        <ele>558.4</ele>
        <time>2021-05-30T11:55:10.690Z</time>
      </trkpt>
      <trkpt lat="44.09394" lon="5.99852">
        <ele>559.6</ele>
        <time>2021-05-30T11:55:22.899Z</time>
      </trkpt>
      <trkpt lat="44.09402" lon="5.99894">
        <ele>558.8</ele>
        <time>2021-05-30T11:55:28.208Z</time>
      </trkpt>
      <trkpt lat="44.09505" lon="5.99949">
        <ele>522.8</ele>
        <time>2021-05-30T11:55:42.322Z</time>
      </trkpt>
      <trkpt lat="44.09518" lon="5.99946">
        <ele>520.8</ele>
        <time>2021-05-30T11:55:44.008Z</time>
      </trkpt>
      <trkpt lat="44.09523" lon="5.99937">
        <ele>520.5</ele>
        <time>2021-05-30T11:55:45.247Z</time>
      </trkpt>
      <trkpt lat="44.09487" lon="5.99869">
        <ele>532.2</ele>
        <time>2021-05-30T11:57:07.856Z</time>
      </trkpt>
      <trkpt lat="44.09489" lon="5.99835">
        <ele>532.8</ele>
        <time>2021-05-30T11:57:19.006Z</time>
      </trkpt>
      <trkpt lat="44.09495" lon="5.99827">
        <ele>531.4</ele>
        <time>2021-05-30T11:57:20.069Z</time>
      </trkpt>
      <trkpt lat="44.09558" lon="5.99802">
        <ele>522.1</ele>
        <time>2021-05-30T11:57:28.450Z</time>
      </trkpt>
      <trkpt lat="44.09602" lon="5.9976">
        <ele>519.3</ele>
        <time>2021-05-30T11:57:35.456Z</time>
      </trkpt>
      <trkpt lat="44.09682" lon="5.99739">
        <ele>515.4</ele>
        <time>2021-05-30T11:57:46.579Z</time>
      </trkpt>
      <trkpt lat="44.09714" lon="5.9974">
        <ele>512.8</ele>
        <time>2021-05-30T11:57:50.674Z</time>
      </trkpt>
      <trkpt lat="44.09781" lon="5.99708">
        <ele>511.5</ele>
        <time>2021-05-30T11:58:03.773Z</time>
      </trkpt>
      <trkpt lat="44.09881" lon="5.99627">
        <ele>511</ele>
        <time>2021-05-30T11:58:42.075Z</time>
      </trkpt>
      <trkpt lat="44.09896" lon="5.99591">
        <ele>511.3</ele>
        <time>2021-05-30T11:58:53.694Z</time>
      </trkpt>
      <trkpt lat="44.09904" lon="5.99548">
        <ele>510.7</ele>
        <time>2021-05-30T11:58:59.561Z</time>
      </trkpt>
      <trkpt lat="44.0991" lon="5.99539">
        <ele>510.2</ele>
        <time>2021-05-30T11:59:00.679Z</time>
      </trkpt>
      <trkpt lat="44.09997" lon="5.99546">
        <ele>503.5</ele>
        <time>2021-05-30T11:59:11.829Z</time>
      </trkpt>
      <trkpt lat="44.10028" lon="5.99519">
        <ele>504.9</ele>
        <time>2021-05-30T11:59:31.708Z</time>
      </trkpt>
      <trkpt lat="44.10042" lon="5.99492">
        <ele>506.5</ele>
        <time>2021-05-30T11:59:48.308Z</time>
      </trkpt>
      <trkpt lat="44.10048" lon="5.99429">
        <ele>510.3</ele>
        <time>2021-05-30T12:00:24.329Z</time>
      </trkpt>
      <trkpt lat="44.10056" lon="5.99417">
        <ele>511</ele>
        <time>2021-05-30T12:00:32.070Z</time>
      </trkpt>
      <trkpt lat="44.10198" lon="5.9943">
        <ele>510</ele>
        <time>2021-05-30T12:01:17.422Z</time>
      </trkpt>
      <trkpt lat="44.10267" lon="5.99429">
        <ele>510.1</ele>
        <time>2021-05-30T12:01:42.109Z</time>
      </trkpt>
      <trkpt lat="44.10348" lon="5.99419">
        <ele>511.5</ele>
        <time>2021-05-30T12:02:16.189Z</time>
      </trkpt>
      <trkpt lat="44.10473" lon="5.99368">
        <ele>519.2</ele>
        <time>2021-05-30T12:03:41.695Z</time>
      </trkpt>
      <trkpt lat="44.10512" lon="5.99346">
        <ele>521.7</ele>
        <time>2021-05-30T12:04:09.374Z</time>
      </trkpt>
      <trkpt lat="44.10594" lon="5.99286">
        <ele>524.4</ele>
        <time>2021-05-30T12:04:53.983Z</time>
      </trkpt>
      <trkpt lat="44.10768" lon="5.99128">
        <ele>533.6</ele>
        <time>2021-05-30T12:06:57.363Z</time>
      </trkpt>
      <trkpt lat="44.10788" lon="5.99101">
        <ele>534.6</ele>
        <time>2021-05-30T12:07:12.014Z</time>
      </trkpt>
      <trkpt lat="44.10798" lon="5.99078">
        <ele>535.9</ele>
        <time>2021-05-30T12:07:25.457Z</time>
      </trkpt>
      <trkpt lat="44.10796" lon="5.99054">
        <ele>537.9</ele>
        <time>2021-05-30T12:07:44.170Z</time>
      </trkpt>
      <trkpt lat="44.10766" lon="5.99018">
        <ele>545.2</ele>
        <time>2021-05-30T12:08:38.089Z</time>
      </trkpt>
      <trkpt lat="44.10762" lon="5.99005">
        <ele>546.8</ele>
        <time>2021-05-30T12:08:51.917Z</time>
      </trkpt>
      <trkpt lat="44.10741" lon="5.98978">
        <ele>550.4</ele>
        <time>2021-05-30T12:09:27.038Z</time>
      </trkpt>
      <trkpt lat="44.10704" lon="5.98914">
        <ele>556</ele>
        <time>2021-05-30T12:10:18.642Z</time>
      </trkpt>
      <trkpt lat="44.10654" lon="5.9886">
        <ele>559.8</ele>
        <time>2021-05-30T12:11:00.452Z</time>
      </trkpt>
      <trkpt lat="44.10645" lon="5.98841">
        <ele>560</ele>
        <time>2021-05-30T12:11:06.950Z</time>
      </trkpt>
      <trkpt lat="44.10644" lon="5.98811">
        <ele>560.2</ele>
        <time>2021-05-30T12:11:15.269Z</time>
      </trkpt>
      <trkpt lat="44.10648" lon="5.98806">
        <ele>559.6</ele>
        <time>2021-05-30T12:11:15.957Z</time>
      </trkpt>
      <trkpt lat="44.10656" lon="5.98816">
        <ele>557.8</ele>
        <time>2021-05-30T12:11:17.332Z</time>
      </trkpt>
      <trkpt lat="44.10671" lon="5.98815">
        <ele>555.2</ele>
        <time>2021-05-30T12:11:19.254Z</time>
      </trkpt>
      <trkpt lat="44.10677" lon="5.98802">
        <ele>554.9</ele>
        <time>2021-05-30T12:11:21.113Z</time>
      </trkpt>
      <trkpt lat="44.10675" lon="5.98781">
        <ele>556.2</ele>
        <time>2021-05-30T12:11:33.344Z</time>
      </trkpt>
      <trkpt lat="44.10705" lon="5.98709">
        <ele>558.2</ele>
        <time>2021-05-30T12:12:03.769Z</time>
      </trkpt>
      <trkpt lat="44.10749" lon="5.98695">
        <ele>553.1</ele>
        <time>2021-05-30T12:12:09.543Z</time>
      </trkpt>
      <trkpt lat="44.10762" lon="5.98679">
        <ele>554.8</ele>
        <time>2021-05-30T12:12:25.163Z</time>
      </trkpt>
      <trkpt lat="44.10799" lon="5.98661">
        <ele>557</ele>
        <time>2021-05-30T12:12:50.367Z</time>
      </trkpt>
      <trkpt lat="44.10836" lon="5.98632">
        <ele>559.7</ele>
        <time>2021-05-30T12:13:19.136Z</time>
      </trkpt>
      <trkpt lat="44.1084" lon="5.98597">
        <ele>562.2</ele>
        <time>2021-05-30T12:13:42.103Z</time>
      </trkpt>
      <trkpt lat="44.10833" lon="5.98545">
        <ele>565.4</ele>
        <time>2021-05-30T12:14:12.332Z</time>
      </trkpt>
      <trkpt lat="44.10851" lon="5.9852">
        <ele>564.9</ele>
        <time>2021-05-30T12:14:16.961Z</time>
      </trkpt>
      <trkpt lat="44.10866" lon="5.9853">
        <ele>563.3</ele>
        <time>2021-05-30T12:14:19.088Z</time>
      </trkpt>
      <trkpt lat="44.10903" lon="5.98636">
        <ele>553.9</ele>
        <time>2021-05-30T12:14:29.915Z</time>
      </trkpt>
      <trkpt lat="44.10934" lon="5.98683">
        <ele>549.9</ele>
        <time>2021-05-30T12:14:35.778Z</time>
      </trkpt>
      <trkpt lat="44.10947" lon="5.98687">
        <ele>550</ele>
        <time>2021-05-30T12:14:40.825Z</time>
      </trkpt>
      <trkpt lat="44.10988" lon="5.98656">
        <ele>553.7</ele>
        <time>2021-05-30T12:15:16.466Z</time>
      </trkpt>
      <trkpt lat="44.11023" lon="5.98644">
        <ele>555.6</ele>
        <time>2021-05-30T12:15:39.117Z</time>
      </trkpt>
      <trkpt lat="44.11129" lon="5.98644">
        <ele>554.2</ele>
        <time>2021-05-30T12:16:00.004Z</time>
      </trkpt>
      <trkpt lat="44.11206" lon="5.98597">
        <ele>556.3</ele>
        <time>2021-05-30T12:16:38.486Z</time>
      </trkpt>
      <trkpt lat="44.11271" lon="5.9857">
        <ele>555.5</ele>
        <time>2021-05-30T12:16:52.097Z</time>
      </trkpt>
      <trkpt lat="44.11385" lon="5.98564">
        <ele>547.6</ele>
        <time>2021-05-30T12:17:06.693Z</time>
      </trkpt>
      <trkpt lat="44.11406" lon="5.98556">
        <ele>546.9</ele>
        <time>2021-05-30T12:17:10.149Z</time>
      </trkpt>
      <trkpt lat="44.11423" lon="5.98557">
        <ele>545</ele>
        <time>2021-05-30T12:17:12.326Z</time>
      </trkpt>
      <trkpt lat="44.1148" lon="5.98535">
        <ele>541.6</ele>
        <time>2021-05-30T12:17:19.777Z</time>
      </trkpt>
      <trkpt lat="44.11531" lon="5.98505">
        <ele>539.3</ele>
        <time>2021-05-30T12:17:27.792Z</time>
      </trkpt>
      <trkpt lat="44.11537" lon="5.98489">
        <ele>539.5</ele>
        <time>2021-05-30T12:17:33.120Z</time>
      </trkpt>
      <trkpt lat="44.11536" lon="5.98444">
        <ele>542.4</ele>
        <time>2021-05-30T12:18:00.090Z</time>
      </trkpt>
      <trkpt lat="44.11539" lon="5.9844">
        <ele>542.1</ele>
        <time>2021-05-30T12:18:00.621Z</time>
      </trkpt>
      <trkpt lat="44.11576" lon="5.98456">
        <ele>534.5</ele>
        <time>2021-05-30T12:18:05.578Z</time>
      </trkpt>
      <trkpt lat="44.11595" lon="5.98457">
        <ele>531.6</ele>
        <time>2021-05-30T12:18:08.011Z</time>
      </trkpt>
      <trkpt lat="44.11619" lon="5.98442">
        <ele>529.9</ele>
        <time>2021-05-30T12:18:11.142Z</time>
      </trkpt>
      <trkpt lat="44.11664" lon="5.98381">
        <ele>531.5</ele>
        <time>2021-05-30T12:18:40.057Z</time>
      </trkpt>
      <trkpt lat="44.11694" lon="5.9837">
        <ele>529.5</ele>
        <time>2021-05-30T12:18:43.754Z</time>
      </trkpt>
      <trkpt lat="44.11702" lon="5.98348">
        <ele>531.1</ele>
        <time>2021-05-30T12:18:58.613Z</time>
      </trkpt>
      <trkpt lat="44.11698" lon="5.98314">
        <ele>535.2</ele>
        <time>2021-05-30T12:19:32.292Z</time>
      </trkpt>
      <trkpt lat="44.11708" lon="5.98286">
        <ele>536.6</ele>
        <time>2021-05-30T12:19:47.371Z</time>
      </trkpt>
      <trkpt lat="44.11737" lon="5.98237">
        <ele>536.4</ele>
        <time>2021-05-30T12:20:02.451Z</time>
      </trkpt>
      <trkpt lat="44.11793" lon="5.98192">
        <ele>529.4</ele>
        <time>2021-05-30T12:20:10.722Z</time>
      </trkpt>
      <trkpt lat="44.11826" lon="5.98151">
        <ele>524.8</ele>
        <time>2021-05-30T12:20:16.380Z</time>
      </trkpt>
      <trkpt lat="44.11846" lon="5.98144">
        <ele>521.5</ele>
        <time>2021-05-30T12:20:19.018Z</time>
      </trkpt>
      <trkpt lat="44.1186" lon="5.98152">
        <ele>518.8</ele>
        <time>2021-05-30T12:20:20.954Z</time>
      </trkpt>
      <trkpt lat="44.1187" lon="5.9815">
        <ele>517.3</ele>
        <time>2021-05-30T12:20:22.247Z</time>
      </trkpt>
      <trkpt lat="44.11882" lon="5.98132">
        <ele>515.8</ele>
        <time>2021-05-30T12:20:24.503Z</time>
      </trkpt>
      <trkpt lat="44.11893" lon="5.98091">
        <ele>514.3</ele>
        <time>2021-05-30T12:20:28.803Z</time>
      </trkpt>
      <trkpt lat="44.11892" lon="5.98066">
        <ele>514.8</ele>
        <time>2021-05-30T12:20:37.317Z</time>
      </trkpt>
      <trkpt lat="44.11912" lon="5.98035">
        <ele>509.7</ele>
        <time>2021-05-30T12:20:41.146Z</time>
      </trkpt>
      <trkpt lat="44.1191" lon="5.98024">
        <ele>510.1</ele>
        <time>2021-05-30T12:20:46.144Z</time>
      </trkpt>
      <trkpt lat="44.11876" lon="5.97996">
        <ele>520.3</ele>
        <time>2021-05-30T12:21:39.924Z</time>
      </trkpt>
      <trkpt lat="44.11875" lon="5.97987">
        <ele>520.9</ele>
        <time>2021-05-30T12:21:45.480Z</time>
      </trkpt>
      <trkpt lat="44.11867" lon="5.97995">
        <ele>523.1</ele>
        <time>2021-05-30T12:21:58.889Z</time>
      </trkpt>
      <trkpt lat="44.11846" lon="5.97996">
        <ele>529.4</ele>
        <time>2021-05-30T12:22:27.499Z</time>
      </trkpt>
      <trkpt lat="44.11869" lon="5.9799">
        <ele>522.6</ele>
        <time>2021-05-30T12:22:30.493Z</time>
      </trkpt>
      <trkpt lat="44.11868" lon="5.97978">
        <ele>523.3</ele>
        <time>2021-05-30T12:22:37.195Z</time>
      </trkpt>
      <trkpt lat="44.11849" lon="5.97946">
        <ele>530.5</ele>
        <time>2021-05-30T12:23:17.786Z</time>
      </trkpt>
      <trkpt lat="44.11843" lon="5.97953">
        <ele>532.2</ele>
        <time>2021-05-30T12:23:28.443Z</time>
      </trkpt>
      <trkpt lat="44.11835" lon="5.97929">
        <ele>535.9</ele>
        <time>2021-05-30T12:23:54.308Z</time>
      </trkpt>
      <trkpt lat="44.11845" lon="5.97924">
        <ele>532.8</ele>
        <time>2021-05-30T12:23:55.668Z</time>
      </trkpt>
      <trkpt lat="44.11837" lon="5.97883">
        <ele>533.1</ele>
        <time>2021-05-30T12:24:07.501Z</time>
      </trkpt>
      <trkpt lat="44.11841" lon="5.97875">
        <ele>531.4</ele>
        <time>2021-05-30T12:24:08.396Z</time>
      </trkpt>
      <trkpt lat="44.11896" lon="5.97859">
        <ele>516.3</ele>
        <time>2021-05-30T12:24:15.585Z</time>
      </trkpt>
      <trkpt lat="44.11899" lon="5.97908">
        <ele>515</ele>
        <time>2021-05-30T12:24:20.932Z</time>
      </trkpt>
      <trkpt lat="44.11903" lon="5.97913">
        <ele>513.7</ele>
        <time>2021-05-30T12:24:21.620Z</time>
      </trkpt>
      <trkpt lat="44.11915" lon="5.97895">
        <ele>510.3</ele>
        <time>2021-05-30T12:24:23.876Z</time>
      </trkpt>
      <trkpt lat="44.11927" lon="5.97889">
        <ele>507.7</ele>
        <time>2021-05-30T12:24:25.507Z</time>
      </trkpt>
      <trkpt lat="44.11937" lon="5.97905">
        <ele>505.1</ele>
        <time>2021-05-30T12:24:27.456Z</time>
      </trkpt>
      <trkpt lat="44.11948" lon="5.97907">
        <ele>502.7</ele>
        <time>2021-05-30T12:24:28.875Z</time>
      </trkpt>
      <trkpt lat="44.11964" lon="5.97895">
        <ele>499.4</ele>
        <time>2021-05-30T12:24:31.200Z</time>
      </trkpt>
      <trkpt lat="44.11963" lon="5.97881">
        <ele>499.6</ele>
        <time>2021-05-30T12:24:35.555Z</time>
      </trkpt>
      <trkpt lat="44.11974" lon="5.97872">
        <ele>497.1</ele>
        <time>2021-05-30T12:24:37.188Z</time>
      </trkpt>
      <trkpt lat="44.11992" lon="5.97795">
        <ele>488.4</ele>
        <time>2021-05-30T12:24:44.625Z</time>
      </trkpt>
      <trkpt lat="44.12003" lon="5.9779">
        <ele>485.6</ele>
        <time>2021-05-30T12:24:46.106Z</time>
      </trkpt>
      <trkpt lat="44.12016" lon="5.97803">
        <ele>485.3</ele>
        <time>2021-05-30T12:24:49.051Z</time>
      </trkpt>
      <trkpt lat="44.12023" lon="5.97825">
        <ele>485.9</ele>
        <time>2021-05-30T12:24:57.995Z</time>
      </trkpt>
      <trkpt lat="44.12023" lon="5.97873">
        <ele>486.8</ele>
        <time>2021-05-30T12:25:13.984Z</time>
      </trkpt>
      <trkpt lat="44.12014" lon="5.97895">
        <ele>488.8</ele>
        <time>2021-05-30T12:25:32.477Z</time>
      </trkpt>
      <trkpt lat="44.12012" lon="5.97916">
        <ele>489.5</ele>
        <time>2021-05-30T12:25:41.626Z</time>
      </trkpt>
      <trkpt lat="44.12038" lon="5.97945">
        <ele>485.1</ele>
        <time>2021-05-30T12:25:45.888Z</time>
      </trkpt>
      <trkpt lat="44.12042" lon="5.97965">
        <ele>484.9</ele>
        <time>2021-05-30T12:25:48.817Z</time>
      </trkpt>
      <trkpt lat="44.1204" lon="5.97927">
        <ele>484.1</ele>
        <time>2021-05-30T12:25:53.292Z</time>
      </trkpt>
      <trkpt lat="44.12049" lon="5.97914">
        <ele>482</ele>
        <time>2021-05-30T12:25:54.951Z</time>
      </trkpt>
      <trkpt lat="44.12068" lon="5.97941">
        <ele>479</ele>
        <time>2021-05-30T12:25:58.423Z</time>
      </trkpt>
      <trkpt lat="44.12091" lon="5.97952">
        <ele>476.4</ele>
        <time>2021-05-30T12:26:01.534Z</time>
      </trkpt>
      <trkpt lat="44.1211" lon="5.97951">
        <ele>476.8</ele>
        <time>2021-05-30T12:26:09.848Z</time>
      </trkpt>
      <trkpt lat="44.12184" lon="5.97913">
        <ele>484.7</ele>
        <time>2021-05-30T12:27:22.367Z</time>
      </trkpt>
      <trkpt lat="44.12283" lon="5.97896">
        <ele>493.1</ele>
        <time>2021-05-30T12:28:41.726Z</time>
      </trkpt>
      <trkpt lat="44.12309" lon="5.97874">
        <ele>497.3</ele>
        <time>2021-05-30T12:29:23.146Z</time>
      </trkpt>
      <trkpt lat="44.12318" lon="5.97857">
        <ele>500.7</ele>
        <time>2021-05-30T12:29:43.792Z</time>
      </trkpt>
      <trkpt lat="44.12323" lon="5.97792">
        <ele>508.5</ele>
        <time>2021-05-30T12:30:47.687Z</time>
      </trkpt>
      <trkpt lat="44.12336" lon="5.97709">
        <ele>512.8</ele>
        <time>2021-05-30T12:31:31.173Z</time>
      </trkpt>
      <trkpt lat="44.12331" lon="5.97697">
        <ele>512.7</ele>
        <time>2021-05-30T12:31:33.218Z</time>
      </trkpt>
      <trkpt lat="44.12284" lon="5.97659">
        <ele>506.1</ele>
        <time>2021-05-30T12:31:40.171Z</time>
      </trkpt>
      <trkpt lat="44.12273" lon="5.97642">
        <ele>504.9</ele>
        <time>2021-05-30T12:31:42.273Z</time>
      </trkpt>
      <trkpt lat="44.12273" lon="5.97623">
        <ele>505.4</ele>
        <time>2021-05-30T12:31:49.522Z</time>
      </trkpt>
      <trkpt lat="44.12271" lon="5.97646">
        <ele>504.5</ele>
        <time>2021-05-30T12:31:51.676Z</time>
      </trkpt>
      <trkpt lat="44.12276" lon="5.97608">
        <ele>506.2</ele>
        <time>2021-05-30T12:32:10.162Z</time>
      </trkpt>
      <trkpt lat="44.1229" lon="5.97581">
        <ele>509</ele>
        <time>2021-05-30T12:32:36.502Z</time>
      </trkpt>
      <trkpt lat="44.12319" lon="5.97494">
        <ele>523.6</ele>
        <time>2021-05-30T12:34:10.258Z</time>
      </trkpt>
      <trkpt lat="44.12334" lon="5.9741">
        <ele>539.2</ele>
        <time>2021-05-30T12:35:34.862Z</time>
      </trkpt>
      <trkpt lat="44.12359" lon="5.97371">
        <ele>539.2</ele>
        <time>2021-05-30T12:35:48.112Z</time>
      </trkpt>
      <trkpt lat="44.12366" lon="5.97347">
        <ele>540.1</ele>
        <time>2021-05-30T12:35:59.471Z</time>
      </trkpt>
      <trkpt lat="44.12366" lon="5.973">
        <ele>538.4</ele>
        <time>2021-05-30T12:36:03.982Z</time>
      </trkpt>
      <trkpt lat="44.12395" lon="5.97247">
        <ele>538.8</ele>
        <time>2021-05-30T12:36:22.269Z</time>
      </trkpt>
      <trkpt lat="44.12407" lon="5.97208">
        <ele>539.6</ele>
        <time>2021-05-30T12:36:36.428Z</time>
      </trkpt>
      <trkpt lat="44.12407" lon="5.97208">
        <ele>539.6</ele>
        <time>2021-05-30T12:36:36.428Z</time>
      </trkpt>
      <trkpt lat="44.12414" lon="5.97152">
        <ele>538.6</ele>
        <time>2021-05-30T12:36:43.456Z</time>
      </trkpt>
      <trkpt lat="44.1243" lon="5.97077">
        <ele>530.7</ele>
        <time>2021-05-30T12:36:50.642Z</time>
      </trkpt>
      <trkpt lat="44.1243" lon="5.97068">
        <ele>530.2</ele>
        <time>2021-05-30T12:36:51.469Z</time>
      </trkpt>
      <trkpt lat="44.12433" lon="5.97">
        <ele>527</ele>
        <time>2021-05-30T12:36:57.255Z</time>
      </trkpt>
      <trkpt lat="44.12416" lon="5.96945">
        <ele>530.6</ele>
        <time>2021-05-30T12:37:31.320Z</time>
      </trkpt>
      <trkpt lat="44.12383" lon="5.96912">
        <ele>530.2</ele>
        <time>2021-05-30T12:37:39.683Z</time>
      </trkpt>
      <trkpt lat="44.1236" lon="5.96877">
        <ele>531.5</ele>
        <time>2021-05-30T12:37:58.170Z</time>
      </trkpt>
      <trkpt lat="44.12336" lon="5.96864">
        <ele>530.3</ele>
        <time>2021-05-30T12:38:01.729Z</time>
      </trkpt>
      <trkpt lat="44.12294" lon="5.96849">
        <ele>531.2</ele>
        <time>2021-05-30T12:38:20.628Z</time>
      </trkpt>
      <trkpt lat="44.12299" lon="5.96821">
        <ele>534.9</ele>
        <time>2021-05-30T12:38:48.830Z</time>
      </trkpt>
      <trkpt lat="44.12313" lon="5.96789">
        <ele>539.9</ele>
        <time>2021-05-30T12:39:25.458Z</time>
      </trkpt>
      <trkpt lat="44.12316" lon="5.96759">
        <ele>544.6</ele>
        <time>2021-05-30T12:39:55.064Z</time>
      </trkpt>
      <trkpt lat="44.12276" lon="5.96751">
        <ele>545.8</ele>
        <time>2021-05-30T12:40:14.659Z</time>
      </trkpt>
      <trkpt lat="44.1224" lon="5.96742">
        <ele>545.7</ele>
        <time>2021-05-30T12:40:27.051Z</time>
      </trkpt>
      <trkpt lat="44.12202" lon="5.96736">
        <ele>541</ele>
        <time>2021-05-30T12:40:31.944Z</time>
      </trkpt>
      <trkpt lat="44.12155" lon="5.96734">
        <ele>537.8</ele>
        <time>2021-05-30T12:40:37.960Z</time>
      </trkpt>
      <trkpt lat="44.12128" lon="5.96723">
        <ele>541.9</ele>
        <time>2021-05-30T12:41:16.262Z</time>
      </trkpt>
      <trkpt lat="44.12128" lon="5.96682">
        <ele>543.1</ele>
        <time>2021-05-30T12:41:32.845Z</time>
      </trkpt>
      <trkpt lat="44.12131" lon="5.96631">
        <ele>545.8</ele>
        <time>2021-05-30T12:41:59.646Z</time>
      </trkpt>
      <trkpt lat="44.12128" lon="5.9657">
        <ele>551.9</ele>
        <time>2021-05-30T12:42:59.410Z</time>
      </trkpt>
      <trkpt lat="44.12151" lon="5.96513">
        <ele>552.3</ele>
        <time>2021-05-30T12:43:17.383Z</time>
      </trkpt>
      <trkpt lat="44.12188" lon="5.96467">
        <ele>550.7</ele>
        <time>2021-05-30T12:43:25.246Z</time>
      </trkpt>
      <trkpt lat="44.12231" lon="5.96444">
        <ele>549.8</ele>
        <time>2021-05-30T12:43:33.644Z</time>
      </trkpt>
      <trkpt lat="44.12253" lon="5.9642">
        <ele>548.7</ele>
        <time>2021-05-30T12:43:37.774Z</time>
      </trkpt>
      <trkpt lat="44.12285" lon="5.96384">
        <ele>556.2</ele>
        <time>2021-05-30T12:44:33.779Z</time>
      </trkpt>
      <trkpt lat="44.12305" lon="5.96337">
        <ele>560.2</ele>
        <time>2021-05-30T12:45:10.494Z</time>
      </trkpt>
      <trkpt lat="44.12299" lon="5.96272">
        <ele>563.5</ele>
        <time>2021-05-30T12:45:43.948Z</time>
      </trkpt>
      <trkpt lat="44.12248" lon="5.96238">
        <ele>565.5</ele>
        <time>2021-05-30T12:46:13.473Z</time>
      </trkpt>
      <trkpt lat="44.12188" lon="5.96221">
        <ele>566.7</ele>
        <time>2021-05-30T12:46:39.816Z</time>
      </trkpt>
      <trkpt lat="44.12139" lon="5.96195">
        <ele>575.4</ele>
        <time>2021-05-30T12:47:51.210Z</time>
      </trkpt>
      <trkpt lat="44.12072" lon="5.96176">
        <ele>590</ele>
        <time>2021-05-30T12:49:24.308Z</time>
      </trkpt>
      <trkpt lat="44.12017" lon="5.96169">
        <ele>594.7</ele>
        <time>2021-05-30T12:50:08.580Z</time>
      </trkpt>
      <trkpt lat="44.11973" lon="5.96144">
        <ele>588.2</ele>
        <time>2021-05-30T12:50:14.659Z</time>
      </trkpt>
      <trkpt lat="44.11973" lon="5.96144">
        <ele>588.2</ele>
        <time>2021-05-30T12:50:14.659Z</time>
      </trkpt>
      <trkpt lat="44.11916" lon="5.9615">
        <ele>584.2</ele>
        <time>2021-05-30T12:50:21.973Z</time>
      </trkpt>
      <trkpt lat="44.11908" lon="5.96145">
        <ele>583.9</ele>
        <time>2021-05-30T12:50:23.336Z</time>
      </trkpt>
      <trkpt lat="44.11901" lon="5.96129">
        <ele>583.3</ele>
        <time>2021-05-30T12:50:25.229Z</time>
      </trkpt>
      <trkpt lat="44.11862" lon="5.96096">
        <ele>583.6</ele>
        <time>2021-05-30T12:50:42.369Z</time>
      </trkpt>
      <trkpt lat="44.11823" lon="5.96088">
        <ele>585.5</ele>
        <time>2021-05-30T12:51:06.418Z</time>
      </trkpt>
      <trkpt lat="44.11782" lon="5.96103">
        <ele>587.3</ele>
        <time>2021-05-30T12:51:30.907Z</time>
      </trkpt>
      <trkpt lat="44.11761" lon="5.9609">
        <ele>589</ele>
        <time>2021-05-30T12:51:47.735Z</time>
      </trkpt>
      <trkpt lat="44.11703" lon="5.96074">
        <ele>577.4</ele>
        <time>2021-05-30T12:51:55.300Z</time>
      </trkpt>
      <trkpt lat="44.11699" lon="5.96065">
        <ele>574.3</ele>
        <time>2021-05-30T12:51:56.272Z</time>
      </trkpt>
      <trkpt lat="44.11669" lon="5.96092">
        <ele>573.1</ele>
        <time>2021-05-30T12:52:01.859Z</time>
      </trkpt>
      <trkpt lat="44.11638" lon="5.96091">
        <ele>567.7</ele>
        <time>2021-05-30T12:52:05.826Z</time>
      </trkpt>
      <trkpt lat="44.11614" lon="5.96104">
        <ele>565.7</ele>
        <time>2021-05-30T12:52:09.120Z</time>
      </trkpt>
      <trkpt lat="44.11587" lon="5.96133">
        <ele>567.5</ele>
        <time>2021-05-30T12:52:30.558Z</time>
      </trkpt>
      <trkpt lat="44.11582" lon="5.96164">
        <ele>573.4</ele>
        <time>2021-05-30T12:53:01.617Z</time>
      </trkpt>
      <trkpt lat="44.11555" lon="5.96182">
        <ele>571.8</ele>
        <time>2021-05-30T12:53:05.516Z</time>
      </trkpt>
      <trkpt lat="44.11527" lon="5.9618">
        <ele>570.2</ele>
        <time>2021-05-30T12:53:09.060Z</time>
      </trkpt>
      <trkpt lat="44.11561" lon="5.96137">
        <ele>566.7</ele>
        <time>2021-05-30T12:53:14.935Z</time>
      </trkpt>
      <trkpt lat="44.11578" lon="5.96089">
        <ele>557.9</ele>
        <time>2021-05-30T12:53:19.851Z</time>
      </trkpt>
      <trkpt lat="44.11582" lon="5.96056">
        <ele>553</ele>
        <time>2021-05-30T12:53:22.925Z</time>
      </trkpt>
      <trkpt lat="44.11591" lon="5.96035">
        <ele>551.1</ele>
        <time>2021-05-30T12:53:25.172Z</time>
      </trkpt>
      <trkpt lat="44.11644" lon="5.95978">
        <ele>548.3</ele>
        <time>2021-05-30T12:53:34.841Z</time>
      </trkpt>
      <trkpt lat="44.11648" lon="5.9596">
        <ele>546.1</ele>
        <time>2021-05-30T12:53:36.572Z</time>
      </trkpt>
      <trkpt lat="44.11642" lon="5.95955">
        <ele>544.8</ele>
        <time>2021-05-30T12:53:37.467Z</time>
      </trkpt>
      <trkpt lat="44.11595" lon="5.95982">
        <ele>544</ele>
        <time>2021-05-30T12:53:47.172Z</time>
      </trkpt>
      <trkpt lat="44.11587" lon="5.9598">
        <ele>543</ele>
        <time>2021-05-30T12:53:48.212Z</time>
      </trkpt>
      <trkpt lat="44.11587" lon="5.95948">
        <ele>539.1</ele>
        <time>2021-05-30T12:53:51.151Z</time>
      </trkpt>
      <trkpt lat="44.11582" lon="5.95935">
        <ele>537.2</ele>
        <time>2021-05-30T12:53:52.506Z</time>
      </trkpt>
      <trkpt lat="44.11574" lon="5.95866">
        <ele>531.6</ele>
        <time>2021-05-30T12:53:58.926Z</time>
      </trkpt>
      <trkpt lat="44.11598" lon="5.95843">
        <ele>530.3</ele>
        <time>2021-05-30T12:54:03.025Z</time>
      </trkpt>
      <trkpt lat="44.11623" lon="5.95841">
        <ele>531.1</ele>
        <time>2021-05-30T12:54:15.522Z</time>
      </trkpt>
      <trkpt lat="44.11663" lon="5.95852">
        <ele>533.9</ele>
        <time>2021-05-30T12:54:44.197Z</time>
      </trkpt>
      <trkpt lat="44.11689" lon="5.95871">
        <ele>536.4</ele>
        <time>2021-05-30T12:55:07.742Z</time>
      </trkpt>
      <trkpt lat="44.11711" lon="5.95873">
        <ele>537</ele>
        <time>2021-05-30T12:55:18.109Z</time>
      </trkpt>
      <trkpt lat="44.11713" lon="5.95878">
        <ele>537.8</ele>
        <time>2021-05-30T12:55:23.704Z</time>
      </trkpt>
      <trkpt lat="44.11723" lon="5.95877">
        <ele>537.8</ele>
        <time>2021-05-30T12:55:27.243Z</time>
      </trkpt>
      <trkpt lat="44.11732" lon="5.95854">
        <ele>534.4</ele>
        <time>2021-05-30T12:55:29.649Z</time>
      </trkpt>
      <trkpt lat="44.11751" lon="5.95828">
        <ele>530.4</ele>
        <time>2021-05-30T12:55:33.057Z</time>
      </trkpt>
      <trkpt lat="44.11766" lon="5.95826">
        <ele>530.5</ele>
        <time>2021-05-30T12:55:38.720Z</time>
      </trkpt>
      <trkpt lat="44.11774" lon="5.95816">
        <ele>529.6</ele>
        <time>2021-05-30T12:55:40.096Z</time>
      </trkpt>
      <trkpt lat="44.11795" lon="5.95813">
        <ele>529.9</ele>
        <time>2021-05-30T12:55:48.663Z</time>
      </trkpt>
      <trkpt lat="44.11824" lon="5.9582">
        <ele>531.5</ele>
        <time>2021-05-30T12:56:07.364Z</time>
      </trkpt>
      <trkpt lat="44.11854" lon="5.95841">
        <ele>533.9</ele>
        <time>2021-05-30T12:56:31.483Z</time>
      </trkpt>
      <trkpt lat="44.1188" lon="5.95842">
        <ele>533.9</ele>
        <time>2021-05-30T12:56:40.665Z</time>
      </trkpt>
      <trkpt lat="44.11925" lon="5.95866">
        <ele>535.6</ele>
        <time>2021-05-30T12:57:05.796Z</time>
      </trkpt>
      <trkpt lat="44.1193" lon="5.95859">
        <ele>534.5</ele>
        <time>2021-05-30T12:57:06.703Z</time>
      </trkpt>
      <trkpt lat="44.11949" lon="5.95859">
        <ele>533.1</ele>
        <time>2021-05-30T12:57:09.134Z</time>
      </trkpt>
      <trkpt lat="44.11963" lon="5.9585">
        <ele>531</ele>
        <time>2021-05-30T12:57:11.106Z</time>
      </trkpt>
      <trkpt lat="44.11994" lon="5.95861">
        <ele>530.1</ele>
        <time>2021-05-30T12:57:16.403Z</time>
      </trkpt>
      <trkpt lat="44.11999" lon="5.95876">
        <ele>531.7</ele>
        <time>2021-05-30T12:57:32.568Z</time>
      </trkpt>
      <trkpt lat="44.12019" lon="5.95884">
        <ele>531.9</ele>
        <time>2021-05-30T12:57:40.623Z</time>
      </trkpt>
      <trkpt lat="44.12065" lon="5.95871">
        <ele>528.3</ele>
        <time>2021-05-30T12:57:46.628Z</time>
      </trkpt>
      <trkpt lat="44.12095" lon="5.95889">
        <ele>528.8</ele>
        <time>2021-05-30T12:58:00.039Z</time>
      </trkpt>
      <trkpt lat="44.12107" lon="5.95925">
        <ele>531.7</ele>
        <time>2021-05-30T12:58:26.657Z</time>
      </trkpt>
      <trkpt lat="44.12121" lon="5.95933">
        <ele>531.3</ele>
        <time>2021-05-30T12:58:29.208Z</time>
      </trkpt>
      <trkpt lat="44.1212" lon="5.95955">
        <ele>533.9</ele>
        <time>2021-05-30T12:58:50.755Z</time>
      </trkpt>
      <trkpt lat="44.12136" lon="5.95988">
        <ele>536</ele>
        <time>2021-05-30T12:59:11.605Z</time>
      </trkpt>
      <trkpt lat="44.12154" lon="5.96001">
        <ele>535.6</ele>
        <time>2021-05-30T12:59:15.294Z</time>
      </trkpt>
      <trkpt lat="44.1216" lon="5.96014">
        <ele>537.3</ele>
        <time>2021-05-30T12:59:30.401Z</time>
      </trkpt>
      <trkpt lat="44.12181" lon="5.96018">
        <ele>536</ele>
        <time>2021-05-30T12:59:32.989Z</time>
      </trkpt>
      <trkpt lat="44.12208" lon="5.96033">
        <ele>536.5</ele>
        <time>2021-05-30T12:59:45.170Z</time>
      </trkpt>
      <trkpt lat="44.12295" lon="5.96058">
        <ele>531.5</ele>
        <time>2021-05-30T12:59:56.470Z</time>
      </trkpt>
      <trkpt lat="44.12306" lon="5.96044">
        <ele>527.8</ele>
        <time>2021-05-30T12:59:58.377Z</time>
      </trkpt>
      <trkpt lat="44.1231" lon="5.96029">
        <ele>525</ele>
        <time>2021-05-30T12:59:59.846Z</time>
      </trkpt>
      <trkpt lat="44.12328" lon="5.96028">
        <ele>522.7</ele>
        <time>2021-05-30T13:00:02.151Z</time>
      </trkpt>
      <trkpt lat="44.1235" lon="5.96057">
        <ele>525.1</ele>
        <time>2021-05-30T13:00:25.277Z</time>
      </trkpt>
      <trkpt lat="44.12358" lon="5.96092">
        <ele>529.7</ele>
        <time>2021-05-30T13:01:01.178Z</time>
      </trkpt>
      <trkpt lat="44.12374" lon="5.96106">
        <ele>530.8</ele>
        <time>2021-05-30T13:01:13.505Z</time>
      </trkpt>
      <trkpt lat="44.12381" lon="5.96096">
        <ele>528.3</ele>
        <time>2021-05-30T13:01:14.787Z</time>
      </trkpt>
      <trkpt lat="44.1238" lon="5.96075">
        <ele>525.1</ele>
        <time>2021-05-30T13:01:16.720Z</time>
      </trkpt>
      <trkpt lat="44.12394" lon="5.96024">
        <ele>518.4</ele>
        <time>2021-05-30T13:01:21.735Z</time>
      </trkpt>
      <trkpt lat="44.12415" lon="5.96009">
        <ele>515.9</ele>
        <time>2021-05-30T13:01:24.754Z</time>
      </trkpt>
      <trkpt lat="44.12477" lon="5.96005">
        <ele>516.1</ele>
        <time>2021-05-30T13:01:47.330Z</time>
      </trkpt>
      <trkpt lat="44.12504" lon="5.96017">
        <ele>517.1</ele>
        <time>2021-05-30T13:02:02.112Z</time>
      </trkpt>
      <trkpt lat="44.12506" lon="5.96031">
        <ele>518.1</ele>
        <time>2021-05-30T13:02:11.303Z</time>
      </trkpt>
      <trkpt lat="44.12519" lon="5.96032">
        <ele>517.8</ele>
        <time>2021-05-30T13:02:13.583Z</time>
      </trkpt>
      <trkpt lat="44.12545" lon="5.96048">
        <ele>518.9</ele>
        <time>2021-05-30T13:02:29.127Z</time>
      </trkpt>
      <trkpt lat="44.1258" lon="5.96043">
        <ele>517.7</ele>
        <time>2021-05-30T13:02:34.601Z</time>
      </trkpt>
      <trkpt lat="44.12596" lon="5.96057">
        <ele>518.8</ele>
        <time>2021-05-30T13:02:46.928Z</time>
      </trkpt>
      <trkpt lat="44.12618" lon="5.96116">
        <ele>522.8</ele>
        <time>2021-05-30T13:03:24.770Z</time>
      </trkpt>
      <trkpt lat="44.12619" lon="5.96171">
        <ele>526.1</ele>
        <time>2021-05-30T13:03:56.017Z</time>
      </trkpt>
      <trkpt lat="44.12657" lon="5.96169">
        <ele>522.1</ele>
        <time>2021-05-30T13:04:00.883Z</time>
      </trkpt>
      <trkpt lat="44.12654" lon="5.96187">
        <ele>524.2</ele>
        <time>2021-05-30T13:04:18.943Z</time>
      </trkpt>
      <trkpt lat="44.12646" lon="5.96196">
        <ele>526.1</ele>
        <time>2021-05-30T13:04:32.944Z</time>
      </trkpt>
      <trkpt lat="44.12638" lon="5.96232">
        <ele>531.1</ele>
        <time>2021-05-30T13:05:09.776Z</time>
      </trkpt>
      <trkpt lat="44.12639" lon="5.96245">
        <ele>532.4</ele>
        <time>2021-05-30T13:05:22.555Z</time>
      </trkpt>
      <trkpt lat="44.12644" lon="5.96248">
        <ele>531.9</ele>
        <time>2021-05-30T13:05:23.251Z</time>
      </trkpt>
      <trkpt lat="44.12669" lon="5.96232">
        <ele>526.2</ele>
        <time>2021-05-30T13:05:26.771Z</time>
      </trkpt>
      <trkpt lat="44.12674" lon="5.96238">
        <ele>526.2</ele>
        <time>2021-05-30T13:05:29.101Z</time>
      </trkpt>
      <trkpt lat="44.12675" lon="5.96259">
        <ele>529.3</ele>
        <time>2021-05-30T13:05:49.670Z</time>
      </trkpt>
      <trkpt lat="44.12689" lon="5.96262">
        <ele>528.3</ele>
        <time>2021-05-30T13:05:51.482Z</time>
      </trkpt>
      <trkpt lat="44.12719" lon="5.96253">
        <ele>522.4</ele>
        <time>2021-05-30T13:05:55.408Z</time>
      </trkpt>
      <trkpt lat="44.12717" lon="5.96223">
        <ele>520.3</ele>
        <time>2021-05-30T13:05:58.175Z</time>
      </trkpt>
      <trkpt lat="44.12711" lon="5.96209">
        <ele>520</ele>
        <time>2021-05-30T13:06:00.166Z</time>
      </trkpt>
      <trkpt lat="44.12709" lon="5.9622">
        <ele>520.9</ele>
        <time>2021-05-30T13:06:08.495Z</time>
      </trkpt>
      <trkpt lat="44.12722" lon="5.96227">
        <ele>520</ele>
        <time>2021-05-30T13:06:10.155Z</time>
      </trkpt>
      <trkpt lat="44.12723" lon="5.96255">
        <ele>522.4</ele>
        <time>2021-05-30T13:06:32.898Z</time>
      </trkpt>
      <trkpt lat="44.12745" lon="5.96258">
        <ele>520.3</ele>
        <time>2021-05-30T13:06:35.726Z</time>
      </trkpt>
      <trkpt lat="44.12769" lon="5.96245">
        <ele>516.2</ele>
        <time>2021-05-30T13:06:39.020Z</time>
      </trkpt>
      <trkpt lat="44.12791" lon="5.96273">
        <ele>518.3</ele>
        <time>2021-05-30T13:07:00.263Z</time>
      </trkpt>
      <trkpt lat="44.12811" lon="5.96317">
        <ele>522.4</ele>
        <time>2021-05-30T13:07:38.152Z</time>
      </trkpt>
      <trkpt lat="44.12841" lon="5.96322">
        <ele>518.4</ele>
        <time>2021-05-30T13:07:42.018Z</time>
      </trkpt>
      <trkpt lat="44.12846" lon="5.9635">
        <ele>521.6</ele>
        <time>2021-05-30T13:08:10.217Z</time>
      </trkpt>
      <trkpt lat="44.1286" lon="5.96386">
        <ele>524.3</ele>
        <time>2021-05-30T13:08:35.216Z</time>
      </trkpt>
      <trkpt lat="44.12883" lon="5.96421">
        <ele>522.4</ele>
        <time>2021-05-30T13:08:39.567Z</time>
      </trkpt>
      <trkpt lat="44.12888" lon="5.96455">
        <ele>523.6</ele>
        <time>2021-05-30T13:08:54.761Z</time>
      </trkpt>
      <trkpt lat="44.12895" lon="5.96468">
        <ele>522.9</ele>
        <time>2021-05-30T13:08:56.201Z</time>
      </trkpt>
      <trkpt lat="44.12906" lon="5.96525">
        <ele>520.6</ele>
        <time>2021-05-30T13:09:01.681Z</time>
      </trkpt>
      <trkpt lat="44.1292" lon="5.96539">
        <ele>516.7</ele>
        <time>2021-05-30T13:09:03.885Z</time>
      </trkpt>
      <trkpt lat="44.12981" lon="5.96543">
        <ele>507.1</ele>
        <time>2021-05-30T13:09:11.699Z</time>
      </trkpt>
      <trkpt lat="44.13014" lon="5.96539">
        <ele>502.6</ele>
        <time>2021-05-30T13:09:15.937Z</time>
      </trkpt>
      <trkpt lat="44.13042" lon="5.96591">
        <ele>507.7</ele>
        <time>2021-05-30T13:10:03.039Z</time>
      </trkpt>
      <trkpt lat="44.13037" lon="5.96546">
        <ele>502</ele>
        <time>2021-05-30T13:10:07.221Z</time>
      </trkpt>
      <trkpt lat="44.1304" lon="5.96538">
        <ele>500.5</ele>
        <time>2021-05-30T13:10:08.050Z</time>
      </trkpt>
      <trkpt lat="44.13055" lon="5.96532">
        <ele>498.6</ele>
        <time>2021-05-30T13:10:10.046Z</time>
      </trkpt>
      <trkpt lat="44.13069" lon="5.96573">
        <ele>503.7</ele>
        <time>2021-05-30T13:10:54.418Z</time>
      </trkpt>
    </trkseg>
  </trk>
</gpx>